<?xml version="1.0" encoding="UTF-8" standalone="no" ?>
<gpx xmlns="http://www.topografix.com/GPX/1/1" xmlns:xsi="http://www.w3.org/2001/XMLSchema-instance" xsi:schemaLocation="http://www.topografix.com/GPX/1/1 http://www.topografix.com/GPX/1/1/gpx.xsd" version="1.1" creator="VisuGPX - https://www.visugpx.com">
  <metadata>
    <name>Randonnée dans l'après-midi</name>
  </metadata>
  <trk>
    <name><![CDATA[Randonnée dans l'après-midi_1]]></name>
    <trkseg>
      <trkpt lat="47.16979" lon="5.89068">
        <ele>260.7</ele>
        <time>2026-08-22T12:50:54Z</time>
      </trkpt>
      <trkpt lat="47.16984" lon="5.89071">
        <ele>260.4</ele>
        <time>2026-08-22T12:50:59Z</time>
      </trkpt>
      <trkpt lat="47.16989" lon="5.89074">
        <ele>260.1</ele>
        <time>2026-08-22T12:51:04Z</time>
      </trkpt>
      <trkpt lat="47.16999" lon="5.89076">
        <ele>259.4</ele>
        <time>2026-08-22T12:51:12Z</time>
      </trkpt>
      <trkpt lat="47.17003" lon="5.89074">
        <ele>258.9</ele>
        <time>2026-08-22T12:51:16Z</time>
      </trkpt>
      <trkpt lat="47.17008" lon="5.89072">
        <ele>258.4</ele>
        <time>2026-08-22T12:51:22Z</time>
      </trkpt>
      <trkpt lat="47.17018" lon="5.89068">
        <ele>257.3</ele>
        <time>2026-08-22T12:51:29Z</time>
      </trkpt>
      <trkpt lat="47.17028" lon="5.89057">
        <ele>256.1</ele>
        <time>2026-08-22T12:51:37Z</time>
      </trkpt>
      <trkpt lat="47.17032" lon="5.89051">
        <ele>255.5</ele>
        <time>2026-08-22T12:51:42Z</time>
      </trkpt>
      <trkpt lat="47.17036" lon="5.89045">
        <ele>254.9</ele>
        <time>2026-08-22T12:51:47Z</time>
      </trkpt>
      <trkpt lat="47.17042" lon="5.89024">
        <ele>253.2</ele>
        <time>2026-08-22T12:52:01Z</time>
      </trkpt>
      <trkpt lat="47.17047" lon="5.89005">
        <ele>251.6</ele>
        <time>2026-08-22T12:52:14Z</time>
      </trkpt>
      <trkpt lat="47.17051" lon="5.89008">
        <ele>251.4</ele>
        <time>2026-08-22T12:52:21Z</time>
      </trkpt>
      <trkpt lat="47.17056" lon="5.89007">
        <ele>251.1</ele>
        <time>2026-08-22T12:52:26Z</time>
      </trkpt>
      <trkpt lat="47.17061" lon="5.89009">
        <ele>250.7</ele>
        <time>2026-08-22T12:52:32Z</time>
      </trkpt>
      <trkpt lat="47.17064" lon="5.89014">
        <ele>249.9</ele>
        <time>2026-08-22T12:52:37Z</time>
      </trkpt>
      <trkpt lat="47.17071" lon="5.89024">
        <ele>248.8</ele>
        <time>2026-08-22T12:52:49Z</time>
      </trkpt>
      <trkpt lat="47.17079" lon="5.89034">
        <ele>246.8</ele>
        <time>2026-08-22T12:53:01Z</time>
      </trkpt>
      <trkpt lat="47.17082" lon="5.89039">
        <ele>246.2</ele>
        <time>2026-08-22T12:53:06Z</time>
      </trkpt>
      <trkpt lat="47.17085" lon="5.89045">
        <ele>245.2</ele>
        <time>2026-08-22T12:53:11Z</time>
      </trkpt>
      <trkpt lat="47.17088" lon="5.8905">
        <ele>244.6</ele>
        <time>2026-08-22T12:53:16Z</time>
      </trkpt>
      <trkpt lat="47.17091" lon="5.89056">
        <ele>243.8</ele>
        <time>2026-08-22T12:53:21Z</time>
      </trkpt>
      <trkpt lat="47.17091" lon="5.89064">
        <ele>242.9</ele>
        <time>2026-08-22T12:53:25Z</time>
      </trkpt>
      <trkpt lat="47.17095" lon="5.89075">
        <ele>241.6</ele>
        <time>2026-08-22T12:53:35Z</time>
      </trkpt>
      <trkpt lat="47.17093" lon="5.89094">
        <ele>239.8</ele>
        <time>2026-08-22T12:53:51Z</time>
      </trkpt>
      <trkpt lat="47.17092" lon="5.89102">
        <ele>239.3</ele>
        <time>2026-08-22T12:53:58Z</time>
      </trkpt>
      <trkpt lat="47.17093" lon="5.89109">
        <ele>238.8</ele>
        <time>2026-08-22T12:54:03Z</time>
      </trkpt>
      <trkpt lat="47.17094" lon="5.89117">
        <ele>238.3</ele>
        <time>2026-08-22T12:54:09Z</time>
      </trkpt>
      <trkpt lat="47.17093" lon="5.89138">
        <ele>237.2</ele>
        <time>2026-08-22T12:54:23Z</time>
      </trkpt>
      <trkpt lat="47.17091" lon="5.89146">
        <ele>236.9</ele>
        <time>2026-08-22T12:54:28Z</time>
      </trkpt>
      <trkpt lat="47.17091" lon="5.89153">
        <ele>236.7</ele>
        <time>2026-08-22T12:54:33Z</time>
      </trkpt>
      <trkpt lat="47.17092" lon="5.89168">
        <ele>236.3</ele>
        <time>2026-08-22T12:54:42Z</time>
      </trkpt>
      <trkpt lat="47.17092" lon="5.89182">
        <ele>235.9</ele>
        <time>2026-08-22T12:54:50Z</time>
      </trkpt>
      <trkpt lat="47.17091" lon="5.89197">
        <ele>235.5</ele>
        <time>2026-08-22T12:54:59Z</time>
      </trkpt>
      <trkpt lat="47.17091" lon="5.89204">
        <ele>235.3</ele>
        <time>2026-08-22T12:55:03Z</time>
      </trkpt>
      <trkpt lat="47.1709" lon="5.89225">
        <ele>234.8</ele>
        <time>2026-08-22T12:55:31Z</time>
      </trkpt>
      <trkpt lat="47.17089" lon="5.89233">
        <ele>234.7</ele>
        <time>2026-08-22T12:55:35Z</time>
      </trkpt>
      <trkpt lat="47.17089" lon="5.8924">
        <ele>234.7</ele>
        <time>2026-08-22T12:55:39Z</time>
      </trkpt>
      <trkpt lat="47.17089" lon="5.89247">
        <ele>234.6</ele>
        <time>2026-08-22T12:55:43Z</time>
      </trkpt>
      <trkpt lat="47.17089" lon="5.89255">
        <ele>234.5</ele>
        <time>2026-08-22T12:55:47Z</time>
      </trkpt>
      <trkpt lat="47.1709" lon="5.89261">
        <ele>234.4</ele>
        <time>2026-08-22T12:55:51Z</time>
      </trkpt>
      <trkpt lat="47.17088" lon="5.89276">
        <ele>234.1</ele>
        <time>2026-08-22T12:55:59Z</time>
      </trkpt>
      <trkpt lat="47.17088" lon="5.89291">
        <ele>233.8</ele>
        <time>2026-08-22T12:56:07Z</time>
      </trkpt>
      <trkpt lat="47.17089" lon="5.89306">
        <ele>233.5</ele>
        <time>2026-08-22T12:56:15Z</time>
      </trkpt>
      <trkpt lat="47.17087" lon="5.8933">
        <ele>233</ele>
        <time>2026-08-22T12:56:27Z</time>
      </trkpt>
      <trkpt lat="47.17087" lon="5.89337">
        <ele>232.9</ele>
        <time>2026-08-22T12:56:31Z</time>
      </trkpt>
      <trkpt lat="47.17088" lon="5.89344">
        <ele>232.8</ele>
        <time>2026-08-22T12:56:35Z</time>
      </trkpt>
      <trkpt lat="47.17089" lon="5.89352">
        <ele>232.7</ele>
        <time>2026-08-22T12:56:40Z</time>
      </trkpt>
      <trkpt lat="47.17085" lon="5.89368">
        <ele>232.4</ele>
        <time>2026-08-22T12:56:48Z</time>
      </trkpt>
      <trkpt lat="47.17083" lon="5.89382">
        <ele>232.2</ele>
        <time>2026-08-22T12:56:55Z</time>
      </trkpt>
      <trkpt lat="47.1708" lon="5.89397">
        <ele>232</ele>
        <time>2026-08-22T12:57:03Z</time>
      </trkpt>
      <trkpt lat="47.17077" lon="5.89403">
        <ele>231.9</ele>
        <time>2026-08-22T12:57:07Z</time>
      </trkpt>
      <trkpt lat="47.17074" lon="5.8941">
        <ele>231.8</ele>
        <time>2026-08-22T12:57:11Z</time>
      </trkpt>
      <trkpt lat="47.17071" lon="5.89417">
        <ele>231.7</ele>
        <time>2026-08-22T12:57:15Z</time>
      </trkpt>
      <trkpt lat="47.17068" lon="5.89425">
        <ele>231.6</ele>
        <time>2026-08-22T12:57:19Z</time>
      </trkpt>
      <trkpt lat="47.17061" lon="5.89443">
        <ele>231.4</ele>
        <time>2026-08-22T12:57:28Z</time>
      </trkpt>
      <trkpt lat="47.17059" lon="5.89448">
        <ele>231.3</ele>
        <time>2026-08-22T12:57:31Z</time>
      </trkpt>
      <trkpt lat="47.17056" lon="5.89455">
        <ele>231.2</ele>
        <time>2026-08-22T12:57:35Z</time>
      </trkpt>
      <trkpt lat="47.17052" lon="5.89461">
        <ele>231</ele>
        <time>2026-08-22T12:57:39Z</time>
      </trkpt>
      <trkpt lat="47.17048" lon="5.89468">
        <ele>230.9</ele>
        <time>2026-08-22T12:57:43Z</time>
      </trkpt>
      <trkpt lat="47.17045" lon="5.89475">
        <ele>230.8</ele>
        <time>2026-08-22T12:57:47Z</time>
      </trkpt>
      <trkpt lat="47.17043" lon="5.89483">
        <ele>230.6</ele>
        <time>2026-08-22T12:57:51Z</time>
      </trkpt>
      <trkpt lat="47.1704" lon="5.8949">
        <ele>230.5</ele>
        <time>2026-08-22T12:57:55Z</time>
      </trkpt>
      <trkpt lat="47.17037" lon="5.89497">
        <ele>230.4</ele>
        <time>2026-08-22T12:57:59Z</time>
      </trkpt>
      <trkpt lat="47.17035" lon="5.89503">
        <ele>230.3</ele>
        <time>2026-08-22T12:58:02Z</time>
      </trkpt>
      <trkpt lat="47.17032" lon="5.89509">
        <ele>230.3</ele>
        <time>2026-08-22T12:58:05Z</time>
      </trkpt>
      <trkpt lat="47.17029" lon="5.89515">
        <ele>230.2</ele>
        <time>2026-08-22T12:58:09Z</time>
      </trkpt>
      <trkpt lat="47.17026" lon="5.89521">
        <ele>230.1</ele>
        <time>2026-08-22T12:58:12Z</time>
      </trkpt>
      <trkpt lat="47.17023" lon="5.89527">
        <ele>230</ele>
        <time>2026-08-22T12:58:16Z</time>
      </trkpt>
      <trkpt lat="47.17018" lon="5.89542">
        <ele>229.7</ele>
        <time>2026-08-22T12:58:24Z</time>
      </trkpt>
      <trkpt lat="47.17015" lon="5.89549">
        <ele>229.6</ele>
        <time>2026-08-22T12:58:28Z</time>
      </trkpt>
      <trkpt lat="47.17012" lon="5.89555">
        <ele>229.4</ele>
        <time>2026-08-22T12:58:32Z</time>
      </trkpt>
      <trkpt lat="47.17009" lon="5.89562">
        <ele>229.3</ele>
        <time>2026-08-22T12:58:36Z</time>
      </trkpt>
      <trkpt lat="47.17004" lon="5.89575">
        <ele>229.1</ele>
        <time>2026-08-22T12:58:44Z</time>
      </trkpt>
      <trkpt lat="47.17001" lon="5.89582">
        <ele>228.9</ele>
        <time>2026-08-22T12:58:48Z</time>
      </trkpt>
      <trkpt lat="47.16999" lon="5.89589">
        <ele>228.8</ele>
        <time>2026-08-22T12:58:52Z</time>
      </trkpt>
      <trkpt lat="47.16995" lon="5.89603">
        <ele>228.6</ele>
        <time>2026-08-22T12:59:00Z</time>
      </trkpt>
      <trkpt lat="47.16992" lon="5.8961">
        <ele>228.5</ele>
        <time>2026-08-22T12:59:04Z</time>
      </trkpt>
      <trkpt lat="47.16987" lon="5.89614">
        <ele>228.4</ele>
        <time>2026-08-22T12:59:08Z</time>
      </trkpt>
      <trkpt lat="47.16982" lon="5.89619">
        <ele>228.3</ele>
        <time>2026-08-22T12:59:12Z</time>
      </trkpt>
      <trkpt lat="47.16977" lon="5.89641">
        <ele>227.2</ele>
        <time>2026-08-22T12:59:22Z</time>
      </trkpt>
      <trkpt lat="47.16979" lon="5.89654">
        <ele>226.7</ele>
        <time>2026-08-22T12:59:30Z</time>
      </trkpt>
      <trkpt lat="47.16976" lon="5.89668">
        <ele>226.2</ele>
        <time>2026-08-22T12:59:43Z</time>
      </trkpt>
      <trkpt lat="47.16975" lon="5.89676">
        <ele>225.9</ele>
        <time>2026-08-22T12:59:47Z</time>
      </trkpt>
      <trkpt lat="47.16974" lon="5.89683">
        <ele>225.5</ele>
        <time>2026-08-22T12:59:51Z</time>
      </trkpt>
      <trkpt lat="47.16972" lon="5.89691">
        <ele>225.2</ele>
        <time>2026-08-22T12:59:55Z</time>
      </trkpt>
      <trkpt lat="47.1697" lon="5.89699">
        <ele>225</ele>
        <time>2026-08-22T12:59:59Z</time>
      </trkpt>
      <trkpt lat="47.16966" lon="5.89714">
        <ele>224.6</ele>
        <time>2026-08-22T13:00:07Z</time>
      </trkpt>
      <trkpt lat="47.16967" lon="5.89721">
        <ele>224.5</ele>
        <time>2026-08-22T13:00:10Z</time>
      </trkpt>
      <trkpt lat="47.16962" lon="5.89725">
        <ele>224.5</ele>
        <time>2026-08-22T13:00:13Z</time>
      </trkpt>
      <trkpt lat="47.16953" lon="5.89741">
        <ele>224.2</ele>
        <time>2026-08-22T13:00:24Z</time>
      </trkpt>
      <trkpt lat="47.16951" lon="5.89748">
        <ele>224</ele>
        <time>2026-08-22T13:00:28Z</time>
      </trkpt>
      <trkpt lat="47.16949" lon="5.89755">
        <ele>223.8</ele>
        <time>2026-08-22T13:00:32Z</time>
      </trkpt>
      <trkpt lat="47.16948" lon="5.8977">
        <ele>223.2</ele>
        <time>2026-08-22T13:00:40Z</time>
      </trkpt>
      <trkpt lat="47.16944" lon="5.89783">
        <ele>222.6</ele>
        <time>2026-08-22T13:00:48Z</time>
      </trkpt>
      <trkpt lat="47.16941" lon="5.89799">
        <ele>222.1</ele>
        <time>2026-08-22T13:00:56Z</time>
      </trkpt>
      <trkpt lat="47.16939" lon="5.89806">
        <ele>222</ele>
        <time>2026-08-22T13:01:00Z</time>
      </trkpt>
      <trkpt lat="47.16938" lon="5.89815">
        <ele>222.1</ele>
        <time>2026-08-22T13:01:05Z</time>
      </trkpt>
      <trkpt lat="47.16935" lon="5.89822">
        <ele>222.2</ele>
        <time>2026-08-22T13:01:09Z</time>
      </trkpt>
      <trkpt lat="47.16933" lon="5.89829">
        <ele>222.4</ele>
        <time>2026-08-22T13:01:13Z</time>
      </trkpt>
      <trkpt lat="47.1693" lon="5.89835">
        <ele>222.7</ele>
        <time>2026-08-22T13:01:17Z</time>
      </trkpt>
      <trkpt lat="47.16928" lon="5.89842">
        <ele>223</ele>
        <time>2026-08-22T13:01:21Z</time>
      </trkpt>
      <trkpt lat="47.16923" lon="5.89854">
        <ele>223.7</ele>
        <time>2026-08-22T13:01:29Z</time>
      </trkpt>
      <trkpt lat="47.16903" lon="5.89868">
        <ele>228.1</ele>
        <time>2026-08-22T13:01:46Z</time>
      </trkpt>
      <trkpt lat="47.16901" lon="5.89875">
        <ele>227.8</ele>
        <time>2026-08-22T13:01:50Z</time>
      </trkpt>
      <trkpt lat="47.1689" lon="5.8991">
        <ele>224.3</ele>
        <time>2026-08-22T13:02:09Z</time>
      </trkpt>
      <trkpt lat="47.16887" lon="5.89917">
        <ele>225</ele>
        <time>2026-08-22T13:02:13Z</time>
      </trkpt>
      <trkpt lat="47.16882" lon="5.89932">
        <ele>225.9</ele>
        <time>2026-08-22T13:02:21Z</time>
      </trkpt>
      <trkpt lat="47.1688" lon="5.89948">
        <ele>223.9</ele>
        <time>2026-08-22T13:02:29Z</time>
      </trkpt>
      <trkpt lat="47.16877" lon="5.89963">
        <ele>221.9</ele>
        <time>2026-08-22T13:02:37Z</time>
      </trkpt>
      <trkpt lat="47.16874" lon="5.8997">
        <ele>221.7</ele>
        <time>2026-08-22T13:02:41Z</time>
      </trkpt>
      <trkpt lat="47.16869" lon="5.89984">
        <ele>223</ele>
        <time>2026-08-22T13:02:49Z</time>
      </trkpt>
      <trkpt lat="47.16868" lon="5.89991">
        <ele>223.7</ele>
        <time>2026-08-22T13:02:53Z</time>
      </trkpt>
      <trkpt lat="47.16863" lon="5.90004">
        <ele>224.5</ele>
        <time>2026-08-22T13:03:00Z</time>
      </trkpt>
      <trkpt lat="47.16857" lon="5.90017">
        <ele>225.1</ele>
        <time>2026-08-22T13:03:07Z</time>
      </trkpt>
      <trkpt lat="47.16856" lon="5.90025">
        <ele>224.4</ele>
        <time>2026-08-22T13:03:11Z</time>
      </trkpt>
      <trkpt lat="47.16851" lon="5.90037">
        <ele>222.6</ele>
        <time>2026-08-22T13:03:18Z</time>
      </trkpt>
      <trkpt lat="47.16847" lon="5.90045">
        <ele>222</ele>
        <time>2026-08-22T13:03:22Z</time>
      </trkpt>
      <trkpt lat="47.16844" lon="5.90051">
        <ele>222.1</ele>
        <time>2026-08-22T13:03:26Z</time>
      </trkpt>
      <trkpt lat="47.1684" lon="5.90057">
        <ele>222.6</ele>
        <time>2026-08-22T13:03:30Z</time>
      </trkpt>
      <trkpt lat="47.16837" lon="5.90061">
        <ele>223.1</ele>
        <time>2026-08-22T13:03:33Z</time>
      </trkpt>
      <trkpt lat="47.16833" lon="5.90067">
        <ele>223.9</ele>
        <time>2026-08-22T13:03:37Z</time>
      </trkpt>
      <trkpt lat="47.16824" lon="5.90077">
        <ele>224.2</ele>
        <time>2026-08-22T13:03:45Z</time>
      </trkpt>
      <trkpt lat="47.1682" lon="5.90082">
        <ele>223.5</ele>
        <time>2026-08-22T13:03:49Z</time>
      </trkpt>
      <trkpt lat="47.16815" lon="5.90086">
        <ele>223.6</ele>
        <time>2026-08-22T13:03:53Z</time>
      </trkpt>
      <trkpt lat="47.16811" lon="5.9009">
        <ele>223.7</ele>
        <time>2026-08-22T13:03:57Z</time>
      </trkpt>
      <trkpt lat="47.16806" lon="5.90093">
        <ele>223.8</ele>
        <time>2026-08-22T13:04:01Z</time>
      </trkpt>
      <trkpt lat="47.16801" lon="5.90098">
        <ele>223.8</ele>
        <time>2026-08-22T13:04:05Z</time>
      </trkpt>
      <trkpt lat="47.16797" lon="5.90103">
        <ele>223.9</ele>
        <time>2026-08-22T13:04:09Z</time>
      </trkpt>
      <trkpt lat="47.16792" lon="5.90108">
        <ele>224</ele>
        <time>2026-08-22T13:04:13Z</time>
      </trkpt>
      <trkpt lat="47.16788" lon="5.90113">
        <ele>224.1</ele>
        <time>2026-08-22T13:04:17Z</time>
      </trkpt>
      <trkpt lat="47.16781" lon="5.90121">
        <ele>224.2</ele>
        <time>2026-08-22T13:04:24Z</time>
      </trkpt>
      <trkpt lat="47.16756" lon="5.90149">
        <ele>224.6</ele>
        <time>2026-08-22T13:04:46Z</time>
      </trkpt>
      <trkpt lat="47.16751" lon="5.90153">
        <ele>224.6</ele>
        <time>2026-08-22T13:04:50Z</time>
      </trkpt>
      <trkpt lat="47.16737" lon="5.90163">
        <ele>224.8</ele>
        <time>2026-08-22T13:05:01Z</time>
      </trkpt>
      <trkpt lat="47.16723" lon="5.90173">
        <ele>225</ele>
        <time>2026-08-22T13:05:12Z</time>
      </trkpt>
      <trkpt lat="47.16717" lon="5.90176">
        <ele>225</ele>
        <time>2026-08-22T13:05:16Z</time>
      </trkpt>
      <trkpt lat="47.16704" lon="5.90189">
        <ele>225.2</ele>
        <time>2026-08-22T13:05:28Z</time>
      </trkpt>
      <trkpt lat="47.167" lon="5.90195">
        <ele>225.3</ele>
        <time>2026-08-22T13:05:32Z</time>
      </trkpt>
      <trkpt lat="47.16695" lon="5.90197">
        <ele>225.3</ele>
        <time>2026-08-22T13:05:36Z</time>
      </trkpt>
      <trkpt lat="47.1669" lon="5.90198">
        <ele>225.4</ele>
        <time>2026-08-22T13:05:39Z</time>
      </trkpt>
      <trkpt lat="47.16686" lon="5.90202">
        <ele>225.4</ele>
        <time>2026-08-22T13:05:42Z</time>
      </trkpt>
      <trkpt lat="47.16681" lon="5.90203">
        <ele>225.4</ele>
        <time>2026-08-22T13:05:45Z</time>
      </trkpt>
      <trkpt lat="47.16658" lon="5.902">
        <ele>225.7</ele>
        <time>2026-08-22T13:06:01Z</time>
      </trkpt>
      <trkpt lat="47.16654" lon="5.90199">
        <ele>225.8</ele>
        <time>2026-08-22T13:06:04Z</time>
      </trkpt>
      <trkpt lat="47.16648" lon="5.90198">
        <ele>225.9</ele>
        <time>2026-08-22T13:06:08Z</time>
      </trkpt>
      <trkpt lat="47.16637" lon="5.90198">
        <ele>226</ele>
        <time>2026-08-22T13:06:16Z</time>
      </trkpt>
      <trkpt lat="47.1663" lon="5.90196">
        <ele>226.1</ele>
        <time>2026-08-22T13:06:20Z</time>
      </trkpt>
      <trkpt lat="47.16619" lon="5.90192">
        <ele>226.2</ele>
        <time>2026-08-22T13:06:28Z</time>
      </trkpt>
      <trkpt lat="47.16611" lon="5.90184">
        <ele>226.2</ele>
        <time>2026-08-22T13:06:36Z</time>
      </trkpt>
      <trkpt lat="47.16605" lon="5.90181">
        <ele>226.2</ele>
        <time>2026-08-22T13:06:40Z</time>
      </trkpt>
      <trkpt lat="47.16589" lon="5.90167">
        <ele>226.3</ele>
        <time>2026-08-22T13:06:56Z</time>
      </trkpt>
      <trkpt lat="47.16585" lon="5.90163">
        <ele>226.3</ele>
        <time>2026-08-22T13:07:00Z</time>
      </trkpt>
      <trkpt lat="47.1658" lon="5.90162">
        <ele>226.3</ele>
        <time>2026-08-22T13:07:04Z</time>
      </trkpt>
      <trkpt lat="47.16576" lon="5.90158">
        <ele>226.4</ele>
        <time>2026-08-22T13:07:14Z</time>
      </trkpt>
      <trkpt lat="47.16572" lon="5.90154">
        <ele>226.4</ele>
        <time>2026-08-22T13:07:19Z</time>
      </trkpt>
      <trkpt lat="47.16565" lon="5.90146">
        <ele>226.5</ele>
        <time>2026-08-22T13:07:24Z</time>
      </trkpt>
      <trkpt lat="47.16562" lon="5.90138">
        <ele>226.5</ele>
        <time>2026-08-22T13:07:28Z</time>
      </trkpt>
      <trkpt lat="47.16559" lon="5.90132">
        <ele>226.6</ele>
        <time>2026-08-22T13:07:32Z</time>
      </trkpt>
      <trkpt lat="47.16556" lon="5.90126">
        <ele>226.6</ele>
        <time>2026-08-22T13:07:36Z</time>
      </trkpt>
      <trkpt lat="47.16552" lon="5.9012">
        <ele>226.6</ele>
        <time>2026-08-22T13:07:40Z</time>
      </trkpt>
      <trkpt lat="47.16549" lon="5.90114">
        <ele>226.7</ele>
        <time>2026-08-22T13:07:44Z</time>
      </trkpt>
      <trkpt lat="47.16545" lon="5.90107">
        <ele>226.7</ele>
        <time>2026-08-22T13:07:48Z</time>
      </trkpt>
      <trkpt lat="47.16543" lon="5.90101">
        <ele>226.8</ele>
        <time>2026-08-22T13:07:52Z</time>
      </trkpt>
      <trkpt lat="47.16536" lon="5.90091">
        <ele>226.8</ele>
        <time>2026-08-22T13:08:09Z</time>
      </trkpt>
      <trkpt lat="47.1653" lon="5.9008">
        <ele>226.8</ele>
        <time>2026-08-22T13:08:16Z</time>
      </trkpt>
      <trkpt lat="47.16527" lon="5.90073">
        <ele>226.8</ele>
        <time>2026-08-22T13:08:20Z</time>
      </trkpt>
      <trkpt lat="47.16526" lon="5.90066">
        <ele>226.8</ele>
        <time>2026-08-22T13:08:24Z</time>
      </trkpt>
      <trkpt lat="47.16522" lon="5.90063">
        <ele>226.8</ele>
        <time>2026-08-22T13:08:27Z</time>
      </trkpt>
      <trkpt lat="47.16517" lon="5.9005">
        <ele>226.8</ele>
        <time>2026-08-22T13:08:33Z</time>
      </trkpt>
      <trkpt lat="47.16515" lon="5.90044">
        <ele>226.8</ele>
        <time>2026-08-22T13:08:36Z</time>
      </trkpt>
      <trkpt lat="47.16512" lon="5.90037">
        <ele>226.8</ele>
        <time>2026-08-22T13:08:49Z</time>
      </trkpt>
      <trkpt lat="47.16508" lon="5.90033">
        <ele>226.8</ele>
        <time>2026-08-22T13:08:52Z</time>
      </trkpt>
      <trkpt lat="47.16504" lon="5.90026">
        <ele>226.8</ele>
        <time>2026-08-22T13:08:56Z</time>
      </trkpt>
      <trkpt lat="47.16501" lon="5.9002">
        <ele>226.8</ele>
        <time>2026-08-22T13:09:00Z</time>
      </trkpt>
      <trkpt lat="47.16499" lon="5.90013">
        <ele>226.8</ele>
        <time>2026-08-22T13:09:04Z</time>
      </trkpt>
      <trkpt lat="47.16489" lon="5.89986">
        <ele>226.8</ele>
        <time>2026-08-22T13:09:19Z</time>
      </trkpt>
      <trkpt lat="47.16486" lon="5.89981">
        <ele>226.8</ele>
        <time>2026-08-22T13:09:23Z</time>
      </trkpt>
      <trkpt lat="47.16486" lon="5.89974">
        <ele>226.8</ele>
        <time>2026-08-22T13:10:05Z</time>
      </trkpt>
      <trkpt lat="47.16483" lon="5.89959">
        <ele>226.7</ele>
        <time>2026-08-22T13:10:12Z</time>
      </trkpt>
      <trkpt lat="47.16479" lon="5.89945">
        <ele>226.7</ele>
        <time>2026-08-22T13:10:19Z</time>
      </trkpt>
      <trkpt lat="47.1647" lon="5.89917">
        <ele>226.7</ele>
        <time>2026-08-22T13:10:34Z</time>
      </trkpt>
      <trkpt lat="47.16468" lon="5.89909">
        <ele>226.8</ele>
        <time>2026-08-22T13:10:38Z</time>
      </trkpt>
      <trkpt lat="47.16466" lon="5.89902">
        <ele>227</ele>
        <time>2026-08-22T13:10:42Z</time>
      </trkpt>
      <trkpt lat="47.16463" lon="5.89895">
        <ele>227</ele>
        <time>2026-08-22T13:10:46Z</time>
      </trkpt>
      <trkpt lat="47.16459" lon="5.8988">
        <ele>227</ele>
        <time>2026-08-22T13:10:54Z</time>
      </trkpt>
      <trkpt lat="47.16454" lon="5.8986">
        <ele>226.9</ele>
        <time>2026-08-22T13:11:06Z</time>
      </trkpt>
      <trkpt lat="47.16452" lon="5.89853">
        <ele>226.9</ele>
        <time>2026-08-22T13:11:09Z</time>
      </trkpt>
      <trkpt lat="47.16449" lon="5.89838">
        <ele>226.9</ele>
        <time>2026-08-22T13:11:16Z</time>
      </trkpt>
      <trkpt lat="47.16447" lon="5.8983">
        <ele>226.9</ele>
        <time>2026-08-22T13:11:20Z</time>
      </trkpt>
      <trkpt lat="47.16445" lon="5.89822">
        <ele>226.8</ele>
        <time>2026-08-22T13:11:24Z</time>
      </trkpt>
      <trkpt lat="47.16443" lon="5.89815">
        <ele>226.8</ele>
        <time>2026-08-22T13:11:28Z</time>
      </trkpt>
      <trkpt lat="47.16439" lon="5.89801">
        <ele>226.8</ele>
        <time>2026-08-22T13:11:35Z</time>
      </trkpt>
      <trkpt lat="47.16435" lon="5.89786">
        <ele>226.8</ele>
        <time>2026-08-22T13:11:43Z</time>
      </trkpt>
      <trkpt lat="47.16432" lon="5.89771">
        <ele>226.7</ele>
        <time>2026-08-22T13:11:51Z</time>
      </trkpt>
      <trkpt lat="47.1643" lon="5.89763">
        <ele>226.7</ele>
        <time>2026-08-22T13:11:55Z</time>
      </trkpt>
      <trkpt lat="47.16428" lon="5.89755">
        <ele>226.7</ele>
        <time>2026-08-22T13:11:59Z</time>
      </trkpt>
      <trkpt lat="47.16425" lon="5.89747">
        <ele>226.6</ele>
        <time>2026-08-22T13:12:03Z</time>
      </trkpt>
      <trkpt lat="47.16424" lon="5.89739">
        <ele>226.6</ele>
        <time>2026-08-22T13:12:07Z</time>
      </trkpt>
      <trkpt lat="47.1642" lon="5.89723">
        <ele>226.5</ele>
        <time>2026-08-22T13:12:15Z</time>
      </trkpt>
      <trkpt lat="47.16417" lon="5.89708">
        <ele>226.4</ele>
        <time>2026-08-22T13:12:22Z</time>
      </trkpt>
      <trkpt lat="47.16412" lon="5.89684">
        <ele>226.2</ele>
        <time>2026-08-22T13:12:34Z</time>
      </trkpt>
      <trkpt lat="47.1641" lon="5.89678">
        <ele>226.2</ele>
        <time>2026-08-22T13:12:37Z</time>
      </trkpt>
      <trkpt lat="47.16405" lon="5.89654">
        <ele>226</ele>
        <time>2026-08-22T13:12:49Z</time>
      </trkpt>
      <trkpt lat="47.16403" lon="5.89645">
        <ele>226</ele>
        <time>2026-08-22T13:12:53Z</time>
      </trkpt>
      <trkpt lat="47.16401" lon="5.89637">
        <ele>225.9</ele>
        <time>2026-08-22T13:12:57Z</time>
      </trkpt>
      <trkpt lat="47.16398" lon="5.89624">
        <ele>225.8</ele>
        <time>2026-08-22T13:13:03Z</time>
      </trkpt>
      <trkpt lat="47.16395" lon="5.89617">
        <ele>225.8</ele>
        <time>2026-08-22T13:13:07Z</time>
      </trkpt>
      <trkpt lat="47.16393" lon="5.89609">
        <ele>225.7</ele>
        <time>2026-08-22T13:13:11Z</time>
      </trkpt>
      <trkpt lat="47.16391" lon="5.89601">
        <ele>225.6</ele>
        <time>2026-08-22T13:13:15Z</time>
      </trkpt>
      <trkpt lat="47.16389" lon="5.89594">
        <ele>225.6</ele>
        <time>2026-08-22T13:13:18Z</time>
      </trkpt>
      <trkpt lat="47.16384" lon="5.89572">
        <ele>225.3</ele>
        <time>2026-08-22T13:13:29Z</time>
      </trkpt>
      <trkpt lat="47.16382" lon="5.89564">
        <ele>225.2</ele>
        <time>2026-08-22T13:13:33Z</time>
      </trkpt>
      <trkpt lat="47.16381" lon="5.89557">
        <ele>225.2</ele>
        <time>2026-08-22T13:13:36Z</time>
      </trkpt>
      <trkpt lat="47.16373" lon="5.89527">
        <ele>225</ele>
        <time>2026-08-22T13:13:51Z</time>
      </trkpt>
      <trkpt lat="47.16372" lon="5.89521">
        <ele>225</ele>
        <time>2026-08-22T13:13:54Z</time>
      </trkpt>
      <trkpt lat="47.16368" lon="5.89507">
        <ele>224.9</ele>
        <time>2026-08-22T13:14:01Z</time>
      </trkpt>
      <trkpt lat="47.16367" lon="5.895">
        <ele>224.9</ele>
        <time>2026-08-22T13:14:04Z</time>
      </trkpt>
      <trkpt lat="47.16366" lon="5.89492">
        <ele>224.8</ele>
        <time>2026-08-22T13:14:09Z</time>
      </trkpt>
      <trkpt lat="47.16364" lon="5.89485">
        <ele>224.7</ele>
        <time>2026-08-22T13:14:13Z</time>
      </trkpt>
      <trkpt lat="47.16363" lon="5.89478">
        <ele>224.6</ele>
        <time>2026-08-22T13:14:17Z</time>
      </trkpt>
      <trkpt lat="47.16362" lon="5.8947">
        <ele>224.5</ele>
        <time>2026-08-22T13:14:21Z</time>
      </trkpt>
      <trkpt lat="47.16361" lon="5.89464">
        <ele>224.4</ele>
        <time>2026-08-22T13:14:25Z</time>
      </trkpt>
      <trkpt lat="47.16359" lon="5.89456">
        <ele>224.3</ele>
        <time>2026-08-22T13:14:30Z</time>
      </trkpt>
      <trkpt lat="47.16356" lon="5.8945">
        <ele>224.1</ele>
        <time>2026-08-22T13:14:34Z</time>
      </trkpt>
      <trkpt lat="47.16351" lon="5.89435">
        <ele>223.3</ele>
        <time>2026-08-22T13:14:43Z</time>
      </trkpt>
      <trkpt lat="47.16347" lon="5.89422">
        <ele>223.1</ele>
        <time>2026-08-22T13:14:51Z</time>
      </trkpt>
      <trkpt lat="47.16344" lon="5.89415">
        <ele>223.1</ele>
        <time>2026-08-22T13:14:55Z</time>
      </trkpt>
      <trkpt lat="47.16338" lon="5.89402">
        <ele>222.7</ele>
        <time>2026-08-22T13:15:03Z</time>
      </trkpt>
      <trkpt lat="47.16332" lon="5.89372">
        <ele>223.1</ele>
        <time>2026-08-22T13:15:18Z</time>
      </trkpt>
      <trkpt lat="47.1633" lon="5.89365">
        <ele>223.9</ele>
        <time>2026-08-22T13:15:22Z</time>
      </trkpt>
      <trkpt lat="47.16329" lon="5.89359">
        <ele>224.4</ele>
        <time>2026-08-22T13:15:25Z</time>
      </trkpt>
      <trkpt lat="47.16327" lon="5.89351">
        <ele>224.6</ele>
        <time>2026-08-22T13:15:29Z</time>
      </trkpt>
      <trkpt lat="47.16325" lon="5.89343">
        <ele>224.5</ele>
        <time>2026-08-22T13:15:33Z</time>
      </trkpt>
      <trkpt lat="47.16323" lon="5.89335">
        <ele>224.6</ele>
        <time>2026-08-22T13:15:37Z</time>
      </trkpt>
      <trkpt lat="47.16321" lon="5.89328">
        <ele>224.2</ele>
        <time>2026-08-22T13:15:41Z</time>
      </trkpt>
      <trkpt lat="47.16318" lon="5.89314">
        <ele>224</ele>
        <time>2026-08-22T13:15:49Z</time>
      </trkpt>
      <trkpt lat="47.16313" lon="5.8929">
        <ele>223.7</ele>
        <time>2026-08-22T13:16:01Z</time>
      </trkpt>
      <trkpt lat="47.16311" lon="5.89283">
        <ele>223.6</ele>
        <time>2026-08-22T13:16:05Z</time>
      </trkpt>
      <trkpt lat="47.1631" lon="5.89276">
        <ele>223.6</ele>
        <time>2026-08-22T13:16:09Z</time>
      </trkpt>
      <trkpt lat="47.16306" lon="5.89261">
        <ele>224.3</ele>
        <time>2026-08-22T13:16:17Z</time>
      </trkpt>
      <trkpt lat="47.16303" lon="5.89246">
        <ele>225.4</ele>
        <time>2026-08-22T13:16:25Z</time>
      </trkpt>
      <trkpt lat="47.16298" lon="5.89226">
        <ele>225.5</ele>
        <time>2026-08-22T13:16:36Z</time>
      </trkpt>
      <trkpt lat="47.16296" lon="5.89218">
        <ele>225.2</ele>
        <time>2026-08-22T13:16:40Z</time>
      </trkpt>
      <trkpt lat="47.1629" lon="5.89196">
        <ele>224.8</ele>
        <time>2026-08-22T13:16:51Z</time>
      </trkpt>
      <trkpt lat="47.16284" lon="5.89175">
        <ele>224.5</ele>
        <time>2026-08-22T13:17:02Z</time>
      </trkpt>
      <trkpt lat="47.16281" lon="5.89159">
        <ele>224.5</ele>
        <time>2026-08-22T13:17:10Z</time>
      </trkpt>
      <trkpt lat="47.16279" lon="5.89151">
        <ele>224.8</ele>
        <time>2026-08-22T13:17:14Z</time>
      </trkpt>
      <trkpt lat="47.16277" lon="5.89143">
        <ele>225.6</ele>
        <time>2026-08-22T13:17:18Z</time>
      </trkpt>
      <trkpt lat="47.16276" lon="5.89136">
        <ele>226.5</ele>
        <time>2026-08-22T13:17:22Z</time>
      </trkpt>
      <trkpt lat="47.16274" lon="5.89128">
        <ele>226.8</ele>
        <time>2026-08-22T13:17:26Z</time>
      </trkpt>
      <trkpt lat="47.16272" lon="5.8912">
        <ele>226.7</ele>
        <time>2026-08-22T13:17:30Z</time>
      </trkpt>
      <trkpt lat="47.1627" lon="5.89112">
        <ele>226.9</ele>
        <time>2026-08-22T13:17:34Z</time>
      </trkpt>
      <trkpt lat="47.16268" lon="5.89105">
        <ele>226.5</ele>
        <time>2026-08-22T13:17:38Z</time>
      </trkpt>
      <trkpt lat="47.16266" lon="5.89098">
        <ele>226.2</ele>
        <time>2026-08-22T13:17:42Z</time>
      </trkpt>
      <trkpt lat="47.16264" lon="5.8909">
        <ele>226.3</ele>
        <time>2026-08-22T13:17:46Z</time>
      </trkpt>
      <trkpt lat="47.16262" lon="5.89084">
        <ele>226.1</ele>
        <time>2026-08-22T13:17:49Z</time>
      </trkpt>
      <trkpt lat="47.1626" lon="5.89076">
        <ele>226</ele>
        <time>2026-08-22T13:17:53Z</time>
      </trkpt>
      <trkpt lat="47.16259" lon="5.89069">
        <ele>226.1</ele>
        <time>2026-08-22T13:17:57Z</time>
      </trkpt>
      <trkpt lat="47.16257" lon="5.89061">
        <ele>226.2</ele>
        <time>2026-08-22T13:18:01Z</time>
      </trkpt>
      <trkpt lat="47.16255" lon="5.89054">
        <ele>226.3</ele>
        <time>2026-08-22T13:18:05Z</time>
      </trkpt>
      <trkpt lat="47.16253" lon="5.89046">
        <ele>226.4</ele>
        <time>2026-08-22T13:18:09Z</time>
      </trkpt>
      <trkpt lat="47.16249" lon="5.89032">
        <ele>226.3</ele>
        <time>2026-08-22T13:18:17Z</time>
      </trkpt>
      <trkpt lat="47.16233" lon="5.88996">
        <ele>226.8</ele>
        <time>2026-08-22T13:18:39Z</time>
      </trkpt>
      <trkpt lat="47.16229" lon="5.88995">
        <ele>226.8</ele>
        <time>2026-08-22T13:18:42Z</time>
      </trkpt>
      <trkpt lat="47.16225" lon="5.8899">
        <ele>226.8</ele>
        <time>2026-08-22T13:18:45Z</time>
      </trkpt>
      <trkpt lat="47.16222" lon="5.88975">
        <ele>226.8</ele>
        <time>2026-08-22T13:18:51Z</time>
      </trkpt>
      <trkpt lat="47.16223" lon="5.8896">
        <ele>226.9</ele>
        <time>2026-08-22T13:18:57Z</time>
      </trkpt>
      <trkpt lat="47.16225" lon="5.88953">
        <ele>227.1</ele>
        <time>2026-08-22T13:19:00Z</time>
      </trkpt>
      <trkpt lat="47.16226" lon="5.88945">
        <ele>227.2</ele>
        <time>2026-08-22T13:19:04Z</time>
      </trkpt>
      <trkpt lat="47.16225" lon="5.88929">
        <ele>227.2</ele>
        <time>2026-08-22T13:19:12Z</time>
      </trkpt>
      <trkpt lat="47.16223" lon="5.88923">
        <ele>227.2</ele>
        <time>2026-08-22T13:19:15Z</time>
      </trkpt>
      <trkpt lat="47.16221" lon="5.88915">
        <ele>227.2</ele>
        <time>2026-08-22T13:19:19Z</time>
      </trkpt>
      <trkpt lat="47.16216" lon="5.88893">
        <ele>227.9</ele>
        <time>2026-08-22T13:19:31Z</time>
      </trkpt>
      <trkpt lat="47.16212" lon="5.88877">
        <ele>228.6</ele>
        <time>2026-08-22T13:19:39Z</time>
      </trkpt>
      <trkpt lat="47.16211" lon="5.88869">
        <ele>228.4</ele>
        <time>2026-08-22T13:19:43Z</time>
      </trkpt>
      <trkpt lat="47.16209" lon="5.88862">
        <ele>228.5</ele>
        <time>2026-08-22T13:19:47Z</time>
      </trkpt>
      <trkpt lat="47.16205" lon="5.88847">
        <ele>228.1</ele>
        <time>2026-08-22T13:19:55Z</time>
      </trkpt>
      <trkpt lat="47.16203" lon="5.8884">
        <ele>228.3</ele>
        <time>2026-08-22T13:19:59Z</time>
      </trkpt>
      <trkpt lat="47.16201" lon="5.88832">
        <ele>228.3</ele>
        <time>2026-08-22T13:20:03Z</time>
      </trkpt>
      <trkpt lat="47.16196" lon="5.88808">
        <ele>228.3</ele>
        <time>2026-08-22T13:20:15Z</time>
      </trkpt>
      <trkpt lat="47.16195" lon="5.888">
        <ele>228.4</ele>
        <time>2026-08-22T13:20:19Z</time>
      </trkpt>
      <trkpt lat="47.16193" lon="5.88792">
        <ele>228.7</ele>
        <time>2026-08-22T13:20:23Z</time>
      </trkpt>
      <trkpt lat="47.16189" lon="5.88778">
        <ele>229.2</ele>
        <time>2026-08-22T13:20:30Z</time>
      </trkpt>
      <trkpt lat="47.16188" lon="5.8877">
        <ele>229.4</ele>
        <time>2026-08-22T13:20:34Z</time>
      </trkpt>
      <trkpt lat="47.16184" lon="5.88756">
        <ele>229.4</ele>
        <time>2026-08-22T13:20:41Z</time>
      </trkpt>
      <trkpt lat="47.1618" lon="5.88741">
        <ele>229.4</ele>
        <time>2026-08-22T13:20:49Z</time>
      </trkpt>
      <trkpt lat="47.16178" lon="5.88734">
        <ele>229.4</ele>
        <time>2026-08-22T13:20:53Z</time>
      </trkpt>
      <trkpt lat="47.16175" lon="5.88727">
        <ele>229.5</ele>
        <time>2026-08-22T13:20:57Z</time>
      </trkpt>
      <trkpt lat="47.16175" lon="5.8872">
        <ele>229.6</ele>
        <time>2026-08-22T13:21:01Z</time>
      </trkpt>
      <trkpt lat="47.16177" lon="5.88714">
        <ele>229.7</ele>
        <time>2026-08-22T13:21:05Z</time>
      </trkpt>
      <trkpt lat="47.16175" lon="5.88707">
        <ele>229.7</ele>
        <time>2026-08-22T13:21:09Z</time>
      </trkpt>
      <trkpt lat="47.16172" lon="5.887">
        <ele>229.8</ele>
        <time>2026-08-22T13:21:13Z</time>
      </trkpt>
      <trkpt lat="47.1617" lon="5.88694">
        <ele>229.6</ele>
        <time>2026-08-22T13:21:17Z</time>
      </trkpt>
      <trkpt lat="47.16167" lon="5.88679">
        <ele>229.6</ele>
        <time>2026-08-22T13:21:25Z</time>
      </trkpt>
      <trkpt lat="47.16161" lon="5.88664">
        <ele>229.6</ele>
        <time>2026-08-22T13:21:33Z</time>
      </trkpt>
      <trkpt lat="47.16158" lon="5.88659">
        <ele>229.6</ele>
        <time>2026-08-22T13:21:37Z</time>
      </trkpt>
      <trkpt lat="47.16157" lon="5.88651">
        <ele>229.9</ele>
        <time>2026-08-22T13:21:41Z</time>
      </trkpt>
      <trkpt lat="47.16156" lon="5.88645">
        <ele>229.8</ele>
        <time>2026-08-22T13:21:45Z</time>
      </trkpt>
      <trkpt lat="47.16158" lon="5.88638">
        <ele>230.2</ele>
        <time>2026-08-22T13:21:52Z</time>
      </trkpt>
      <trkpt lat="47.16163" lon="5.88635">
        <ele>230.9</ele>
        <time>2026-08-22T13:21:59Z</time>
      </trkpt>
      <trkpt lat="47.16167" lon="5.88639">
        <ele>231.4</ele>
        <time>2026-08-22T13:22:03Z</time>
      </trkpt>
      <trkpt lat="47.16162" lon="5.8864">
        <ele>231.5</ele>
        <time>2026-08-22T13:22:20Z</time>
      </trkpt>
      <trkpt lat="47.16152" lon="5.88642">
        <ele>231.8</ele>
        <time>2026-08-22T13:22:30Z</time>
      </trkpt>
      <trkpt lat="47.16148" lon="5.88647">
        <ele>231.9</ele>
        <time>2026-08-22T13:22:49Z</time>
      </trkpt>
      <trkpt lat="47.16138" lon="5.8865">
        <ele>232.1</ele>
        <time>2026-08-22T13:23:03Z</time>
      </trkpt>
      <trkpt lat="47.16133" lon="5.88652">
        <ele>232.1</ele>
        <time>2026-08-22T13:23:07Z</time>
      </trkpt>
      <trkpt lat="47.16123" lon="5.88658">
        <ele>232.3</ele>
        <time>2026-08-22T13:23:17Z</time>
      </trkpt>
      <trkpt lat="47.16118" lon="5.88661">
        <ele>232.3</ele>
        <time>2026-08-22T13:23:22Z</time>
      </trkpt>
      <trkpt lat="47.16114" lon="5.88663">
        <ele>232.3</ele>
        <time>2026-08-22T13:23:26Z</time>
      </trkpt>
      <trkpt lat="47.16104" lon="5.88668">
        <ele>232.3</ele>
        <time>2026-08-22T13:23:35Z</time>
      </trkpt>
      <trkpt lat="47.16095" lon="5.88674">
        <ele>232.3</ele>
        <time>2026-08-22T13:23:43Z</time>
      </trkpt>
      <trkpt lat="47.16081" lon="5.88682">
        <ele>232.2</ele>
        <time>2026-08-22T13:23:55Z</time>
      </trkpt>
      <trkpt lat="47.16072" lon="5.88686">
        <ele>232.1</ele>
        <time>2026-08-22T13:24:03Z</time>
      </trkpt>
      <trkpt lat="47.16067" lon="5.88689">
        <ele>232</ele>
        <time>2026-08-22T13:24:07Z</time>
      </trkpt>
      <trkpt lat="47.16058" lon="5.88691">
        <ele>231.7</ele>
        <time>2026-08-22T13:24:15Z</time>
      </trkpt>
      <trkpt lat="47.16053" lon="5.88692">
        <ele>231.5</ele>
        <time>2026-08-22T13:24:19Z</time>
      </trkpt>
      <trkpt lat="47.16042" lon="5.88693">
        <ele>231.1</ele>
        <time>2026-08-22T13:24:27Z</time>
      </trkpt>
      <trkpt lat="47.16023" lon="5.88701">
        <ele>230.2</ele>
        <time>2026-08-22T13:24:50Z</time>
      </trkpt>
      <trkpt lat="47.16018" lon="5.88703">
        <ele>230</ele>
        <time>2026-08-22T13:24:53Z</time>
      </trkpt>
      <trkpt lat="47.16013" lon="5.88706">
        <ele>229.7</ele>
        <time>2026-08-22T13:24:57Z</time>
      </trkpt>
      <trkpt lat="47.16008" lon="5.88709">
        <ele>229.5</ele>
        <time>2026-08-22T13:25:01Z</time>
      </trkpt>
      <trkpt lat="47.16001" lon="5.88722">
        <ele>229.1</ele>
        <time>2026-08-22T13:25:09Z</time>
      </trkpt>
      <trkpt lat="47.15998" lon="5.88727">
        <ele>229</ele>
        <time>2026-08-22T13:25:12Z</time>
      </trkpt>
      <trkpt lat="47.15981" lon="5.88741">
        <ele>228.7</ele>
        <time>2026-08-22T13:25:26Z</time>
      </trkpt>
      <trkpt lat="47.15977" lon="5.88746">
        <ele>228.6</ele>
        <time>2026-08-22T13:25:30Z</time>
      </trkpt>
      <trkpt lat="47.15973" lon="5.88751">
        <ele>228.6</ele>
        <time>2026-08-22T13:25:34Z</time>
      </trkpt>
      <trkpt lat="47.15969" lon="5.88755">
        <ele>228.6</ele>
        <time>2026-08-22T13:25:38Z</time>
      </trkpt>
      <trkpt lat="47.15966" lon="5.88761">
        <ele>228.6</ele>
        <time>2026-08-22T13:25:42Z</time>
      </trkpt>
      <trkpt lat="47.15964" lon="5.88768">
        <ele>228.6</ele>
        <time>2026-08-22T13:25:46Z</time>
      </trkpt>
      <trkpt lat="47.15954" lon="5.88793">
        <ele>228.6</ele>
        <time>2026-08-22T13:26:00Z</time>
      </trkpt>
      <trkpt lat="47.1595" lon="5.88799">
        <ele>228.6</ele>
        <time>2026-08-22T13:26:04Z</time>
      </trkpt>
      <trkpt lat="47.15947" lon="5.88804">
        <ele>228.7</ele>
        <time>2026-08-22T13:26:08Z</time>
      </trkpt>
      <trkpt lat="47.15943" lon="5.88809">
        <ele>228.7</ele>
        <time>2026-08-22T13:26:12Z</time>
      </trkpt>
      <trkpt lat="47.1594" lon="5.88815">
        <ele>228.8</ele>
        <time>2026-08-22T13:26:16Z</time>
      </trkpt>
      <trkpt lat="47.15933" lon="5.88826">
        <ele>229</ele>
        <time>2026-08-22T13:26:28Z</time>
      </trkpt>
      <trkpt lat="47.15932" lon="5.8884">
        <ele>229.2</ele>
        <time>2026-08-22T13:26:36Z</time>
      </trkpt>
      <trkpt lat="47.15928" lon="5.88844">
        <ele>229.3</ele>
        <time>2026-08-22T13:26:40Z</time>
      </trkpt>
      <trkpt lat="47.15923" lon="5.88847">
        <ele>229.5</ele>
        <time>2026-08-22T13:26:44Z</time>
      </trkpt>
      <trkpt lat="47.15913" lon="5.88852">
        <ele>229.8</ele>
        <time>2026-08-22T13:26:52Z</time>
      </trkpt>
      <trkpt lat="47.15909" lon="5.88865">
        <ele>231</ele>
        <time>2026-08-22T13:27:00Z</time>
      </trkpt>
      <trkpt lat="47.15909" lon="5.88872">
        <ele>231.7</ele>
        <time>2026-08-22T13:27:04Z</time>
      </trkpt>
      <trkpt lat="47.15908" lon="5.8888">
        <ele>232.4</ele>
        <time>2026-08-22T13:27:10Z</time>
      </trkpt>
      <trkpt lat="47.15911" lon="5.88887">
        <ele>233.1</ele>
        <time>2026-08-22T13:27:15Z</time>
      </trkpt>
      <trkpt lat="47.15914" lon="5.88892">
        <ele>233.6</ele>
        <time>2026-08-22T13:27:19Z</time>
      </trkpt>
      <trkpt lat="47.15916" lon="5.88899">
        <ele>234.2</ele>
        <time>2026-08-22T13:27:23Z</time>
      </trkpt>
      <trkpt lat="47.15923" lon="5.8891">
        <ele>235.5</ele>
        <time>2026-08-22T13:27:32Z</time>
      </trkpt>
      <trkpt lat="47.15932" lon="5.88929">
        <ele>237.5</ele>
        <time>2026-08-22T13:27:46Z</time>
      </trkpt>
      <trkpt lat="47.15936" lon="5.88935">
        <ele>238</ele>
        <time>2026-08-22T13:27:51Z</time>
      </trkpt>
      <trkpt lat="47.15938" lon="5.88942">
        <ele>238.5</ele>
        <time>2026-08-22T13:27:56Z</time>
      </trkpt>
      <trkpt lat="47.15939" lon="5.8895">
        <ele>238.8</ele>
        <time>2026-08-22T13:28:01Z</time>
      </trkpt>
      <trkpt lat="47.15942" lon="5.88955">
        <ele>239.1</ele>
        <time>2026-08-22T13:28:05Z</time>
      </trkpt>
      <trkpt lat="47.15945" lon="5.8896">
        <ele>239.5</ele>
        <time>2026-08-22T13:28:09Z</time>
      </trkpt>
      <trkpt lat="47.15949" lon="5.88965">
        <ele>239.9</ele>
        <time>2026-08-22T13:28:13Z</time>
      </trkpt>
      <trkpt lat="47.15953" lon="5.88971">
        <ele>240.4</ele>
        <time>2026-08-22T13:28:17Z</time>
      </trkpt>
      <trkpt lat="47.15955" lon="5.88976">
        <ele>241</ele>
        <time>2026-08-22T13:28:21Z</time>
      </trkpt>
      <trkpt lat="47.15959" lon="5.88981">
        <ele>241.5</ele>
        <time>2026-08-22T13:28:25Z</time>
      </trkpt>
      <trkpt lat="47.15963" lon="5.88986">
        <ele>242.1</ele>
        <time>2026-08-22T13:28:30Z</time>
      </trkpt>
      <trkpt lat="47.1597" lon="5.88997">
        <ele>243.2</ele>
        <time>2026-08-22T13:28:40Z</time>
      </trkpt>
      <trkpt lat="47.15973" lon="5.89003">
        <ele>244.1</ele>
        <time>2026-08-22T13:28:45Z</time>
      </trkpt>
      <trkpt lat="47.15977" lon="5.89009">
        <ele>245.1</ele>
        <time>2026-08-22T13:28:50Z</time>
      </trkpt>
      <trkpt lat="47.1598" lon="5.89015">
        <ele>246.1</ele>
        <time>2026-08-22T13:28:55Z</time>
      </trkpt>
      <trkpt lat="47.15983" lon="5.89021">
        <ele>247</ele>
        <time>2026-08-22T13:28:59Z</time>
      </trkpt>
      <trkpt lat="47.15987" lon="5.89027">
        <ele>248</ele>
        <time>2026-08-22T13:29:04Z</time>
      </trkpt>
      <trkpt lat="47.15993" lon="5.89038">
        <ele>250</ele>
        <time>2026-08-22T13:29:12Z</time>
      </trkpt>
      <trkpt lat="47.15996" lon="5.89043">
        <ele>251</ele>
        <time>2026-08-22T13:29:16Z</time>
      </trkpt>
      <trkpt lat="47.16" lon="5.89049">
        <ele>252.1</ele>
        <time>2026-08-22T13:29:20Z</time>
      </trkpt>
      <trkpt lat="47.16003" lon="5.89054">
        <ele>253</ele>
        <time>2026-08-22T13:29:24Z</time>
      </trkpt>
      <trkpt lat="47.16007" lon="5.89061">
        <ele>253.9</ele>
        <time>2026-08-22T13:29:28Z</time>
      </trkpt>
      <trkpt lat="47.16013" lon="5.89073">
        <ele>255.3</ele>
        <time>2026-08-22T13:29:37Z</time>
      </trkpt>
      <trkpt lat="47.16022" lon="5.89089">
        <ele>257.1</ele>
        <time>2026-08-22T13:29:49Z</time>
      </trkpt>
      <trkpt lat="47.16025" lon="5.89094">
        <ele>257.7</ele>
        <time>2026-08-22T13:29:54Z</time>
      </trkpt>
      <trkpt lat="47.16029" lon="5.891">
        <ele>258.4</ele>
        <time>2026-08-22T13:29:59Z</time>
      </trkpt>
      <trkpt lat="47.16031" lon="5.89108">
        <ele>259.2</ele>
        <time>2026-08-22T13:30:04Z</time>
      </trkpt>
      <trkpt lat="47.16035" lon="5.89113">
        <ele>259.8</ele>
        <time>2026-08-22T13:30:10Z</time>
      </trkpt>
      <trkpt lat="47.16038" lon="5.89119">
        <ele>260.5</ele>
        <time>2026-08-22T13:30:14Z</time>
      </trkpt>
      <trkpt lat="47.1604" lon="5.89124">
        <ele>261</ele>
        <time>2026-08-22T13:30:18Z</time>
      </trkpt>
      <trkpt lat="47.16043" lon="5.89131">
        <ele>261.7</ele>
        <time>2026-08-22T13:30:23Z</time>
      </trkpt>
      <trkpt lat="47.16049" lon="5.89142">
        <ele>262.8</ele>
        <time>2026-08-22T13:30:31Z</time>
      </trkpt>
      <trkpt lat="47.16053" lon="5.89147">
        <ele>263.3</ele>
        <time>2026-08-22T13:30:35Z</time>
      </trkpt>
      <trkpt lat="47.16055" lon="5.89153">
        <ele>263.9</ele>
        <time>2026-08-22T13:30:39Z</time>
      </trkpt>
      <trkpt lat="47.16058" lon="5.89159">
        <ele>264.5</ele>
        <time>2026-08-22T13:30:44Z</time>
      </trkpt>
      <trkpt lat="47.16061" lon="5.89165">
        <ele>265.1</ele>
        <time>2026-08-22T13:30:48Z</time>
      </trkpt>
      <trkpt lat="47.16069" lon="5.89176">
        <ele>266.4</ele>
        <time>2026-08-22T13:30:58Z</time>
      </trkpt>
      <trkpt lat="47.16071" lon="5.89183">
        <ele>267</ele>
        <time>2026-08-22T13:31:02Z</time>
      </trkpt>
      <trkpt lat="47.16081" lon="5.892">
        <ele>268.8</ele>
        <time>2026-08-22T13:31:14Z</time>
      </trkpt>
      <trkpt lat="47.16084" lon="5.89205">
        <ele>269.3</ele>
        <time>2026-08-22T13:31:18Z</time>
      </trkpt>
      <trkpt lat="47.16091" lon="5.89215">
        <ele>270.4</ele>
        <time>2026-08-22T13:31:27Z</time>
      </trkpt>
      <trkpt lat="47.16096" lon="5.89228">
        <ele>271.6</ele>
        <time>2026-08-22T13:31:35Z</time>
      </trkpt>
      <trkpt lat="47.16099" lon="5.89234">
        <ele>272.2</ele>
        <time>2026-08-22T13:31:39Z</time>
      </trkpt>
      <trkpt lat="47.16102" lon="5.8924">
        <ele>272.7</ele>
        <time>2026-08-22T13:31:43Z</time>
      </trkpt>
      <trkpt lat="47.16108" lon="5.89254">
        <ele>274</ele>
        <time>2026-08-22T13:31:52Z</time>
      </trkpt>
      <trkpt lat="47.16111" lon="5.8926">
        <ele>274.7</ele>
        <time>2026-08-22T13:31:56Z</time>
      </trkpt>
      <trkpt lat="47.16114" lon="5.89266">
        <ele>275.3</ele>
        <time>2026-08-22T13:32:00Z</time>
      </trkpt>
      <trkpt lat="47.16117" lon="5.89272">
        <ele>275.9</ele>
        <time>2026-08-22T13:32:04Z</time>
      </trkpt>
      <trkpt lat="47.16119" lon="5.8928">
        <ele>276.5</ele>
        <time>2026-08-22T13:32:08Z</time>
      </trkpt>
      <trkpt lat="47.16121" lon="5.89286">
        <ele>277</ele>
        <time>2026-08-22T13:32:11Z</time>
      </trkpt>
      <trkpt lat="47.16123" lon="5.89293">
        <ele>277.6</ele>
        <time>2026-08-22T13:32:15Z</time>
      </trkpt>
      <trkpt lat="47.16126" lon="5.89299">
        <ele>278.1</ele>
        <time>2026-08-22T13:32:19Z</time>
      </trkpt>
      <trkpt lat="47.16131" lon="5.89311">
        <ele>279.1</ele>
        <time>2026-08-22T13:32:27Z</time>
      </trkpt>
      <trkpt lat="47.16136" lon="5.89323">
        <ele>280</ele>
        <time>2026-08-22T13:32:35Z</time>
      </trkpt>
      <trkpt lat="47.16138" lon="5.8933">
        <ele>280.5</ele>
        <time>2026-08-22T13:32:39Z</time>
      </trkpt>
      <trkpt lat="47.1614" lon="5.89338">
        <ele>280.9</ele>
        <time>2026-08-22T13:32:44Z</time>
      </trkpt>
      <trkpt lat="47.16144" lon="5.89353">
        <ele>281.4</ele>
        <time>2026-08-22T13:32:52Z</time>
      </trkpt>
      <trkpt lat="47.16147" lon="5.89359">
        <ele>281.5</ele>
        <time>2026-08-22T13:32:56Z</time>
      </trkpt>
      <trkpt lat="47.16148" lon="5.89365">
        <ele>281.7</ele>
        <time>2026-08-22T13:32:59Z</time>
      </trkpt>
      <trkpt lat="47.16151" lon="5.89372">
        <ele>281.8</ele>
        <time>2026-08-22T13:33:03Z</time>
      </trkpt>
      <trkpt lat="47.16152" lon="5.8938">
        <ele>282</ele>
        <time>2026-08-22T13:33:07Z</time>
      </trkpt>
      <trkpt lat="47.16156" lon="5.89394">
        <ele>282.5</ele>
        <time>2026-08-22T13:33:15Z</time>
      </trkpt>
      <trkpt lat="47.1616" lon="5.89401">
        <ele>282.8</ele>
        <time>2026-08-22T13:33:19Z</time>
      </trkpt>
      <trkpt lat="47.16162" lon="5.89408">
        <ele>283.3</ele>
        <time>2026-08-22T13:33:23Z</time>
      </trkpt>
      <trkpt lat="47.16163" lon="5.89415">
        <ele>283.7</ele>
        <time>2026-08-22T13:33:27Z</time>
      </trkpt>
      <trkpt lat="47.16165" lon="5.89453">
        <ele>286.1</ele>
        <time>2026-08-22T13:33:48Z</time>
      </trkpt>
      <trkpt lat="47.16165" lon="5.8946">
        <ele>286.4</ele>
        <time>2026-08-22T13:33:52Z</time>
      </trkpt>
      <trkpt lat="47.16165" lon="5.89468">
        <ele>286.7</ele>
        <time>2026-08-22T13:33:56Z</time>
      </trkpt>
      <trkpt lat="47.16164" lon="5.89475">
        <ele>286.9</ele>
        <time>2026-08-22T13:34:00Z</time>
      </trkpt>
      <trkpt lat="47.16164" lon="5.89491">
        <ele>287.3</ele>
        <time>2026-08-22T13:34:08Z</time>
      </trkpt>
      <trkpt lat="47.16165" lon="5.89498">
        <ele>287.5</ele>
        <time>2026-08-22T13:34:12Z</time>
      </trkpt>
      <trkpt lat="47.16168" lon="5.89529">
        <ele>288.7</ele>
        <time>2026-08-22T13:34:28Z</time>
      </trkpt>
      <trkpt lat="47.16166" lon="5.89536">
        <ele>289.1</ele>
        <time>2026-08-22T13:34:32Z</time>
      </trkpt>
      <trkpt lat="47.16168" lon="5.89543">
        <ele>289.5</ele>
        <time>2026-08-22T13:34:36Z</time>
      </trkpt>
      <trkpt lat="47.16172" lon="5.89581">
        <ele>291.6</ele>
        <time>2026-08-22T13:34:56Z</time>
      </trkpt>
      <trkpt lat="47.16174" lon="5.89587">
        <ele>292</ele>
        <time>2026-08-22T13:34:59Z</time>
      </trkpt>
      <trkpt lat="47.16177" lon="5.89601">
        <ele>292.8</ele>
        <time>2026-08-22T13:35:07Z</time>
      </trkpt>
      <trkpt lat="47.16179" lon="5.89624">
        <ele>294.2</ele>
        <time>2026-08-22T13:35:19Z</time>
      </trkpt>
      <trkpt lat="47.16181" lon="5.89641">
        <ele>295.3</ele>
        <time>2026-08-22T13:35:27Z</time>
      </trkpt>
      <trkpt lat="47.16181" lon="5.8965">
        <ele>295.8</ele>
        <time>2026-08-22T13:35:31Z</time>
      </trkpt>
      <trkpt lat="47.16182" lon="5.89658">
        <ele>296.4</ele>
        <time>2026-08-22T13:35:35Z</time>
      </trkpt>
      <trkpt lat="47.16184" lon="5.89664">
        <ele>296.8</ele>
        <time>2026-08-22T13:35:39Z</time>
      </trkpt>
      <trkpt lat="47.16189" lon="5.89666">
        <ele>297.1</ele>
        <time>2026-08-22T13:35:45Z</time>
      </trkpt>
      <trkpt lat="47.16192" lon="5.89661">
        <ele>297.4</ele>
        <time>2026-08-22T13:36:32Z</time>
      </trkpt>
      <trkpt lat="47.16188" lon="5.89663">
        <ele>297.6</ele>
        <time>2026-08-22T13:37:17Z</time>
      </trkpt>
      <trkpt lat="47.16184" lon="5.8967">
        <ele>297.7</ele>
        <time>2026-08-22T13:37:22Z</time>
      </trkpt>
      <trkpt lat="47.16182" lon="5.89678">
        <ele>297.7</ele>
        <time>2026-08-22T13:37:26Z</time>
      </trkpt>
      <trkpt lat="47.16184" lon="5.89694">
        <ele>297.7</ele>
        <time>2026-08-22T13:37:34Z</time>
      </trkpt>
      <trkpt lat="47.16183" lon="5.897">
        <ele>297.7</ele>
        <time>2026-08-22T13:37:37Z</time>
      </trkpt>
      <trkpt lat="47.16176" lon="5.89709">
        <ele>297.7</ele>
        <time>2026-08-22T13:37:42Z</time>
      </trkpt>
      <trkpt lat="47.16172" lon="5.89714">
        <ele>297.7</ele>
        <time>2026-08-22T13:37:45Z</time>
      </trkpt>
      <trkpt lat="47.16165" lon="5.89725">
        <ele>297.7</ele>
        <time>2026-08-22T13:37:52Z</time>
      </trkpt>
      <trkpt lat="47.16161" lon="5.89732">
        <ele>297.7</ele>
        <time>2026-08-22T13:37:56Z</time>
      </trkpt>
      <trkpt lat="47.16156" lon="5.89744">
        <ele>297.6</ele>
        <time>2026-08-22T13:38:03Z</time>
      </trkpt>
      <trkpt lat="47.16148" lon="5.89762">
        <ele>297.9</ele>
        <time>2026-08-22T13:38:12Z</time>
      </trkpt>
      <trkpt lat="47.1614" lon="5.89771">
        <ele>298.9</ele>
        <time>2026-08-22T13:38:19Z</time>
      </trkpt>
      <trkpt lat="47.16131" lon="5.89779">
        <ele>300.4</ele>
        <time>2026-08-22T13:38:27Z</time>
      </trkpt>
      <trkpt lat="47.16128" lon="5.89786">
        <ele>301.2</ele>
        <time>2026-08-22T13:38:31Z</time>
      </trkpt>
      <trkpt lat="47.16122" lon="5.89796">
        <ele>302.4</ele>
        <time>2026-08-22T13:38:39Z</time>
      </trkpt>
      <trkpt lat="47.16116" lon="5.89798">
        <ele>303</ele>
        <time>2026-08-22T13:38:44Z</time>
      </trkpt>
      <trkpt lat="47.16111" lon="5.898">
        <ele>303.3</ele>
        <time>2026-08-22T13:38:49Z</time>
      </trkpt>
      <trkpt lat="47.16106" lon="5.898">
        <ele>303.4</ele>
        <time>2026-08-22T13:38:53Z</time>
      </trkpt>
      <trkpt lat="47.16102" lon="5.89805">
        <ele>303.5</ele>
        <time>2026-08-22T13:38:57Z</time>
      </trkpt>
      <trkpt lat="47.16098" lon="5.8981">
        <ele>303.6</ele>
        <time>2026-08-22T13:39:01Z</time>
      </trkpt>
      <trkpt lat="47.16094" lon="5.89814">
        <ele>303.7</ele>
        <time>2026-08-22T13:39:05Z</time>
      </trkpt>
      <trkpt lat="47.16091" lon="5.89819">
        <ele>303.7</ele>
        <time>2026-08-22T13:39:09Z</time>
      </trkpt>
      <trkpt lat="47.16082" lon="5.89828">
        <ele>303.8</ele>
        <time>2026-08-22T13:39:17Z</time>
      </trkpt>
      <trkpt lat="47.16077" lon="5.8983">
        <ele>303.8</ele>
        <time>2026-08-22T13:39:21Z</time>
      </trkpt>
      <trkpt lat="47.16072" lon="5.89832">
        <ele>303.8</ele>
        <time>2026-08-22T13:39:25Z</time>
      </trkpt>
      <trkpt lat="47.16068" lon="5.89835">
        <ele>303.8</ele>
        <time>2026-08-22T13:39:28Z</time>
      </trkpt>
      <trkpt lat="47.16063" lon="5.89839">
        <ele>303.8</ele>
        <time>2026-08-22T13:39:32Z</time>
      </trkpt>
      <trkpt lat="47.16058" lon="5.89842">
        <ele>303.8</ele>
        <time>2026-08-22T13:39:36Z</time>
      </trkpt>
      <trkpt lat="47.16048" lon="5.89844">
        <ele>303.5</ele>
        <time>2026-08-22T13:39:45Z</time>
      </trkpt>
      <trkpt lat="47.16043" lon="5.89846">
        <ele>303.2</ele>
        <time>2026-08-22T13:39:49Z</time>
      </trkpt>
      <trkpt lat="47.16038" lon="5.89849">
        <ele>302.8</ele>
        <time>2026-08-22T13:39:53Z</time>
      </trkpt>
      <trkpt lat="47.16032" lon="5.89851">
        <ele>302.3</ele>
        <time>2026-08-22T13:39:57Z</time>
      </trkpt>
      <trkpt lat="47.16026" lon="5.89853">
        <ele>301.8</ele>
        <time>2026-08-22T13:40:01Z</time>
      </trkpt>
      <trkpt lat="47.16021" lon="5.89855">
        <ele>301.3</ele>
        <time>2026-08-22T13:40:05Z</time>
      </trkpt>
      <trkpt lat="47.16015" lon="5.89856">
        <ele>300.9</ele>
        <time>2026-08-22T13:40:09Z</time>
      </trkpt>
      <trkpt lat="47.1601" lon="5.8986">
        <ele>300.4</ele>
        <time>2026-08-22T13:40:13Z</time>
      </trkpt>
      <trkpt lat="47.16005" lon="5.89863">
        <ele>300</ele>
        <time>2026-08-22T13:40:17Z</time>
      </trkpt>
      <trkpt lat="47.16" lon="5.89867">
        <ele>299.5</ele>
        <time>2026-08-22T13:40:21Z</time>
      </trkpt>
      <trkpt lat="47.1596" lon="5.89894">
        <ele>295.6</ele>
        <time>2026-08-22T13:40:52Z</time>
      </trkpt>
      <trkpt lat="47.15947" lon="5.89906">
        <ele>293.8</ele>
        <time>2026-08-22T13:41:03Z</time>
      </trkpt>
      <trkpt lat="47.15942" lon="5.89908">
        <ele>293.3</ele>
        <time>2026-08-22T13:41:07Z</time>
      </trkpt>
      <trkpt lat="47.15937" lon="5.89911">
        <ele>292.8</ele>
        <time>2026-08-22T13:41:11Z</time>
      </trkpt>
      <trkpt lat="47.15924" lon="5.89924">
        <ele>291.5</ele>
        <time>2026-08-22T13:41:23Z</time>
      </trkpt>
      <trkpt lat="47.15916" lon="5.89935">
        <ele>290.8</ele>
        <time>2026-08-22T13:41:31Z</time>
      </trkpt>
      <trkpt lat="47.15912" lon="5.89941">
        <ele>290.4</ele>
        <time>2026-08-22T13:41:35Z</time>
      </trkpt>
      <trkpt lat="47.1591" lon="5.89947">
        <ele>290.2</ele>
        <time>2026-08-22T13:41:38Z</time>
      </trkpt>
      <trkpt lat="47.15906" lon="5.8996">
        <ele>289.6</ele>
        <time>2026-08-22T13:41:44Z</time>
      </trkpt>
      <trkpt lat="47.15903" lon="5.89966">
        <ele>289.4</ele>
        <time>2026-08-22T13:41:47Z</time>
      </trkpt>
      <trkpt lat="47.15901" lon="5.89974">
        <ele>289.1</ele>
        <time>2026-08-22T13:41:51Z</time>
      </trkpt>
      <trkpt lat="47.15898" lon="5.89982">
        <ele>288.7</ele>
        <time>2026-08-22T13:41:55Z</time>
      </trkpt>
      <trkpt lat="47.15896" lon="5.89997">
        <ele>288.1</ele>
        <time>2026-08-22T13:42:03Z</time>
      </trkpt>
      <trkpt lat="47.15894" lon="5.90004">
        <ele>287.7</ele>
        <time>2026-08-22T13:42:07Z</time>
      </trkpt>
      <trkpt lat="47.15892" lon="5.9001">
        <ele>287.3</ele>
        <time>2026-08-22T13:42:11Z</time>
      </trkpt>
      <trkpt lat="47.15888" lon="5.90016">
        <ele>286.9</ele>
        <time>2026-08-22T13:42:15Z</time>
      </trkpt>
      <trkpt lat="47.15884" lon="5.90022">
        <ele>286.4</ele>
        <time>2026-08-22T13:42:19Z</time>
      </trkpt>
      <trkpt lat="47.15876" lon="5.90031">
        <ele>285.8</ele>
        <time>2026-08-22T13:42:27Z</time>
      </trkpt>
      <trkpt lat="47.15866" lon="5.90034">
        <ele>285.7</ele>
        <time>2026-08-22T13:42:35Z</time>
      </trkpt>
      <trkpt lat="47.15861" lon="5.90031">
        <ele>285.8</ele>
        <time>2026-08-22T13:42:39Z</time>
      </trkpt>
      <trkpt lat="47.15856" lon="5.9003">
        <ele>285.7</ele>
        <time>2026-08-22T13:42:43Z</time>
      </trkpt>
      <trkpt lat="47.15851" lon="5.90029">
        <ele>285.7</ele>
        <time>2026-08-22T13:42:47Z</time>
      </trkpt>
      <trkpt lat="47.15846" lon="5.90028">
        <ele>285.7</ele>
        <time>2026-08-22T13:42:51Z</time>
      </trkpt>
      <trkpt lat="47.15841" lon="5.90029">
        <ele>285.5</ele>
        <time>2026-08-22T13:42:55Z</time>
      </trkpt>
      <trkpt lat="47.15837" lon="5.90028">
        <ele>285.2</ele>
        <time>2026-08-22T13:42:59Z</time>
      </trkpt>
      <trkpt lat="47.15833" lon="5.90033">
        <ele>284.9</ele>
        <time>2026-08-22T13:43:02Z</time>
      </trkpt>
      <trkpt lat="47.15829" lon="5.9004">
        <ele>284.5</ele>
        <time>2026-08-22T13:43:06Z</time>
      </trkpt>
      <trkpt lat="47.15825" lon="5.90046">
        <ele>284.1</ele>
        <time>2026-08-22T13:43:10Z</time>
      </trkpt>
      <trkpt lat="47.15821" lon="5.90051">
        <ele>283.8</ele>
        <time>2026-08-22T13:43:13Z</time>
      </trkpt>
      <trkpt lat="47.15817" lon="5.90058">
        <ele>283.3</ele>
        <time>2026-08-22T13:43:36Z</time>
      </trkpt>
      <trkpt lat="47.15808" lon="5.90066">
        <ele>282.8</ele>
        <time>2026-08-22T13:43:43Z</time>
      </trkpt>
      <trkpt lat="47.15803" lon="5.90069">
        <ele>282.6</ele>
        <time>2026-08-22T13:43:47Z</time>
      </trkpt>
      <trkpt lat="47.15795" lon="5.90077">
        <ele>282.3</ele>
        <time>2026-08-22T13:43:53Z</time>
      </trkpt>
      <trkpt lat="47.15776" lon="5.90104">
        <ele>281.5</ele>
        <time>2026-08-22T13:44:11Z</time>
      </trkpt>
      <trkpt lat="47.15772" lon="5.90109">
        <ele>281.2</ele>
        <time>2026-08-22T13:44:15Z</time>
      </trkpt>
      <trkpt lat="47.15768" lon="5.90115">
        <ele>280.8</ele>
        <time>2026-08-22T13:44:19Z</time>
      </trkpt>
      <trkpt lat="47.15764" lon="5.90121">
        <ele>280.4</ele>
        <time>2026-08-22T13:44:23Z</time>
      </trkpt>
      <trkpt lat="47.15761" lon="5.90126">
        <ele>280</ele>
        <time>2026-08-22T13:44:27Z</time>
      </trkpt>
      <trkpt lat="47.15763" lon="5.90139">
        <ele>280</ele>
        <time>2026-08-22T13:44:34Z</time>
      </trkpt>
      <trkpt lat="47.15766" lon="5.90146">
        <ele>280.2</ele>
        <time>2026-08-22T13:44:38Z</time>
      </trkpt>
      <trkpt lat="47.15769" lon="5.90153">
        <ele>280.4</ele>
        <time>2026-08-22T13:44:42Z</time>
      </trkpt>
      <trkpt lat="47.15772" lon="5.90161">
        <ele>280.8</ele>
        <time>2026-08-22T13:44:46Z</time>
      </trkpt>
      <trkpt lat="47.15778" lon="5.90183">
        <ele>280.5</ele>
        <time>2026-08-22T13:44:58Z</time>
      </trkpt>
      <trkpt lat="47.15781" lon="5.90198">
        <ele>281.1</ele>
        <time>2026-08-22T13:45:06Z</time>
      </trkpt>
      <trkpt lat="47.15784" lon="5.90204">
        <ele>281.5</ele>
        <time>2026-08-22T13:45:11Z</time>
      </trkpt>
      <trkpt lat="47.15788" lon="5.90209">
        <ele>281.8</ele>
        <time>2026-08-22T13:45:15Z</time>
      </trkpt>
      <trkpt lat="47.15792" lon="5.90215">
        <ele>282.1</ele>
        <time>2026-08-22T13:45:19Z</time>
      </trkpt>
      <trkpt lat="47.15799" lon="5.90229">
        <ele>282.8</ele>
        <time>2026-08-22T13:46:04Z</time>
      </trkpt>
      <trkpt lat="47.15801" lon="5.90236">
        <ele>283.2</ele>
        <time>2026-08-22T13:46:09Z</time>
      </trkpt>
      <trkpt lat="47.15822" lon="5.90288">
        <ele>285.7</ele>
        <time>2026-08-22T13:46:38Z</time>
      </trkpt>
      <trkpt lat="47.15824" lon="5.90295">
        <ele>285.9</ele>
        <time>2026-08-22T13:46:42Z</time>
      </trkpt>
      <trkpt lat="47.15827" lon="5.90302">
        <ele>286.2</ele>
        <time>2026-08-22T13:46:46Z</time>
      </trkpt>
      <trkpt lat="47.15829" lon="5.90309">
        <ele>286.5</ele>
        <time>2026-08-22T13:46:50Z</time>
      </trkpt>
      <trkpt lat="47.15841" lon="5.90335">
        <ele>288.2</ele>
        <time>2026-08-22T13:47:05Z</time>
      </trkpt>
      <trkpt lat="47.15843" lon="5.9035">
        <ele>289.1</ele>
        <time>2026-08-22T13:47:13Z</time>
      </trkpt>
      <trkpt lat="47.15843" lon="5.90357">
        <ele>289.6</ele>
        <time>2026-08-22T13:47:17Z</time>
      </trkpt>
      <trkpt lat="47.15847" lon="5.90373">
        <ele>290.8</ele>
        <time>2026-08-22T13:47:25Z</time>
      </trkpt>
      <trkpt lat="47.15849" lon="5.90379">
        <ele>291.3</ele>
        <time>2026-08-22T13:47:29Z</time>
      </trkpt>
      <trkpt lat="47.15851" lon="5.90385">
        <ele>291.8</ele>
        <time>2026-08-22T13:47:33Z</time>
      </trkpt>
      <trkpt lat="47.15856" lon="5.90399">
        <ele>292.8</ele>
        <time>2026-08-22T13:47:41Z</time>
      </trkpt>
      <trkpt lat="47.15859" lon="5.90405">
        <ele>293.3</ele>
        <time>2026-08-22T13:47:45Z</time>
      </trkpt>
      <trkpt lat="47.15862" lon="5.9041">
        <ele>293.8</ele>
        <time>2026-08-22T13:47:49Z</time>
      </trkpt>
      <trkpt lat="47.15875" lon="5.90433">
        <ele>295.9</ele>
        <time>2026-08-22T13:48:05Z</time>
      </trkpt>
      <trkpt lat="47.15887" lon="5.90446">
        <ele>297.5</ele>
        <time>2026-08-22T13:48:17Z</time>
      </trkpt>
      <trkpt lat="47.1589" lon="5.90451">
        <ele>298</ele>
        <time>2026-08-22T13:48:21Z</time>
      </trkpt>
      <trkpt lat="47.15896" lon="5.90463">
        <ele>299</ele>
        <time>2026-08-22T13:48:28Z</time>
      </trkpt>
      <trkpt lat="47.15904" lon="5.90474">
        <ele>299.9</ele>
        <time>2026-08-22T13:48:36Z</time>
      </trkpt>
      <trkpt lat="47.15913" lon="5.90484">
        <ele>300.9</ele>
        <time>2026-08-22T13:48:44Z</time>
      </trkpt>
      <trkpt lat="47.15917" lon="5.90488">
        <ele>301.3</ele>
        <time>2026-08-22T13:48:48Z</time>
      </trkpt>
      <trkpt lat="47.15921" lon="5.90492">
        <ele>301.8</ele>
        <time>2026-08-22T13:48:52Z</time>
      </trkpt>
      <trkpt lat="47.15928" lon="5.90504">
        <ele>302.7</ele>
        <time>2026-08-22T13:49:00Z</time>
      </trkpt>
      <trkpt lat="47.15932" lon="5.90509">
        <ele>303.2</ele>
        <time>2026-08-22T13:49:04Z</time>
      </trkpt>
      <trkpt lat="47.15936" lon="5.90513">
        <ele>303.6</ele>
        <time>2026-08-22T13:49:08Z</time>
      </trkpt>
      <trkpt lat="47.15945" lon="5.9052">
        <ele>304.4</ele>
        <time>2026-08-22T13:49:16Z</time>
      </trkpt>
      <trkpt lat="47.15953" lon="5.90528">
        <ele>305.2</ele>
        <time>2026-08-22T13:49:23Z</time>
      </trkpt>
      <trkpt lat="47.15958" lon="5.90532">
        <ele>305.5</ele>
        <time>2026-08-22T13:49:28Z</time>
      </trkpt>
      <trkpt lat="47.15962" lon="5.90537">
        <ele>305.9</ele>
        <time>2026-08-22T13:49:32Z</time>
      </trkpt>
      <trkpt lat="47.15975" lon="5.90551">
        <ele>307</ele>
        <time>2026-08-22T13:49:44Z</time>
      </trkpt>
      <trkpt lat="47.1598" lon="5.90554">
        <ele>307.3</ele>
        <time>2026-08-22T13:49:48Z</time>
      </trkpt>
      <trkpt lat="47.15984" lon="5.90556">
        <ele>307.6</ele>
        <time>2026-08-22T13:49:52Z</time>
      </trkpt>
      <trkpt lat="47.15989" lon="5.90559">
        <ele>307.9</ele>
        <time>2026-08-22T13:49:56Z</time>
      </trkpt>
      <trkpt lat="47.16005" lon="5.90562">
        <ele>308.9</ele>
        <time>2026-08-22T13:50:08Z</time>
      </trkpt>
      <trkpt lat="47.16011" lon="5.90564">
        <ele>309.2</ele>
        <time>2026-08-22T13:50:12Z</time>
      </trkpt>
      <trkpt lat="47.16022" lon="5.90569">
        <ele>309.8</ele>
        <time>2026-08-22T13:50:21Z</time>
      </trkpt>
      <trkpt lat="47.16054" lon="5.90592">
        <ele>310.4</ele>
        <time>2026-08-22T13:50:47Z</time>
      </trkpt>
      <trkpt lat="47.1607" lon="5.90613">
        <ele>310.5</ele>
        <time>2026-08-22T13:51:03Z</time>
      </trkpt>
      <trkpt lat="47.16074" lon="5.90618">
        <ele>310.5</ele>
        <time>2026-08-22T13:51:07Z</time>
      </trkpt>
      <trkpt lat="47.16086" lon="5.90645">
        <ele>310.8</ele>
        <time>2026-08-22T13:51:23Z</time>
      </trkpt>
      <trkpt lat="47.16089" lon="5.90652">
        <ele>311</ele>
        <time>2026-08-22T13:51:27Z</time>
      </trkpt>
      <trkpt lat="47.16099" lon="5.90671">
        <ele>311.7</ele>
        <time>2026-08-22T13:51:39Z</time>
      </trkpt>
      <trkpt lat="47.16102" lon="5.90677">
        <ele>311.9</ele>
        <time>2026-08-22T13:51:44Z</time>
      </trkpt>
      <trkpt lat="47.16106" lon="5.90692">
        <ele>312.5</ele>
        <time>2026-08-22T13:51:52Z</time>
      </trkpt>
      <trkpt lat="47.16108" lon="5.90699">
        <ele>312.8</ele>
        <time>2026-08-22T13:51:56Z</time>
      </trkpt>
      <trkpt lat="47.16113" lon="5.90705">
        <ele>313.1</ele>
        <time>2026-08-22T13:52:00Z</time>
      </trkpt>
      <trkpt lat="47.16116" lon="5.9071">
        <ele>313.4</ele>
        <time>2026-08-22T13:52:04Z</time>
      </trkpt>
      <trkpt lat="47.16119" lon="5.90715">
        <ele>313.6</ele>
        <time>2026-08-22T13:52:08Z</time>
      </trkpt>
      <trkpt lat="47.16121" lon="5.90722">
        <ele>316.3</ele>
        <time>2026-08-22T13:52:12Z</time>
      </trkpt>
      <trkpt lat="47.16132" lon="5.90761">
        <ele>318.8</ele>
        <time>2026-08-22T13:52:37Z</time>
      </trkpt>
      <trkpt lat="47.16149" lon="5.9078">
        <ele>321.1</ele>
        <time>2026-08-22T13:52:53Z</time>
      </trkpt>
      <trkpt lat="47.16153" lon="5.90785">
        <ele>321.6</ele>
        <time>2026-08-22T13:52:57Z</time>
      </trkpt>
      <trkpt lat="47.1616" lon="5.90795">
        <ele>322.8</ele>
        <time>2026-08-22T13:53:05Z</time>
      </trkpt>
      <trkpt lat="47.16164" lon="5.908">
        <ele>323.3</ele>
        <time>2026-08-22T13:53:09Z</time>
      </trkpt>
      <trkpt lat="47.16168" lon="5.90805">
        <ele>323.9</ele>
        <time>2026-08-22T13:53:13Z</time>
      </trkpt>
      <trkpt lat="47.16172" lon="5.9081">
        <ele>324.5</ele>
        <time>2026-08-22T13:53:17Z</time>
      </trkpt>
      <trkpt lat="47.16175" lon="5.90816">
        <ele>325.2</ele>
        <time>2026-08-22T13:53:21Z</time>
      </trkpt>
      <trkpt lat="47.16179" lon="5.90821">
        <ele>325.8</ele>
        <time>2026-08-22T13:53:25Z</time>
      </trkpt>
      <trkpt lat="47.16198" lon="5.90845">
        <ele>328.8</ele>
        <time>2026-08-22T13:53:45Z</time>
      </trkpt>
      <trkpt lat="47.16205" lon="5.90856">
        <ele>330</ele>
        <time>2026-08-22T13:53:53Z</time>
      </trkpt>
      <trkpt lat="47.16209" lon="5.9086">
        <ele>330.6</ele>
        <time>2026-08-22T13:53:57Z</time>
      </trkpt>
      <trkpt lat="47.16214" lon="5.90865">
        <ele>331.3</ele>
        <time>2026-08-22T13:54:01Z</time>
      </trkpt>
      <trkpt lat="47.16225" lon="5.9088">
        <ele>333.2</ele>
        <time>2026-08-22T13:54:13Z</time>
      </trkpt>
      <trkpt lat="47.16232" lon="5.90891">
        <ele>334.6</ele>
        <time>2026-08-22T13:54:21Z</time>
      </trkpt>
      <trkpt lat="47.16236" lon="5.90897">
        <ele>335.3</ele>
        <time>2026-08-22T13:54:25Z</time>
      </trkpt>
      <trkpt lat="47.16245" lon="5.90905">
        <ele>336.8</ele>
        <time>2026-08-22T13:54:33Z</time>
      </trkpt>
      <trkpt lat="47.16259" lon="5.90925">
        <ele>339.6</ele>
        <time>2026-08-22T13:54:48Z</time>
      </trkpt>
      <trkpt lat="47.16267" lon="5.90934">
        <ele>341</ele>
        <time>2026-08-22T13:54:56Z</time>
      </trkpt>
      <trkpt lat="47.16271" lon="5.90938">
        <ele>341.7</ele>
        <time>2026-08-22T13:55:00Z</time>
      </trkpt>
      <trkpt lat="47.16274" lon="5.90944">
        <ele>342.3</ele>
        <time>2026-08-22T13:55:04Z</time>
      </trkpt>
      <trkpt lat="47.1628" lon="5.90955">
        <ele>343.8</ele>
        <time>2026-08-22T13:55:12Z</time>
      </trkpt>
      <trkpt lat="47.16282" lon="5.90962">
        <ele>344.5</ele>
        <time>2026-08-22T13:55:16Z</time>
      </trkpt>
      <trkpt lat="47.16281" lon="5.90977">
        <ele>346</ele>
        <time>2026-08-22T13:55:25Z</time>
      </trkpt>
      <trkpt lat="47.16281" lon="5.90984">
        <ele>346.8</ele>
        <time>2026-08-22T13:55:29Z</time>
      </trkpt>
      <trkpt lat="47.16281" lon="5.90991">
        <ele>347.4</ele>
        <time>2026-08-22T13:55:33Z</time>
      </trkpt>
      <trkpt lat="47.1628" lon="5.90997">
        <ele>348.1</ele>
        <time>2026-08-22T13:55:37Z</time>
      </trkpt>
      <trkpt lat="47.16276" lon="5.91021">
        <ele>350.5</ele>
        <time>2026-08-22T13:55:51Z</time>
      </trkpt>
      <trkpt lat="47.16274" lon="5.91028">
        <ele>351.4</ele>
        <time>2026-08-22T13:55:55Z</time>
      </trkpt>
      <trkpt lat="47.16273" lon="5.91036">
        <ele>352.2</ele>
        <time>2026-08-22T13:55:59Z</time>
      </trkpt>
      <trkpt lat="47.16274" lon="5.91044">
        <ele>353</ele>
        <time>2026-08-22T13:56:03Z</time>
      </trkpt>
      <trkpt lat="47.16271" lon="5.91058">
        <ele>354.6</ele>
        <time>2026-08-22T13:56:10Z</time>
      </trkpt>
      <trkpt lat="47.16272" lon="5.91066">
        <ele>355.3</ele>
        <time>2026-08-22T13:56:14Z</time>
      </trkpt>
      <trkpt lat="47.1627" lon="5.91079">
        <ele>356.7</ele>
        <time>2026-08-22T13:56:32Z</time>
      </trkpt>
      <trkpt lat="47.16283" lon="5.91094">
        <ele>358.8</ele>
        <time>2026-08-22T13:59:14Z</time>
      </trkpt>
      <trkpt lat="47.16286" lon="5.91099">
        <ele>359.5</ele>
        <time>2026-08-22T13:59:18Z</time>
      </trkpt>
      <trkpt lat="47.16293" lon="5.9111">
        <ele>360.9</ele>
        <time>2026-08-22T13:59:27Z</time>
      </trkpt>
      <trkpt lat="47.16295" lon="5.91116">
        <ele>361.4</ele>
        <time>2026-08-22T13:59:31Z</time>
      </trkpt>
      <trkpt lat="47.16302" lon="5.91126">
        <ele>362.4</ele>
        <time>2026-08-22T13:59:40Z</time>
      </trkpt>
      <trkpt lat="47.16297" lon="5.91128">
        <ele>362.3</ele>
        <time>2026-08-22T13:59:44Z</time>
      </trkpt>
      <trkpt lat="47.16276" lon="5.91134">
        <ele>361.8</ele>
        <time>2026-08-22T13:59:59Z</time>
      </trkpt>
      <trkpt lat="47.1627" lon="5.91138">
        <ele>361.7</ele>
        <time>2026-08-22T14:00:03Z</time>
      </trkpt>
      <trkpt lat="47.16257" lon="5.91148">
        <ele>361.5</ele>
        <time>2026-08-22T14:00:14Z</time>
      </trkpt>
      <trkpt lat="47.16248" lon="5.91155">
        <ele>361.3</ele>
        <time>2026-08-22T14:00:22Z</time>
      </trkpt>
      <trkpt lat="47.16243" lon="5.91159">
        <ele>361.2</ele>
        <time>2026-08-22T14:00:26Z</time>
      </trkpt>
      <trkpt lat="47.16238" lon="5.91162">
        <ele>361.1</ele>
        <time>2026-08-22T14:00:30Z</time>
      </trkpt>
      <trkpt lat="47.16224" lon="5.91173">
        <ele>360.8</ele>
        <time>2026-08-22T14:00:41Z</time>
      </trkpt>
      <trkpt lat="47.16218" lon="5.91176">
        <ele>360.7</ele>
        <time>2026-08-22T14:00:45Z</time>
      </trkpt>
      <trkpt lat="47.16215" lon="5.9118">
        <ele>360.6</ele>
        <time>2026-08-22T14:00:48Z</time>
      </trkpt>
      <trkpt lat="47.16211" lon="5.91184">
        <ele>360.5</ele>
        <time>2026-08-22T14:00:51Z</time>
      </trkpt>
      <trkpt lat="47.16203" lon="5.91194">
        <ele>360.2</ele>
        <time>2026-08-22T14:00:58Z</time>
      </trkpt>
      <trkpt lat="47.16191" lon="5.91204">
        <ele>359.7</ele>
        <time>2026-08-22T14:01:08Z</time>
      </trkpt>
      <trkpt lat="47.16186" lon="5.91209">
        <ele>359.5</ele>
        <time>2026-08-22T14:01:12Z</time>
      </trkpt>
      <trkpt lat="47.16177" lon="5.91217">
        <ele>359.2</ele>
        <time>2026-08-22T14:01:20Z</time>
      </trkpt>
      <trkpt lat="47.16168" lon="5.91224">
        <ele>358.8</ele>
        <time>2026-08-22T14:01:27Z</time>
      </trkpt>
      <trkpt lat="47.16164" lon="5.91226">
        <ele>358.6</ele>
        <time>2026-08-22T14:01:30Z</time>
      </trkpt>
      <trkpt lat="47.16152" lon="5.91239">
        <ele>357.9</ele>
        <time>2026-08-22T14:01:40Z</time>
      </trkpt>
      <trkpt lat="47.16144" lon="5.9125">
        <ele>357.5</ele>
        <time>2026-08-22T14:01:47Z</time>
      </trkpt>
      <trkpt lat="47.1614" lon="5.91256">
        <ele>357.3</ele>
        <time>2026-08-22T14:01:51Z</time>
      </trkpt>
      <trkpt lat="47.16137" lon="5.91261">
        <ele>357.2</ele>
        <time>2026-08-22T14:01:54Z</time>
      </trkpt>
      <trkpt lat="47.16128" lon="5.9127">
        <ele>356.9</ele>
        <time>2026-08-22T14:02:02Z</time>
      </trkpt>
      <trkpt lat="47.16124" lon="5.91274">
        <ele>356.8</ele>
        <time>2026-08-22T14:02:05Z</time>
      </trkpt>
      <trkpt lat="47.1612" lon="5.9128">
        <ele>356.6</ele>
        <time>2026-08-22T14:02:09Z</time>
      </trkpt>
      <trkpt lat="47.16112" lon="5.91292">
        <ele>356.3</ele>
        <time>2026-08-22T14:02:17Z</time>
      </trkpt>
      <trkpt lat="47.16107" lon="5.91294">
        <ele>356.2</ele>
        <time>2026-08-22T14:02:20Z</time>
      </trkpt>
      <trkpt lat="47.16102" lon="5.91298">
        <ele>356.1</ele>
        <time>2026-08-22T14:02:24Z</time>
      </trkpt>
      <trkpt lat="47.16092" lon="5.91307">
        <ele>355.8</ele>
        <time>2026-08-22T14:02:32Z</time>
      </trkpt>
      <trkpt lat="47.16087" lon="5.9131">
        <ele>355.6</ele>
        <time>2026-08-22T14:02:36Z</time>
      </trkpt>
      <trkpt lat="47.16082" lon="5.91314">
        <ele>355.5</ele>
        <time>2026-08-22T14:02:40Z</time>
      </trkpt>
      <trkpt lat="47.16073" lon="5.91323">
        <ele>355.2</ele>
        <time>2026-08-22T14:02:48Z</time>
      </trkpt>
      <trkpt lat="47.16063" lon="5.91325">
        <ele>355</ele>
        <time>2026-08-22T14:02:55Z</time>
      </trkpt>
      <trkpt lat="47.16057" lon="5.91327">
        <ele>354.8</ele>
        <time>2026-08-22T14:02:59Z</time>
      </trkpt>
      <trkpt lat="47.16053" lon="5.91328">
        <ele>354.7</ele>
        <time>2026-08-22T14:03:02Z</time>
      </trkpt>
      <trkpt lat="47.16042" lon="5.91333">
        <ele>354.5</ele>
        <time>2026-08-22T14:03:09Z</time>
      </trkpt>
      <trkpt lat="47.16037" lon="5.91335">
        <ele>354.5</ele>
        <time>2026-08-22T14:03:13Z</time>
      </trkpt>
      <trkpt lat="47.16033" lon="5.91337">
        <ele>354.4</ele>
        <time>2026-08-22T14:03:16Z</time>
      </trkpt>
      <trkpt lat="47.16032" lon="5.91352">
        <ele>354.5</ele>
        <time>2026-08-22T14:03:23Z</time>
      </trkpt>
      <trkpt lat="47.16036" lon="5.91364">
        <ele>356</ele>
        <time>2026-08-22T14:03:29Z</time>
      </trkpt>
      <trkpt lat="47.16041" lon="5.91369">
        <ele>356.9</ele>
        <time>2026-08-22T14:03:33Z</time>
      </trkpt>
      <trkpt lat="47.16045" lon="5.91374">
        <ele>357.7</ele>
        <time>2026-08-22T14:03:37Z</time>
      </trkpt>
      <trkpt lat="47.16049" lon="5.91378">
        <ele>358.5</ele>
        <time>2026-08-22T14:03:41Z</time>
      </trkpt>
      <trkpt lat="47.16062" lon="5.91391">
        <ele>360.6</ele>
        <time>2026-08-22T14:03:53Z</time>
      </trkpt>
      <trkpt lat="47.16067" lon="5.91395">
        <ele>361.3</ele>
        <time>2026-08-22T14:03:58Z</time>
      </trkpt>
      <trkpt lat="47.16071" lon="5.91399">
        <ele>361.8</ele>
        <time>2026-08-22T14:04:02Z</time>
      </trkpt>
      <trkpt lat="47.16075" lon="5.91403">
        <ele>362.5</ele>
        <time>2026-08-22T14:04:07Z</time>
      </trkpt>
      <trkpt lat="47.16079" lon="5.91408">
        <ele>363</ele>
        <time>2026-08-22T14:04:11Z</time>
      </trkpt>
      <trkpt lat="47.16087" lon="5.91417">
        <ele>364.4</ele>
        <time>2026-08-22T14:04:19Z</time>
      </trkpt>
      <trkpt lat="47.16091" lon="5.91422">
        <ele>365</ele>
        <time>2026-08-22T14:04:23Z</time>
      </trkpt>
      <trkpt lat="47.16099" lon="5.9143">
        <ele>366.5</ele>
        <time>2026-08-22T14:04:31Z</time>
      </trkpt>
      <trkpt lat="47.16103" lon="5.91435">
        <ele>367.3</ele>
        <time>2026-08-22T14:04:35Z</time>
      </trkpt>
      <trkpt lat="47.16108" lon="5.91436">
        <ele>368</ele>
        <time>2026-08-22T14:04:39Z</time>
      </trkpt>
      <trkpt lat="47.16116" lon="5.91444">
        <ele>369.6</ele>
        <time>2026-08-22T14:04:47Z</time>
      </trkpt>
      <trkpt lat="47.16121" lon="5.91447">
        <ele>370.5</ele>
        <time>2026-08-22T14:04:51Z</time>
      </trkpt>
      <trkpt lat="47.16125" lon="5.91452">
        <ele>371.3</ele>
        <time>2026-08-22T14:04:55Z</time>
      </trkpt>
      <trkpt lat="47.16129" lon="5.91456">
        <ele>372.2</ele>
        <time>2026-08-22T14:05:13Z</time>
      </trkpt>
      <trkpt lat="47.16134" lon="5.91461">
        <ele>373.1</ele>
        <time>2026-08-22T14:05:17Z</time>
      </trkpt>
      <trkpt lat="47.16146" lon="5.91473">
        <ele>375.3</ele>
        <time>2026-08-22T14:05:29Z</time>
      </trkpt>
      <trkpt lat="47.1615" lon="5.91478">
        <ele>376.2</ele>
        <time>2026-08-22T14:05:34Z</time>
      </trkpt>
      <trkpt lat="47.16159" lon="5.91482">
        <ele>377.6</ele>
        <time>2026-08-22T14:05:52Z</time>
      </trkpt>
      <trkpt lat="47.16163" lon="5.91486">
        <ele>378.3</ele>
        <time>2026-08-22T14:05:55Z</time>
      </trkpt>
      <trkpt lat="47.16167" lon="5.9149">
        <ele>379.1</ele>
        <time>2026-08-22T14:05:58Z</time>
      </trkpt>
      <trkpt lat="47.16178" lon="5.91504">
        <ele>381.3</ele>
        <time>2026-08-22T14:06:09Z</time>
      </trkpt>
      <trkpt lat="47.16183" lon="5.91507">
        <ele>382.1</ele>
        <time>2026-08-22T14:06:14Z</time>
      </trkpt>
      <trkpt lat="47.16188" lon="5.91512">
        <ele>382.9</ele>
        <time>2026-08-22T14:06:18Z</time>
      </trkpt>
      <trkpt lat="47.16192" lon="5.91517">
        <ele>383.6</ele>
        <time>2026-08-22T14:06:22Z</time>
      </trkpt>
      <trkpt lat="47.16196" lon="5.9152">
        <ele>384.3</ele>
        <time>2026-08-22T14:06:26Z</time>
      </trkpt>
      <trkpt lat="47.162" lon="5.91533">
        <ele>386.2</ele>
        <time>2026-08-22T14:08:00Z</time>
      </trkpt>
      <trkpt lat="47.16201" lon="5.91541">
        <ele>386.8</ele>
        <time>2026-08-22T14:08:04Z</time>
      </trkpt>
      <trkpt lat="47.16202" lon="5.91548">
        <ele>387.5</ele>
        <time>2026-08-22T14:08:08Z</time>
      </trkpt>
      <trkpt lat="47.16204" lon="5.91555">
        <ele>388.1</ele>
        <time>2026-08-22T14:08:12Z</time>
      </trkpt>
      <trkpt lat="47.16208" lon="5.91569">
        <ele>389.4</ele>
        <time>2026-08-22T14:08:20Z</time>
      </trkpt>
      <trkpt lat="47.16212" lon="5.91575">
        <ele>390.1</ele>
        <time>2026-08-22T14:08:24Z</time>
      </trkpt>
      <trkpt lat="47.16218" lon="5.91589">
        <ele>391.4</ele>
        <time>2026-08-22T14:08:32Z</time>
      </trkpt>
      <trkpt lat="47.16223" lon="5.91602">
        <ele>392.5</ele>
        <time>2026-08-22T14:08:40Z</time>
      </trkpt>
      <trkpt lat="47.16229" lon="5.91614">
        <ele>393.3</ele>
        <time>2026-08-22T14:08:47Z</time>
      </trkpt>
      <trkpt lat="47.16231" lon="5.91621">
        <ele>393.6</ele>
        <time>2026-08-22T14:08:51Z</time>
      </trkpt>
      <trkpt lat="47.16234" lon="5.91629">
        <ele>393.9</ele>
        <time>2026-08-22T14:08:55Z</time>
      </trkpt>
      <trkpt lat="47.16237" lon="5.91636">
        <ele>394.1</ele>
        <time>2026-08-22T14:08:59Z</time>
      </trkpt>
      <trkpt lat="47.1625" lon="5.91671">
        <ele>394.7</ele>
        <time>2026-08-22T14:09:18Z</time>
      </trkpt>
      <trkpt lat="47.16254" lon="5.91676">
        <ele>394.9</ele>
        <time>2026-08-22T14:09:22Z</time>
      </trkpt>
      <trkpt lat="47.16258" lon="5.91682">
        <ele>395</ele>
        <time>2026-08-22T14:09:25Z</time>
      </trkpt>
      <trkpt lat="47.1626" lon="5.9169">
        <ele>395.1</ele>
        <time>2026-08-22T14:09:29Z</time>
      </trkpt>
      <trkpt lat="47.16263" lon="5.91697">
        <ele>395.1</ele>
        <time>2026-08-22T14:09:33Z</time>
      </trkpt>
      <trkpt lat="47.16266" lon="5.91704">
        <ele>395.1</ele>
        <time>2026-08-22T14:09:37Z</time>
      </trkpt>
      <trkpt lat="47.16272" lon="5.91715">
        <ele>395.1</ele>
        <time>2026-08-22T14:09:44Z</time>
      </trkpt>
      <trkpt lat="47.16276" lon="5.91721">
        <ele>395</ele>
        <time>2026-08-22T14:09:47Z</time>
      </trkpt>
      <trkpt lat="47.16282" lon="5.91732">
        <ele>394.8</ele>
        <time>2026-08-22T14:09:54Z</time>
      </trkpt>
      <trkpt lat="47.16285" lon="5.91739">
        <ele>394.6</ele>
        <time>2026-08-22T14:09:58Z</time>
      </trkpt>
      <trkpt lat="47.16288" lon="5.91745">
        <ele>394.5</ele>
        <time>2026-08-22T14:10:01Z</time>
      </trkpt>
      <trkpt lat="47.16291" lon="5.91752">
        <ele>394.2</ele>
        <time>2026-08-22T14:10:05Z</time>
      </trkpt>
      <trkpt lat="47.16294" lon="5.91758">
        <ele>393.9</ele>
        <time>2026-08-22T14:10:08Z</time>
      </trkpt>
      <trkpt lat="47.16296" lon="5.91764">
        <ele>393.6</ele>
        <time>2026-08-22T14:10:11Z</time>
      </trkpt>
      <trkpt lat="47.16298" lon="5.91769">
        <ele>393.3</ele>
        <time>2026-08-22T14:10:14Z</time>
      </trkpt>
      <trkpt lat="47.16301" lon="5.91775">
        <ele>393</ele>
        <time>2026-08-22T14:10:17Z</time>
      </trkpt>
      <trkpt lat="47.16309" lon="5.91788">
        <ele>392.4</ele>
        <time>2026-08-22T14:10:25Z</time>
      </trkpt>
      <trkpt lat="47.16316" lon="5.91798">
        <ele>392.1</ele>
        <time>2026-08-22T14:10:31Z</time>
      </trkpt>
      <trkpt lat="47.1632" lon="5.91803">
        <ele>391.9</ele>
        <time>2026-08-22T14:10:35Z</time>
      </trkpt>
      <trkpt lat="47.16325" lon="5.91808">
        <ele>391.8</ele>
        <time>2026-08-22T14:10:39Z</time>
      </trkpt>
      <trkpt lat="47.16336" lon="5.91823">
        <ele>391.6</ele>
        <time>2026-08-22T14:10:49Z</time>
      </trkpt>
      <trkpt lat="47.16341" lon="5.91827">
        <ele>391.4</ele>
        <time>2026-08-22T14:10:53Z</time>
      </trkpt>
      <trkpt lat="47.1635" lon="5.91838">
        <ele>391.3</ele>
        <time>2026-08-22T14:11:00Z</time>
      </trkpt>
      <trkpt lat="47.16354" lon="5.91842">
        <ele>391.3</ele>
        <time>2026-08-22T14:11:03Z</time>
      </trkpt>
      <trkpt lat="47.16359" lon="5.91846">
        <ele>391.4</ele>
        <time>2026-08-22T14:11:07Z</time>
      </trkpt>
      <trkpt lat="47.16363" lon="5.91849">
        <ele>391.6</ele>
        <time>2026-08-22T14:11:10Z</time>
      </trkpt>
      <trkpt lat="47.16369" lon="5.91851">
        <ele>392</ele>
        <time>2026-08-22T14:11:14Z</time>
      </trkpt>
      <trkpt lat="47.16373" lon="5.91851">
        <ele>392.3</ele>
        <time>2026-08-22T14:11:17Z</time>
      </trkpt>
      <trkpt lat="47.16379" lon="5.91852">
        <ele>392.9</ele>
        <time>2026-08-22T14:11:21Z</time>
      </trkpt>
      <trkpt lat="47.1639" lon="5.91853">
        <ele>394.3</ele>
        <time>2026-08-22T14:11:29Z</time>
      </trkpt>
      <trkpt lat="47.16394" lon="5.91851">
        <ele>395.2</ele>
        <time>2026-08-22T14:11:32Z</time>
      </trkpt>
      <trkpt lat="47.16399" lon="5.91847">
        <ele>396.1</ele>
        <time>2026-08-22T14:11:36Z</time>
      </trkpt>
      <trkpt lat="47.16403" lon="5.91844">
        <ele>397</ele>
        <time>2026-08-22T14:11:40Z</time>
      </trkpt>
      <trkpt lat="47.16409" lon="5.91832">
        <ele>398.8</ele>
        <time>2026-08-22T14:11:48Z</time>
      </trkpt>
      <trkpt lat="47.16407" lon="5.91813">
        <ele>401.5</ele>
        <time>2026-08-22T14:13:28Z</time>
      </trkpt>
      <trkpt lat="47.16406" lon="5.91806">
        <ele>402.7</ele>
        <time>2026-08-22T14:13:33Z</time>
      </trkpt>
      <trkpt lat="47.16404" lon="5.91799">
        <ele>404</ele>
        <time>2026-08-22T14:13:37Z</time>
      </trkpt>
      <trkpt lat="47.16403" lon="5.91792">
        <ele>405.5</ele>
        <time>2026-08-22T14:13:42Z</time>
      </trkpt>
      <trkpt lat="47.16405" lon="5.91785">
        <ele>407</ele>
        <time>2026-08-22T14:13:48Z</time>
      </trkpt>
      <trkpt lat="47.16408" lon="5.91764">
        <ele>410.6</ele>
        <time>2026-08-22T14:14:05Z</time>
      </trkpt>
      <trkpt lat="47.16409" lon="5.91757">
        <ele>411.2</ele>
        <time>2026-08-22T14:14:10Z</time>
      </trkpt>
      <trkpt lat="47.16416" lon="5.91747">
        <ele>411.3</ele>
        <time>2026-08-22T14:14:19Z</time>
      </trkpt>
      <trkpt lat="47.16421" lon="5.91733">
        <ele>410.5</ele>
        <time>2026-08-22T14:14:27Z</time>
      </trkpt>
      <trkpt lat="47.16423" lon="5.91726">
        <ele>410</ele>
        <time>2026-08-22T14:14:31Z</time>
      </trkpt>
      <trkpt lat="47.16427" lon="5.91713">
        <ele>409</ele>
        <time>2026-08-22T14:15:01Z</time>
      </trkpt>
      <trkpt lat="47.16429" lon="5.91705">
        <ele>408.5</ele>
        <time>2026-08-22T14:15:04Z</time>
      </trkpt>
      <trkpt lat="47.16434" lon="5.9169">
        <ele>407.3</ele>
        <time>2026-08-22T14:15:10Z</time>
      </trkpt>
      <trkpt lat="47.16437" lon="5.91685">
        <ele>406.8</ele>
        <time>2026-08-22T14:15:13Z</time>
      </trkpt>
      <trkpt lat="47.16439" lon="5.91678">
        <ele>406.3</ele>
        <time>2026-08-22T14:15:16Z</time>
      </trkpt>
      <trkpt lat="47.1644" lon="5.9167">
        <ele>405.6</ele>
        <time>2026-08-22T14:15:20Z</time>
      </trkpt>
      <trkpt lat="47.16442" lon="5.91663">
        <ele>405.1</ele>
        <time>2026-08-22T14:15:23Z</time>
      </trkpt>
      <trkpt lat="47.16445" lon="5.91656">
        <ele>404.5</ele>
        <time>2026-08-22T14:15:27Z</time>
      </trkpt>
      <trkpt lat="47.1645" lon="5.91644">
        <ele>403.5</ele>
        <time>2026-08-22T14:15:33Z</time>
      </trkpt>
      <trkpt lat="47.16452" lon="5.91638">
        <ele>403.1</ele>
        <time>2026-08-22T14:15:36Z</time>
      </trkpt>
      <trkpt lat="47.16454" lon="5.91632">
        <ele>402.6</ele>
        <time>2026-08-22T14:15:39Z</time>
      </trkpt>
      <trkpt lat="47.16457" lon="5.91627">
        <ele>402.1</ele>
        <time>2026-08-22T14:15:42Z</time>
      </trkpt>
      <trkpt lat="47.16461" lon="5.91621">
        <ele>401.5</ele>
        <time>2026-08-22T14:15:46Z</time>
      </trkpt>
      <trkpt lat="47.16466" lon="5.91616">
        <ele>400.8</ele>
        <time>2026-08-22T14:15:50Z</time>
      </trkpt>
      <trkpt lat="47.16469" lon="5.9161">
        <ele>400.2</ele>
        <time>2026-08-22T14:15:54Z</time>
      </trkpt>
      <trkpt lat="47.16473" lon="5.91604">
        <ele>399.5</ele>
        <time>2026-08-22T14:15:58Z</time>
      </trkpt>
      <trkpt lat="47.16478" lon="5.916">
        <ele>398.9</ele>
        <time>2026-08-22T14:16:02Z</time>
      </trkpt>
      <trkpt lat="47.16485" lon="5.91591">
        <ele>397.9</ele>
        <time>2026-08-22T14:16:09Z</time>
      </trkpt>
      <trkpt lat="47.16489" lon="5.91587">
        <ele>397.4</ele>
        <time>2026-08-22T14:16:12Z</time>
      </trkpt>
      <trkpt lat="47.16493" lon="5.91581">
        <ele>396.8</ele>
        <time>2026-08-22T14:16:16Z</time>
      </trkpt>
      <trkpt lat="47.16497" lon="5.91575">
        <ele>396.2</ele>
        <time>2026-08-22T14:16:20Z</time>
      </trkpt>
      <trkpt lat="47.165" lon="5.91567">
        <ele>395.7</ele>
        <time>2026-08-22T14:16:24Z</time>
      </trkpt>
      <trkpt lat="47.16502" lon="5.91559">
        <ele>395.2</ele>
        <time>2026-08-22T14:16:28Z</time>
      </trkpt>
      <trkpt lat="47.16507" lon="5.91546">
        <ele>394.2</ele>
        <time>2026-08-22T14:16:35Z</time>
      </trkpt>
      <trkpt lat="47.16513" lon="5.91533">
        <ele>393.1</ele>
        <time>2026-08-22T14:16:43Z</time>
      </trkpt>
      <trkpt lat="47.16515" lon="5.91527">
        <ele>392.6</ele>
        <time>2026-08-22T14:17:19Z</time>
      </trkpt>
      <trkpt lat="47.16516" lon="5.91519">
        <ele>392.1</ele>
        <time>2026-08-22T14:17:22Z</time>
      </trkpt>
      <trkpt lat="47.16516" lon="5.91511">
        <ele>391.6</ele>
        <time>2026-08-22T14:17:25Z</time>
      </trkpt>
      <trkpt lat="47.16516" lon="5.91503">
        <ele>391</ele>
        <time>2026-08-22T14:17:29Z</time>
      </trkpt>
      <trkpt lat="47.16518" lon="5.91496">
        <ele>390.6</ele>
        <time>2026-08-22T14:17:33Z</time>
      </trkpt>
      <trkpt lat="47.16518" lon="5.91487">
        <ele>390.3</ele>
        <time>2026-08-22T14:17:37Z</time>
      </trkpt>
      <trkpt lat="47.16518" lon="5.91479">
        <ele>390.1</ele>
        <time>2026-08-22T14:17:41Z</time>
      </trkpt>
      <trkpt lat="47.16519" lon="5.91471">
        <ele>390.1</ele>
        <time>2026-08-22T14:17:45Z</time>
      </trkpt>
      <trkpt lat="47.16521" lon="5.91463">
        <ele>390.3</ele>
        <time>2026-08-22T14:17:49Z</time>
      </trkpt>
      <trkpt lat="47.16527" lon="5.9145">
        <ele>390.9</ele>
        <time>2026-08-22T14:17:56Z</time>
      </trkpt>
      <trkpt lat="47.16536" lon="5.91441">
        <ele>391.4</ele>
        <time>2026-08-22T14:18:03Z</time>
      </trkpt>
      <trkpt lat="47.1654" lon="5.91436">
        <ele>391.6</ele>
        <time>2026-08-22T14:18:07Z</time>
      </trkpt>
      <trkpt lat="47.16545" lon="5.91431">
        <ele>391.8</ele>
        <time>2026-08-22T14:18:11Z</time>
      </trkpt>
      <trkpt lat="47.16549" lon="5.91427">
        <ele>391.9</ele>
        <time>2026-08-22T14:18:15Z</time>
      </trkpt>
      <trkpt lat="47.16558" lon="5.91419">
        <ele>391.7</ele>
        <time>2026-08-22T14:18:23Z</time>
      </trkpt>
      <trkpt lat="47.16573" lon="5.91403">
        <ele>390.7</ele>
        <time>2026-08-22T14:18:36Z</time>
      </trkpt>
      <trkpt lat="47.1659" lon="5.91397">
        <ele>389.6</ele>
        <time>2026-08-22T14:18:48Z</time>
      </trkpt>
      <trkpt lat="47.16595" lon="5.91394">
        <ele>389.2</ele>
        <time>2026-08-22T14:18:52Z</time>
      </trkpt>
      <trkpt lat="47.166" lon="5.9139">
        <ele>388.8</ele>
        <time>2026-08-22T14:18:56Z</time>
      </trkpt>
      <trkpt lat="47.16605" lon="5.91385">
        <ele>388.4</ele>
        <time>2026-08-22T14:19:00Z</time>
      </trkpt>
      <trkpt lat="47.1661" lon="5.91381">
        <ele>388</ele>
        <time>2026-08-22T14:19:04Z</time>
      </trkpt>
      <trkpt lat="47.16615" lon="5.91379">
        <ele>387.6</ele>
        <time>2026-08-22T14:19:08Z</time>
      </trkpt>
      <trkpt lat="47.16619" lon="5.91374">
        <ele>387.2</ele>
        <time>2026-08-22T14:19:12Z</time>
      </trkpt>
      <trkpt lat="47.16621" lon="5.91368">
        <ele>386.9</ele>
        <time>2026-08-22T14:19:15Z</time>
      </trkpt>
      <trkpt lat="47.16622" lon="5.9136">
        <ele>386.5</ele>
        <time>2026-08-22T14:19:18Z</time>
      </trkpt>
      <trkpt lat="47.16622" lon="5.91345">
        <ele>385.6</ele>
        <time>2026-08-22T14:19:25Z</time>
      </trkpt>
      <trkpt lat="47.16625" lon="5.91338">
        <ele>385.2</ele>
        <time>2026-08-22T14:19:29Z</time>
      </trkpt>
      <trkpt lat="47.16634" lon="5.91332">
        <ele>384.4</ele>
        <time>2026-08-22T14:19:37Z</time>
      </trkpt>
      <trkpt lat="47.16644" lon="5.91325">
        <ele>383.8</ele>
        <time>2026-08-22T14:19:45Z</time>
      </trkpt>
      <trkpt lat="47.16649" lon="5.91322">
        <ele>383.5</ele>
        <time>2026-08-22T14:19:49Z</time>
      </trkpt>
      <trkpt lat="47.16655" lon="5.91321">
        <ele>383.3</ele>
        <time>2026-08-22T14:19:53Z</time>
      </trkpt>
      <trkpt lat="47.1666" lon="5.91319">
        <ele>383.2</ele>
        <time>2026-08-22T14:19:57Z</time>
      </trkpt>
      <trkpt lat="47.16667" lon="5.91309">
        <ele>382.8</ele>
        <time>2026-08-22T14:20:05Z</time>
      </trkpt>
      <trkpt lat="47.16674" lon="5.91297">
        <ele>382.4</ele>
        <time>2026-08-22T14:20:13Z</time>
      </trkpt>
      <trkpt lat="47.16683" lon="5.91269">
        <ele>381.3</ele>
        <time>2026-08-22T14:20:29Z</time>
      </trkpt>
      <trkpt lat="47.16684" lon="5.91259">
        <ele>380.9</ele>
        <time>2026-08-22T14:20:34Z</time>
      </trkpt>
      <trkpt lat="47.16685" lon="5.91251">
        <ele>380.5</ele>
        <time>2026-08-22T14:20:38Z</time>
      </trkpt>
      <trkpt lat="47.16686" lon="5.91236">
        <ele>379.7</ele>
        <time>2026-08-22T14:20:47Z</time>
      </trkpt>
      <trkpt lat="47.16691" lon="5.91236">
        <ele>377.6</ele>
        <time>2026-08-22T14:21:01Z</time>
      </trkpt>
      <trkpt lat="47.16696" lon="5.91239">
        <ele>375.2</ele>
        <time>2026-08-22T14:21:06Z</time>
      </trkpt>
      <trkpt lat="47.16701" lon="5.91237">
        <ele>374</ele>
        <time>2026-08-22T14:21:11Z</time>
      </trkpt>
      <trkpt lat="47.16709" lon="5.91241">
        <ele>370.4</ele>
        <time>2026-08-22T14:21:22Z</time>
      </trkpt>
      <trkpt lat="47.16712" lon="5.91247">
        <ele>368.3</ele>
        <time>2026-08-22T14:21:27Z</time>
      </trkpt>
      <trkpt lat="47.16717" lon="5.91243">
        <ele>367.2</ele>
        <time>2026-08-22T14:21:52Z</time>
      </trkpt>
      <trkpt lat="47.16719" lon="5.91234">
        <ele>368.7</ele>
        <time>2026-08-22T14:23:14Z</time>
      </trkpt>
      <trkpt lat="47.16719" lon="5.91226">
        <ele>370</ele>
        <time>2026-08-22T14:23:18Z</time>
      </trkpt>
      <trkpt lat="47.16719" lon="5.91219">
        <ele>370.3</ele>
        <time>2026-08-22T14:23:37Z</time>
      </trkpt>
      <trkpt lat="47.16724" lon="5.91215">
        <ele>369.8</ele>
        <time>2026-08-22T14:23:58Z</time>
      </trkpt>
      <trkpt lat="47.1673" lon="5.91215">
        <ele>367</ele>
        <time>2026-08-22T14:24:04Z</time>
      </trkpt>
      <trkpt lat="47.16747" lon="5.91208">
        <ele>362.7</ele>
        <time>2026-08-22T14:24:21Z</time>
      </trkpt>
      <trkpt lat="47.16756" lon="5.912">
        <ele>360.9</ele>
        <time>2026-08-22T14:24:29Z</time>
      </trkpt>
      <trkpt lat="47.1676" lon="5.91197">
        <ele>359.7</ele>
        <time>2026-08-22T14:24:37Z</time>
      </trkpt>
      <trkpt lat="47.16765" lon="5.91192">
        <ele>359.3</ele>
        <time>2026-08-22T14:24:42Z</time>
      </trkpt>
      <trkpt lat="47.16769" lon="5.91186">
        <ele>358.8</ele>
        <time>2026-08-22T14:24:46Z</time>
      </trkpt>
      <trkpt lat="47.16772" lon="5.91182">
        <ele>357.4</ele>
        <time>2026-08-22T14:24:50Z</time>
      </trkpt>
      <trkpt lat="47.16777" lon="5.91179">
        <ele>356.6</ele>
        <time>2026-08-22T14:24:54Z</time>
      </trkpt>
      <trkpt lat="47.16789" lon="5.91167">
        <ele>354.3</ele>
        <time>2026-08-22T14:25:07Z</time>
      </trkpt>
      <trkpt lat="47.16793" lon="5.91163">
        <ele>352.9</ele>
        <time>2026-08-22T14:25:11Z</time>
      </trkpt>
      <trkpt lat="47.16795" lon="5.91157">
        <ele>352.2</ele>
        <time>2026-08-22T14:25:15Z</time>
      </trkpt>
      <trkpt lat="47.16799" lon="5.91152">
        <ele>351.4</ele>
        <time>2026-08-22T14:25:19Z</time>
      </trkpt>
      <trkpt lat="47.16804" lon="5.91149">
        <ele>350.5</ele>
        <time>2026-08-22T14:25:23Z</time>
      </trkpt>
      <trkpt lat="47.16813" lon="5.91147">
        <ele>345.9</ele>
        <time>2026-08-22T14:25:40Z</time>
      </trkpt>
      <trkpt lat="47.16813" lon="5.9114">
        <ele>346.6</ele>
        <time>2026-08-22T14:26:09Z</time>
      </trkpt>
      <trkpt lat="47.16814" lon="5.91133">
        <ele>347.5</ele>
        <time>2026-08-22T14:26:14Z</time>
      </trkpt>
      <trkpt lat="47.16817" lon="5.91129">
        <ele>346.8</ele>
        <time>2026-08-22T14:26:19Z</time>
      </trkpt>
      <trkpt lat="47.1682" lon="5.91115">
        <ele>347.4</ele>
        <time>2026-08-22T14:26:32Z</time>
      </trkpt>
      <trkpt lat="47.1682" lon="5.91109">
        <ele>347.7</ele>
        <time>2026-08-22T14:26:36Z</time>
      </trkpt>
      <trkpt lat="47.16825" lon="5.91108">
        <ele>345.7</ele>
        <time>2026-08-22T14:26:40Z</time>
      </trkpt>
      <trkpt lat="47.16831" lon="5.91099">
        <ele>344.7</ele>
        <time>2026-08-22T14:27:03Z</time>
      </trkpt>
      <trkpt lat="47.16833" lon="5.91091">
        <ele>345.6</ele>
        <time>2026-08-22T14:27:08Z</time>
      </trkpt>
      <trkpt lat="47.16831" lon="5.91083">
        <ele>346.5</ele>
        <time>2026-08-22T14:27:11Z</time>
      </trkpt>
      <trkpt lat="47.16841" lon="5.91065">
        <ele>346.4</ele>
        <time>2026-08-22T14:27:23Z</time>
      </trkpt>
      <trkpt lat="47.16846" lon="5.91064">
        <ele>345.8</ele>
        <time>2026-08-22T14:27:27Z</time>
      </trkpt>
      <trkpt lat="47.16852" lon="5.91065">
        <ele>342.9</ele>
        <time>2026-08-22T14:27:31Z</time>
      </trkpt>
      <trkpt lat="47.16857" lon="5.91069">
        <ele>340.8</ele>
        <time>2026-08-22T14:27:35Z</time>
      </trkpt>
      <trkpt lat="47.16862" lon="5.91072">
        <ele>338.6</ele>
        <time>2026-08-22T14:27:39Z</time>
      </trkpt>
      <trkpt lat="47.16866" lon="5.91066">
        <ele>337.1</ele>
        <time>2026-08-22T14:27:43Z</time>
      </trkpt>
      <trkpt lat="47.16873" lon="5.91057">
        <ele>336.8</ele>
        <time>2026-08-22T14:27:53Z</time>
      </trkpt>
      <trkpt lat="47.16877" lon="5.91053">
        <ele>335.3</ele>
        <time>2026-08-22T14:27:58Z</time>
      </trkpt>
      <trkpt lat="47.16884" lon="5.91033">
        <ele>336.3</ele>
        <time>2026-08-22T14:28:19Z</time>
      </trkpt>
      <trkpt lat="47.16888" lon="5.91029">
        <ele>335.6</ele>
        <time>2026-08-22T14:28:24Z</time>
      </trkpt>
      <trkpt lat="47.16893" lon="5.9103">
        <ele>333.2</ele>
        <time>2026-08-22T14:28:28Z</time>
      </trkpt>
      <trkpt lat="47.16898" lon="5.91033">
        <ele>329.9</ele>
        <time>2026-08-22T14:28:32Z</time>
      </trkpt>
      <trkpt lat="47.16902" lon="5.91029">
        <ele>329.4</ele>
        <time>2026-08-22T14:28:36Z</time>
      </trkpt>
      <trkpt lat="47.16907" lon="5.91024">
        <ele>327.9</ele>
        <time>2026-08-22T14:28:40Z</time>
      </trkpt>
      <trkpt lat="47.16915" lon="5.91021">
        <ele>324.5</ele>
        <time>2026-08-22T14:29:01Z</time>
      </trkpt>
      <trkpt lat="47.16918" lon="5.91015">
        <ele>323.4</ele>
        <time>2026-08-22T14:29:05Z</time>
      </trkpt>
      <trkpt lat="47.16922" lon="5.91011">
        <ele>322.2</ele>
        <time>2026-08-22T14:29:08Z</time>
      </trkpt>
      <trkpt lat="47.16928" lon="5.91009">
        <ele>319.1</ele>
        <time>2026-08-22T14:29:13Z</time>
      </trkpt>
      <trkpt lat="47.16932" lon="5.91005">
        <ele>318</ele>
        <time>2026-08-22T14:29:18Z</time>
      </trkpt>
      <trkpt lat="47.16936" lon="5.91001">
        <ele>314.9</ele>
        <time>2026-08-22T14:29:25Z</time>
      </trkpt>
      <trkpt lat="47.1694" lon="5.90998">
        <ele>313.1</ele>
        <time>2026-08-22T14:29:36Z</time>
      </trkpt>
      <trkpt lat="47.16953" lon="5.91003">
        <ele>301.7</ele>
        <time>2026-08-22T14:29:56Z</time>
      </trkpt>
      <trkpt lat="47.16949" lon="5.91">
        <ele>305.7</ele>
        <time>2026-08-22T14:30:18Z</time>
      </trkpt>
      <trkpt lat="47.16952" lon="5.90994">
        <ele>304.1</ele>
        <time>2026-08-22T14:30:37Z</time>
      </trkpt>
      <trkpt lat="47.16952" lon="5.90987">
        <ele>304.1</ele>
        <time>2026-08-22T14:30:44Z</time>
      </trkpt>
      <trkpt lat="47.16957" lon="5.90986">
        <ele>299.8</ele>
        <time>2026-08-22T14:31:03Z</time>
      </trkpt>
      <trkpt lat="47.16957" lon="5.90958">
        <ele>300.2</ele>
        <time>2026-08-22T14:32:01Z</time>
      </trkpt>
      <trkpt lat="47.16958" lon="5.9095">
        <ele>300.1</ele>
        <time>2026-08-22T14:32:06Z</time>
      </trkpt>
      <trkpt lat="47.1696" lon="5.90944">
        <ele>298.3</ele>
        <time>2026-08-22T14:32:11Z</time>
      </trkpt>
      <trkpt lat="47.16962" lon="5.90937">
        <ele>296.5</ele>
        <time>2026-08-22T14:32:17Z</time>
      </trkpt>
      <trkpt lat="47.16963" lon="5.90944">
        <ele>295.9</ele>
        <time>2026-08-22T14:32:57Z</time>
      </trkpt>
      <trkpt lat="47.16965" lon="5.90951">
        <ele>293.2</ele>
        <time>2026-08-22T14:33:01Z</time>
      </trkpt>
      <trkpt lat="47.16964" lon="5.90958">
        <ele>292.5</ele>
        <time>2026-08-22T14:33:08Z</time>
      </trkpt>
      <trkpt lat="47.1696" lon="5.90961">
        <ele>296.1</ele>
        <time>2026-08-22T14:33:17Z</time>
      </trkpt>
      <trkpt lat="47.16957" lon="5.90981">
        <ele>297.1</ele>
        <time>2026-08-22T14:33:33Z</time>
      </trkpt>
      <trkpt lat="47.1696" lon="5.90976">
        <ele>294.9</ele>
        <time>2026-08-22T14:33:46Z</time>
      </trkpt>
      <trkpt lat="47.16964" lon="5.9097">
        <ele>292.7</ele>
        <time>2026-08-22T14:33:50Z</time>
      </trkpt>
      <trkpt lat="47.16964" lon="5.90963">
        <ele>292.7</ele>
        <time>2026-08-22T14:33:55Z</time>
      </trkpt>
      <trkpt lat="47.16967" lon="5.90957">
        <ele>290.8</ele>
        <time>2026-08-22T14:34:01Z</time>
      </trkpt>
      <trkpt lat="47.16968" lon="5.9095">
        <ele>288.7</ele>
        <time>2026-08-22T14:34:05Z</time>
      </trkpt>
      <trkpt lat="47.16967" lon="5.90943">
        <ele>290.9</ele>
        <time>2026-08-22T14:34:09Z</time>
      </trkpt>
      <trkpt lat="47.16963" lon="5.90938">
        <ele>292.7</ele>
        <time>2026-08-22T14:34:14Z</time>
      </trkpt>
      <trkpt lat="47.16959" lon="5.90935">
        <ele>294.3</ele>
        <time>2026-08-22T14:34:22Z</time>
      </trkpt>
      <trkpt lat="47.16956" lon="5.90929">
        <ele>295.7</ele>
        <time>2026-08-22T14:34:27Z</time>
      </trkpt>
      <trkpt lat="47.16957" lon="5.90922">
        <ele>295.6</ele>
        <time>2026-08-22T14:34:32Z</time>
      </trkpt>
      <trkpt lat="47.16958" lon="5.90907">
        <ele>295.3</ele>
        <time>2026-08-22T14:34:43Z</time>
      </trkpt>
      <trkpt lat="47.16952" lon="5.90896">
        <ele>297.1</ele>
        <time>2026-08-22T14:34:52Z</time>
      </trkpt>
      <trkpt lat="47.16947" lon="5.90883">
        <ele>297.1</ele>
        <time>2026-08-22T14:35:00Z</time>
      </trkpt>
      <trkpt lat="47.16945" lon="5.90877">
        <ele>297.8</ele>
        <time>2026-08-22T14:35:04Z</time>
      </trkpt>
      <trkpt lat="47.16942" lon="5.90871">
        <ele>298.1</ele>
        <time>2026-08-22T14:35:08Z</time>
      </trkpt>
      <trkpt lat="47.16939" lon="5.90866">
        <ele>298.8</ele>
        <time>2026-08-22T14:35:12Z</time>
      </trkpt>
      <trkpt lat="47.16936" lon="5.90861">
        <ele>299.3</ele>
        <time>2026-08-22T14:35:16Z</time>
      </trkpt>
      <trkpt lat="47.16931" lon="5.90855">
        <ele>300.8</ele>
        <time>2026-08-22T14:35:20Z</time>
      </trkpt>
      <trkpt lat="47.16923" lon="5.90843">
        <ele>301.9</ele>
        <time>2026-08-22T14:35:28Z</time>
      </trkpt>
      <trkpt lat="47.1692" lon="5.90837">
        <ele>301.5</ele>
        <time>2026-08-22T14:35:32Z</time>
      </trkpt>
      <trkpt lat="47.16916" lon="5.9083">
        <ele>301.7</ele>
        <time>2026-08-22T14:35:36Z</time>
      </trkpt>
      <trkpt lat="47.16914" lon="5.90824">
        <ele>301.9</ele>
        <time>2026-08-22T14:35:39Z</time>
      </trkpt>
      <trkpt lat="47.16912" lon="5.90818">
        <ele>300.2</ele>
        <time>2026-08-22T14:35:43Z</time>
      </trkpt>
      <trkpt lat="47.16921" lon="5.90823">
        <ele>297.6</ele>
        <time>2026-08-22T14:35:57Z</time>
      </trkpt>
      <trkpt lat="47.1693" lon="5.90828">
        <ele>294.8</ele>
        <time>2026-08-22T14:36:07Z</time>
      </trkpt>
      <trkpt lat="47.1694" lon="5.90832">
        <ele>292.1</ele>
        <time>2026-08-22T14:36:16Z</time>
      </trkpt>
      <trkpt lat="47.16944" lon="5.90835">
        <ele>290.6</ele>
        <time>2026-08-22T14:36:21Z</time>
      </trkpt>
      <trkpt lat="47.16949" lon="5.90839">
        <ele>289.2</ele>
        <time>2026-08-22T14:36:26Z</time>
      </trkpt>
      <trkpt lat="47.16954" lon="5.90843">
        <ele>287.7</ele>
        <time>2026-08-22T14:36:31Z</time>
      </trkpt>
      <trkpt lat="47.16959" lon="5.90846">
        <ele>286.4</ele>
        <time>2026-08-22T14:36:35Z</time>
      </trkpt>
      <trkpt lat="47.16975" lon="5.90851">
        <ele>281.9</ele>
        <time>2026-08-22T14:36:47Z</time>
      </trkpt>
      <trkpt lat="47.1698" lon="5.90852">
        <ele>280.6</ele>
        <time>2026-08-22T14:36:51Z</time>
      </trkpt>
      <trkpt lat="47.1699" lon="5.90853">
        <ele>277.9</ele>
        <time>2026-08-22T14:36:59Z</time>
      </trkpt>
      <trkpt lat="47.16995" lon="5.90853">
        <ele>276.6</ele>
        <time>2026-08-22T14:37:03Z</time>
      </trkpt>
      <trkpt lat="47.17" lon="5.90854">
        <ele>275.4</ele>
        <time>2026-08-22T14:37:07Z</time>
      </trkpt>
      <trkpt lat="47.17006" lon="5.90855">
        <ele>274</ele>
        <time>2026-08-22T14:37:12Z</time>
      </trkpt>
      <trkpt lat="47.17011" lon="5.90853">
        <ele>272.8</ele>
        <time>2026-08-22T14:37:16Z</time>
      </trkpt>
      <trkpt lat="47.17016" lon="5.90849">
        <ele>271.5</ele>
        <time>2026-08-22T14:37:20Z</time>
      </trkpt>
      <trkpt lat="47.17019" lon="5.90844">
        <ele>270.4</ele>
        <time>2026-08-22T14:37:23Z</time>
      </trkpt>
      <trkpt lat="47.17024" lon="5.90842">
        <ele>269.1</ele>
        <time>2026-08-22T14:37:27Z</time>
      </trkpt>
      <trkpt lat="47.17029" lon="5.90838">
        <ele>267.7</ele>
        <time>2026-08-22T14:37:31Z</time>
      </trkpt>
      <trkpt lat="47.17032" lon="5.90831">
        <ele>266.2</ele>
        <time>2026-08-22T14:37:35Z</time>
      </trkpt>
      <trkpt lat="47.17037" lon="5.90829">
        <ele>264.3</ele>
        <time>2026-08-22T14:37:39Z</time>
      </trkpt>
      <trkpt lat="47.17041" lon="5.90825">
        <ele>262.5</ele>
        <time>2026-08-22T14:37:43Z</time>
      </trkpt>
      <trkpt lat="47.17044" lon="5.90817">
        <ele>262.1</ele>
        <time>2026-08-22T14:37:47Z</time>
      </trkpt>
      <trkpt lat="47.17047" lon="5.9081">
        <ele>261.7</ele>
        <time>2026-08-22T14:37:51Z</time>
      </trkpt>
      <trkpt lat="47.17057" lon="5.90791">
        <ele>260.6</ele>
        <time>2026-08-22T14:38:44Z</time>
      </trkpt>
      <trkpt lat="47.17066" lon="5.90782">
        <ele>259.9</ele>
        <time>2026-08-22T14:38:52Z</time>
      </trkpt>
      <trkpt lat="47.17069" lon="5.90776">
        <ele>259.6</ele>
        <time>2026-08-22T14:38:56Z</time>
      </trkpt>
      <trkpt lat="47.17072" lon="5.9077">
        <ele>259.3</ele>
        <time>2026-08-22T14:39:00Z</time>
      </trkpt>
      <trkpt lat="47.17076" lon="5.90763">
        <ele>258.9</ele>
        <time>2026-08-22T14:39:04Z</time>
      </trkpt>
      <trkpt lat="47.17083" lon="5.9075">
        <ele>258.3</ele>
        <time>2026-08-22T14:39:12Z</time>
      </trkpt>
      <trkpt lat="47.17087" lon="5.90744">
        <ele>258</ele>
        <time>2026-08-22T14:39:16Z</time>
      </trkpt>
      <trkpt lat="47.17092" lon="5.90738">
        <ele>257.7</ele>
        <time>2026-08-22T14:39:20Z</time>
      </trkpt>
      <trkpt lat="47.17097" lon="5.90735">
        <ele>257.4</ele>
        <time>2026-08-22T14:39:24Z</time>
      </trkpt>
      <trkpt lat="47.17101" lon="5.90731">
        <ele>257.2</ele>
        <time>2026-08-22T14:39:27Z</time>
      </trkpt>
      <trkpt lat="47.17109" lon="5.90723">
        <ele>256.6</ele>
        <time>2026-08-22T14:39:34Z</time>
      </trkpt>
      <trkpt lat="47.17113" lon="5.9072">
        <ele>256.4</ele>
        <time>2026-08-22T14:39:37Z</time>
      </trkpt>
      <trkpt lat="47.17122" lon="5.90711">
        <ele>255.8</ele>
        <time>2026-08-22T14:39:44Z</time>
      </trkpt>
      <trkpt lat="47.17126" lon="5.90707">
        <ele>255.6</ele>
        <time>2026-08-22T14:39:47Z</time>
      </trkpt>
      <trkpt lat="47.1713" lon="5.90703">
        <ele>255.3</ele>
        <time>2026-08-22T14:39:50Z</time>
      </trkpt>
      <trkpt lat="47.17134" lon="5.90698">
        <ele>255.1</ele>
        <time>2026-08-22T14:39:53Z</time>
      </trkpt>
      <trkpt lat="47.17138" lon="5.90692">
        <ele>254.8</ele>
        <time>2026-08-22T14:39:56Z</time>
      </trkpt>
      <trkpt lat="47.17141" lon="5.90687">
        <ele>254.5</ele>
        <time>2026-08-22T14:39:59Z</time>
      </trkpt>
      <trkpt lat="47.17145" lon="5.90682">
        <ele>254.2</ele>
        <time>2026-08-22T14:40:02Z</time>
      </trkpt>
      <trkpt lat="47.17148" lon="5.90676">
        <ele>253.9</ele>
        <time>2026-08-22T14:40:05Z</time>
      </trkpt>
      <trkpt lat="47.17151" lon="5.90669">
        <ele>253.6</ele>
        <time>2026-08-22T14:40:08Z</time>
      </trkpt>
      <trkpt lat="47.17154" lon="5.90663">
        <ele>253.3</ele>
        <time>2026-08-22T14:40:11Z</time>
      </trkpt>
      <trkpt lat="47.17157" lon="5.90657">
        <ele>253</ele>
        <time>2026-08-22T14:40:14Z</time>
      </trkpt>
      <trkpt lat="47.1716" lon="5.90651">
        <ele>252.7</ele>
        <time>2026-08-22T14:40:17Z</time>
      </trkpt>
      <trkpt lat="47.17165" lon="5.90638">
        <ele>252.2</ele>
        <time>2026-08-22T14:40:23Z</time>
      </trkpt>
      <trkpt lat="47.17167" lon="5.90631">
        <ele>251.9</ele>
        <time>2026-08-22T14:40:26Z</time>
      </trkpt>
      <trkpt lat="47.1717" lon="5.90624">
        <ele>251.6</ele>
        <time>2026-08-22T14:40:29Z</time>
      </trkpt>
      <trkpt lat="47.17173" lon="5.90616">
        <ele>251.3</ele>
        <time>2026-08-22T14:40:33Z</time>
      </trkpt>
      <trkpt lat="47.17175" lon="5.90609">
        <ele>251.1</ele>
        <time>2026-08-22T14:40:36Z</time>
      </trkpt>
      <trkpt lat="47.17177" lon="5.90603">
        <ele>250.8</ele>
        <time>2026-08-22T14:40:39Z</time>
      </trkpt>
      <trkpt lat="47.1718" lon="5.90598">
        <ele>250.6</ele>
        <time>2026-08-22T14:40:42Z</time>
      </trkpt>
      <trkpt lat="47.17183" lon="5.90592">
        <ele>250.4</ele>
        <time>2026-08-22T14:40:45Z</time>
      </trkpt>
      <trkpt lat="47.17189" lon="5.90577">
        <ele>249.7</ele>
        <time>2026-08-22T14:40:53Z</time>
      </trkpt>
      <trkpt lat="47.17192" lon="5.90571">
        <ele>249.5</ele>
        <time>2026-08-22T14:40:56Z</time>
      </trkpt>
      <trkpt lat="47.17195" lon="5.90566">
        <ele>249.2</ele>
        <time>2026-08-22T14:40:59Z</time>
      </trkpt>
      <trkpt lat="47.17201" lon="5.90554">
        <ele>248.6</ele>
        <time>2026-08-22T14:41:06Z</time>
      </trkpt>
      <trkpt lat="47.17204" lon="5.90548">
        <ele>248.3</ele>
        <time>2026-08-22T14:41:09Z</time>
      </trkpt>
      <trkpt lat="47.1721" lon="5.90535">
        <ele>247.7</ele>
        <time>2026-08-22T14:41:16Z</time>
      </trkpt>
      <trkpt lat="47.17212" lon="5.90529">
        <ele>247.4</ele>
        <time>2026-08-22T14:41:19Z</time>
      </trkpt>
      <trkpt lat="47.1722" lon="5.90516">
        <ele>247</ele>
        <time>2026-08-22T14:41:27Z</time>
      </trkpt>
      <trkpt lat="47.17223" lon="5.90509">
        <ele>246.8</ele>
        <time>2026-08-22T14:41:31Z</time>
      </trkpt>
      <trkpt lat="47.17228" lon="5.90505">
        <ele>246.6</ele>
        <time>2026-08-22T14:41:35Z</time>
      </trkpt>
      <trkpt lat="47.17238" lon="5.90507">
        <ele>245.6</ele>
        <time>2026-08-22T14:41:43Z</time>
      </trkpt>
      <trkpt lat="47.17244" lon="5.9052">
        <ele>244.9</ele>
        <time>2026-08-22T14:41:51Z</time>
      </trkpt>
      <trkpt lat="47.17248" lon="5.90527">
        <ele>244.5</ele>
        <time>2026-08-22T14:41:55Z</time>
      </trkpt>
      <trkpt lat="47.17255" lon="5.9054">
        <ele>243.6</ele>
        <time>2026-08-22T14:42:03Z</time>
      </trkpt>
      <trkpt lat="47.17257" lon="5.90545">
        <ele>243.3</ele>
        <time>2026-08-22T14:42:06Z</time>
      </trkpt>
      <trkpt lat="47.1726" lon="5.90553">
        <ele>242.8</ele>
        <time>2026-08-22T14:42:10Z</time>
      </trkpt>
      <trkpt lat="47.17259" lon="5.9056">
        <ele>242.4</ele>
        <time>2026-08-22T14:42:13Z</time>
      </trkpt>
      <trkpt lat="47.17255" lon="5.90565">
        <ele>241.9</ele>
        <time>2026-08-22T14:42:16Z</time>
      </trkpt>
      <trkpt lat="47.17252" lon="5.9057">
        <ele>241.5</ele>
        <time>2026-08-22T14:42:19Z</time>
      </trkpt>
      <trkpt lat="47.17247" lon="5.90574">
        <ele>240.9</ele>
        <time>2026-08-22T14:42:23Z</time>
      </trkpt>
      <trkpt lat="47.17243" lon="5.90578">
        <ele>240.5</ele>
        <time>2026-08-22T14:42:26Z</time>
      </trkpt>
      <trkpt lat="47.1724" lon="5.90583">
        <ele>240</ele>
        <time>2026-08-22T14:42:29Z</time>
      </trkpt>
      <trkpt lat="47.17237" lon="5.90588">
        <ele>239.6</ele>
        <time>2026-08-22T14:42:32Z</time>
      </trkpt>
      <trkpt lat="47.1723" lon="5.906">
        <ele>238.7</ele>
        <time>2026-08-22T14:42:38Z</time>
      </trkpt>
      <trkpt lat="47.17226" lon="5.90604">
        <ele>238.2</ele>
        <time>2026-08-22T14:42:41Z</time>
      </trkpt>
      <trkpt lat="47.17219" lon="5.90614">
        <ele>237.4</ele>
        <time>2026-08-22T14:42:47Z</time>
      </trkpt>
      <trkpt lat="47.17215" lon="5.90619">
        <ele>237</ele>
        <time>2026-08-22T14:42:50Z</time>
      </trkpt>
      <trkpt lat="47.17212" lon="5.90624">
        <ele>236.6</ele>
        <time>2026-08-22T14:42:53Z</time>
      </trkpt>
      <trkpt lat="47.17208" lon="5.90628">
        <ele>236.2</ele>
        <time>2026-08-22T14:42:56Z</time>
      </trkpt>
      <trkpt lat="47.17204" lon="5.90633">
        <ele>235.9</ele>
        <time>2026-08-22T14:42:59Z</time>
      </trkpt>
      <trkpt lat="47.17201" lon="5.90637">
        <ele>235.5</ele>
        <time>2026-08-22T14:43:02Z</time>
      </trkpt>
      <trkpt lat="47.17198" lon="5.90642">
        <ele>235.2</ele>
        <time>2026-08-22T14:43:05Z</time>
      </trkpt>
      <trkpt lat="47.17194" lon="5.90646">
        <ele>234.8</ele>
        <time>2026-08-22T14:43:08Z</time>
      </trkpt>
      <trkpt lat="47.1719" lon="5.90651">
        <ele>234.5</ele>
        <time>2026-08-22T14:43:11Z</time>
      </trkpt>
      <trkpt lat="47.17187" lon="5.90656">
        <ele>234.2</ele>
        <time>2026-08-22T14:43:14Z</time>
      </trkpt>
      <trkpt lat="47.17184" lon="5.90663">
        <ele>233.8</ele>
        <time>2026-08-22T14:43:18Z</time>
      </trkpt>
      <trkpt lat="47.17181" lon="5.90669">
        <ele>233.6</ele>
        <time>2026-08-22T14:43:21Z</time>
      </trkpt>
      <trkpt lat="47.17178" lon="5.90675">
        <ele>233.3</ele>
        <time>2026-08-22T14:43:24Z</time>
      </trkpt>
      <trkpt lat="47.17175" lon="5.90687">
        <ele>233</ele>
        <time>2026-08-22T14:43:30Z</time>
      </trkpt>
      <trkpt lat="47.17174" lon="5.90694">
        <ele>232.9</ele>
        <time>2026-08-22T14:43:40Z</time>
      </trkpt>
      <trkpt lat="47.1717" lon="5.907">
        <ele>232.8</ele>
        <time>2026-08-22T14:43:43Z</time>
      </trkpt>
      <trkpt lat="47.17165" lon="5.90705">
        <ele>232.7</ele>
        <time>2026-08-22T14:43:47Z</time>
      </trkpt>
      <trkpt lat="47.17162" lon="5.90711">
        <ele>232.6</ele>
        <time>2026-08-22T14:43:50Z</time>
      </trkpt>
      <trkpt lat="47.17161" lon="5.90718">
        <ele>232.6</ele>
        <time>2026-08-22T14:43:53Z</time>
      </trkpt>
      <trkpt lat="47.17161" lon="5.90726">
        <ele>232.5</ele>
        <time>2026-08-22T14:43:56Z</time>
      </trkpt>
      <trkpt lat="47.1716" lon="5.90733">
        <ele>232.5</ele>
        <time>2026-08-22T14:43:59Z</time>
      </trkpt>
      <trkpt lat="47.17158" lon="5.9074">
        <ele>232.4</ele>
        <time>2026-08-22T14:44:03Z</time>
      </trkpt>
      <trkpt lat="47.17155" lon="5.90746">
        <ele>232.4</ele>
        <time>2026-08-22T14:44:06Z</time>
      </trkpt>
      <trkpt lat="47.17152" lon="5.9075">
        <ele>232.4</ele>
        <time>2026-08-22T14:44:09Z</time>
      </trkpt>
      <trkpt lat="47.17149" lon="5.90757">
        <ele>232.3</ele>
        <time>2026-08-22T14:44:13Z</time>
      </trkpt>
      <trkpt lat="47.1714" lon="5.90765">
        <ele>232.6</ele>
        <time>2026-08-22T14:44:21Z</time>
      </trkpt>
      <trkpt lat="47.1712" lon="5.90764">
        <ele>235.4</ele>
        <time>2026-08-22T14:44:37Z</time>
      </trkpt>
      <trkpt lat="47.17111" lon="5.90768">
        <ele>237.3</ele>
        <time>2026-08-22T14:44:43Z</time>
      </trkpt>
      <trkpt lat="47.17109" lon="5.90774">
        <ele>238.4</ele>
        <time>2026-08-22T14:44:56Z</time>
      </trkpt>
      <trkpt lat="47.17107" lon="5.90781">
        <ele>238.8</ele>
        <time>2026-08-22T14:45:04Z</time>
      </trkpt>
      <trkpt lat="47.17106" lon="5.90789">
        <ele>238.9</ele>
        <time>2026-08-22T14:45:08Z</time>
      </trkpt>
      <trkpt lat="47.17111" lon="5.90797">
        <ele>236.8</ele>
        <time>2026-08-22T14:45:13Z</time>
      </trkpt>
      <trkpt lat="47.17119" lon="5.90802">
        <ele>232.9</ele>
        <time>2026-08-22T14:45:15Z</time>
      </trkpt>
      <trkpt lat="47.17127" lon="5.90803">
        <ele>231.1</ele>
        <time>2026-08-22T14:45:29Z</time>
      </trkpt>
      <trkpt lat="47.17124" lon="5.90797">
        <ele>234.8</ele>
        <time>2026-08-22T14:45:38Z</time>
      </trkpt>
      <trkpt lat="47.17123" lon="5.90788">
        <ele>238.2</ele>
        <time>2026-08-22T14:45:43Z</time>
      </trkpt>
      <trkpt lat="47.17122" lon="5.9078">
        <ele>240.6</ele>
        <time>2026-08-22T14:45:47Z</time>
      </trkpt>
      <trkpt lat="47.17126" lon="5.90779">
        <ele>239.7</ele>
        <time>2026-08-22T14:45:52Z</time>
      </trkpt>
      <trkpt lat="47.1713" lon="5.90783">
        <ele>238.5</ele>
        <time>2026-08-22T14:46:00Z</time>
      </trkpt>
      <trkpt lat="47.17128" lon="5.90789">
        <ele>239.1</ele>
        <time>2026-08-22T14:46:10Z</time>
      </trkpt>
      <trkpt lat="47.17126" lon="5.90804">
        <ele>232.2</ele>
        <time>2026-08-22T14:46:20Z</time>
      </trkpt>
      <trkpt lat="47.17126" lon="5.90804">
        <ele>232.7</ele>
        <time>2026-08-22T14:46:26Z</time>
      </trkpt>
      <trkpt lat="47.17125" lon="5.90797">
        <ele>238.7</ele>
        <time>2026-08-22T14:46:34Z</time>
      </trkpt>
      <trkpt lat="47.17122" lon="5.9079">
        <ele>240.9</ele>
        <time>2026-08-22T14:46:37Z</time>
      </trkpt>
      <trkpt lat="47.17117" lon="5.90774">
        <ele>245</ele>
        <time>2026-08-22T14:46:44Z</time>
      </trkpt>
      <trkpt lat="47.17113" lon="5.90765">
        <ele>245.6</ele>
        <time>2026-08-22T14:46:47Z</time>
      </trkpt>
      <trkpt lat="47.17111" lon="5.90758">
        <ele>246.7</ele>
        <time>2026-08-22T14:46:51Z</time>
      </trkpt>
      <trkpt lat="47.17108" lon="5.90751">
        <ele>248</ele>
        <time>2026-08-22T14:46:55Z</time>
      </trkpt>
      <trkpt lat="47.17106" lon="5.90743">
        <ele>249.4</ele>
        <time>2026-08-22T14:46:59Z</time>
      </trkpt>
      <trkpt lat="47.171" lon="5.90729">
        <ele>251.2</ele>
        <time>2026-08-22T14:47:06Z</time>
      </trkpt>
      <trkpt lat="47.17098" lon="5.90723">
        <ele>252.1</ele>
        <time>2026-08-22T14:47:09Z</time>
      </trkpt>
      <trkpt lat="47.17096" lon="5.90717">
        <ele>253</ele>
        <time>2026-08-22T14:47:12Z</time>
      </trkpt>
      <trkpt lat="47.17092" lon="5.90712">
        <ele>254.2</ele>
        <time>2026-08-22T14:47:25Z</time>
      </trkpt>
      <trkpt lat="47.17103" lon="5.9074">
        <ele>252.4</ele>
        <time>2026-08-22T14:47:32Z</time>
      </trkpt>
      <trkpt lat="47.1712" lon="5.90781">
        <ele>249.4</ele>
        <time>2026-08-22T14:47:38Z</time>
      </trkpt>
      <trkpt lat="47.17131" lon="5.90808">
        <ele>235.3</ele>
        <time>2026-08-22T14:47:46Z</time>
      </trkpt>
      <trkpt lat="47.17135" lon="5.90817">
        <ele>232.3</ele>
        <time>2026-08-22T14:47:52Z</time>
      </trkpt>
      <trkpt lat="47.16975" lon="5.90607">
        <ele>229.4</ele>
        <time>2026-08-22T14:48:12Z</time>
      </trkpt>
      <trkpt lat="47.16972" lon="5.90602">
        <ele>229.4</ele>
        <time>2026-08-22T14:48:14Z</time>
      </trkpt>
      <trkpt lat="47.16968" lon="5.90598">
        <ele>229.4</ele>
        <time>2026-08-22T14:48:17Z</time>
      </trkpt>
      <trkpt lat="47.16964" lon="5.90592">
        <ele>229.4</ele>
        <time>2026-08-22T14:48:21Z</time>
      </trkpt>
      <trkpt lat="47.16961" lon="5.90588">
        <ele>229.4</ele>
        <time>2026-08-22T14:48:24Z</time>
      </trkpt>
      <trkpt lat="47.16965" lon="5.9059">
        <ele>229.4</ele>
        <time>2026-08-22T14:48:33Z</time>
      </trkpt>
      <trkpt lat="47.16956" lon="5.90587">
        <ele>229.4</ele>
        <time>2026-08-22T14:48:58Z</time>
      </trkpt>
      <trkpt lat="47.16951" lon="5.90584">
        <ele>229.4</ele>
        <time>2026-08-22T14:49:13Z</time>
      </trkpt>
      <trkpt lat="47.16946" lon="5.90581">
        <ele>229.4</ele>
        <time>2026-08-22T14:49:17Z</time>
      </trkpt>
      <trkpt lat="47.16941" lon="5.90576">
        <ele>229.3</ele>
        <time>2026-08-22T14:49:21Z</time>
      </trkpt>
      <trkpt lat="47.16938" lon="5.90572">
        <ele>229.3</ele>
        <time>2026-08-22T14:49:24Z</time>
      </trkpt>
      <trkpt lat="47.16929" lon="5.90561">
        <ele>229.3</ele>
        <time>2026-08-22T14:49:32Z</time>
      </trkpt>
      <trkpt lat="47.16925" lon="5.90556">
        <ele>229.3</ele>
        <time>2026-08-22T14:49:35Z</time>
      </trkpt>
      <trkpt lat="47.16918" lon="5.90547">
        <ele>229.4</ele>
        <time>2026-08-22T14:49:41Z</time>
      </trkpt>
      <trkpt lat="47.16915" lon="5.90543">
        <ele>229.4</ele>
        <time>2026-08-22T14:49:44Z</time>
      </trkpt>
      <trkpt lat="47.16911" lon="5.90538">
        <ele>229.4</ele>
        <time>2026-08-22T14:49:47Z</time>
      </trkpt>
      <trkpt lat="47.16908" lon="5.90533">
        <ele>229.5</ele>
        <time>2026-08-22T14:49:50Z</time>
      </trkpt>
      <trkpt lat="47.16903" lon="5.90526">
        <ele>229.5</ele>
        <time>2026-08-22T14:49:54Z</time>
      </trkpt>
      <trkpt lat="47.169" lon="5.90522">
        <ele>229.4</ele>
        <time>2026-08-22T14:49:57Z</time>
      </trkpt>
      <trkpt lat="47.16892" lon="5.90512">
        <ele>229.4</ele>
        <time>2026-08-22T14:50:04Z</time>
      </trkpt>
      <trkpt lat="47.16885" lon="5.90503">
        <ele>229.4</ele>
        <time>2026-08-22T14:50:10Z</time>
      </trkpt>
      <trkpt lat="47.16882" lon="5.90498">
        <ele>229.3</ele>
        <time>2026-08-22T14:50:13Z</time>
      </trkpt>
      <trkpt lat="47.16877" lon="5.90492">
        <ele>229.3</ele>
        <time>2026-08-22T14:50:17Z</time>
      </trkpt>
      <trkpt lat="47.16873" lon="5.90488">
        <ele>229.3</ele>
        <time>2026-08-22T14:50:20Z</time>
      </trkpt>
      <trkpt lat="47.1687" lon="5.90484">
        <ele>229.3</ele>
        <time>2026-08-22T14:50:23Z</time>
      </trkpt>
      <trkpt lat="47.16866" lon="5.90479">
        <ele>229.3</ele>
        <time>2026-08-22T14:50:26Z</time>
      </trkpt>
      <trkpt lat="47.16859" lon="5.9047">
        <ele>229.3</ele>
        <time>2026-08-22T14:50:32Z</time>
      </trkpt>
      <trkpt lat="47.16851" lon="5.90458">
        <ele>229.3</ele>
        <time>2026-08-22T14:50:40Z</time>
      </trkpt>
      <trkpt lat="47.16846" lon="5.90453">
        <ele>229.3</ele>
        <time>2026-08-22T14:50:44Z</time>
      </trkpt>
      <trkpt lat="47.16842" lon="5.90447">
        <ele>229.2</ele>
        <time>2026-08-22T14:50:48Z</time>
      </trkpt>
      <trkpt lat="47.16838" lon="5.9044">
        <ele>229.2</ele>
        <time>2026-08-22T14:50:52Z</time>
      </trkpt>
      <trkpt lat="47.16835" lon="5.90436">
        <ele>229.3</ele>
        <time>2026-08-22T14:50:55Z</time>
      </trkpt>
      <trkpt lat="47.1683" lon="5.90431">
        <ele>229.3</ele>
        <time>2026-08-22T14:50:59Z</time>
      </trkpt>
      <trkpt lat="47.16823" lon="5.90419">
        <ele>229.3</ele>
        <time>2026-08-22T14:51:06Z</time>
      </trkpt>
      <trkpt lat="47.16817" lon="5.90407">
        <ele>229.3</ele>
        <time>2026-08-22T14:51:13Z</time>
      </trkpt>
      <trkpt lat="47.1681" lon="5.90396">
        <ele>229.3</ele>
        <time>2026-08-22T14:51:21Z</time>
      </trkpt>
      <trkpt lat="47.16801" lon="5.90387">
        <ele>229.3</ele>
        <time>2026-08-22T14:51:29Z</time>
      </trkpt>
      <trkpt lat="47.16798" lon="5.90381">
        <ele>229.3</ele>
        <time>2026-08-22T14:51:33Z</time>
      </trkpt>
      <trkpt lat="47.16793" lon="5.90375">
        <ele>229.4</ele>
        <time>2026-08-22T14:51:37Z</time>
      </trkpt>
      <trkpt lat="47.16786" lon="5.90372">
        <ele>229.4</ele>
        <time>2026-08-22T14:52:49Z</time>
      </trkpt>
      <trkpt lat="47.16779" lon="5.90352">
        <ele>229.6</ele>
        <time>2026-08-22T14:52:59Z</time>
      </trkpt>
      <trkpt lat="47.16774" lon="5.9034">
        <ele>229.7</ele>
        <time>2026-08-22T14:53:06Z</time>
      </trkpt>
      <trkpt lat="47.16766" lon="5.9033">
        <ele>229.8</ele>
        <time>2026-08-22T14:53:13Z</time>
      </trkpt>
      <trkpt lat="47.16758" lon="5.9032">
        <ele>230</ele>
        <time>2026-08-22T14:53:21Z</time>
      </trkpt>
      <trkpt lat="47.16752" lon="5.90319">
        <ele>230.1</ele>
        <time>2026-08-22T14:53:25Z</time>
      </trkpt>
      <trkpt lat="47.16742" lon="5.90318">
        <ele>229.5</ele>
        <time>2026-08-22T14:53:31Z</time>
      </trkpt>
      <trkpt lat="47.16728" lon="5.90323">
        <ele>228.5</ele>
        <time>2026-08-22T14:53:41Z</time>
      </trkpt>
      <trkpt lat="47.16712" lon="5.90318">
        <ele>227.6</ele>
        <time>2026-08-22T14:53:51Z</time>
      </trkpt>
      <trkpt lat="47.16708" lon="5.90318">
        <ele>227.3</ele>
        <time>2026-08-22T14:53:54Z</time>
      </trkpt>
      <trkpt lat="47.16698" lon="5.90322">
        <ele>226.9</ele>
        <time>2026-08-22T14:54:01Z</time>
      </trkpt>
      <trkpt lat="47.16687" lon="5.90324">
        <ele>226.7</ele>
        <time>2026-08-22T14:54:08Z</time>
      </trkpt>
      <trkpt lat="47.16681" lon="5.90325">
        <ele>226.6</ele>
        <time>2026-08-22T14:54:11Z</time>
      </trkpt>
      <trkpt lat="47.16676" lon="5.90326">
        <ele>226.6</ele>
        <time>2026-08-22T14:54:14Z</time>
      </trkpt>
      <trkpt lat="47.16671" lon="5.90328">
        <ele>226.6</ele>
        <time>2026-08-22T14:54:17Z</time>
      </trkpt>
      <trkpt lat="47.16666" lon="5.90329">
        <ele>226.6</ele>
        <time>2026-08-22T14:54:20Z</time>
      </trkpt>
      <trkpt lat="47.16661" lon="5.9033">
        <ele>226.7</ele>
        <time>2026-08-22T14:54:23Z</time>
      </trkpt>
      <trkpt lat="47.16656" lon="5.90331">
        <ele>226.7</ele>
        <time>2026-08-22T14:54:26Z</time>
      </trkpt>
      <trkpt lat="47.16651" lon="5.90331">
        <ele>226.8</ele>
        <time>2026-08-22T14:54:29Z</time>
      </trkpt>
      <trkpt lat="47.16639" lon="5.90331">
        <ele>226.9</ele>
        <time>2026-08-22T14:54:36Z</time>
      </trkpt>
      <trkpt lat="47.16634" lon="5.90332">
        <ele>227</ele>
        <time>2026-08-22T14:54:39Z</time>
      </trkpt>
      <trkpt lat="47.1663" lon="5.90332">
        <ele>227</ele>
        <time>2026-08-22T14:54:42Z</time>
      </trkpt>
      <trkpt lat="47.1662" lon="5.90331">
        <ele>227.2</ele>
        <time>2026-08-22T14:54:48Z</time>
      </trkpt>
      <trkpt lat="47.16615" lon="5.9033">
        <ele>227.2</ele>
        <time>2026-08-22T14:54:51Z</time>
      </trkpt>
      <trkpt lat="47.1661" lon="5.90329">
        <ele>227.3</ele>
        <time>2026-08-22T14:54:54Z</time>
      </trkpt>
      <trkpt lat="47.16605" lon="5.90327">
        <ele>227.3</ele>
        <time>2026-08-22T14:54:57Z</time>
      </trkpt>
      <trkpt lat="47.16601" lon="5.90326">
        <ele>227.4</ele>
        <time>2026-08-22T14:55:00Z</time>
      </trkpt>
      <trkpt lat="47.16596" lon="5.90325">
        <ele>227.5</ele>
        <time>2026-08-22T14:55:03Z</time>
      </trkpt>
      <trkpt lat="47.16591" lon="5.90323">
        <ele>227.5</ele>
        <time>2026-08-22T14:55:06Z</time>
      </trkpt>
      <trkpt lat="47.16587" lon="5.90321">
        <ele>227.7</ele>
        <time>2026-08-22T14:55:09Z</time>
      </trkpt>
      <trkpt lat="47.16582" lon="5.9032">
        <ele>227.8</ele>
        <time>2026-08-22T14:55:12Z</time>
      </trkpt>
      <trkpt lat="47.16577" lon="5.90319">
        <ele>228</ele>
        <time>2026-08-22T14:55:15Z</time>
      </trkpt>
      <trkpt lat="47.16572" lon="5.90318">
        <ele>228.3</ele>
        <time>2026-08-22T14:55:18Z</time>
      </trkpt>
      <trkpt lat="47.16563" lon="5.90301">
        <ele>229.3</ele>
        <time>2026-08-22T14:55:29Z</time>
      </trkpt>
      <trkpt lat="47.16558" lon="5.90299">
        <ele>229.7</ele>
        <time>2026-08-22T14:55:32Z</time>
      </trkpt>
      <trkpt lat="47.16554" lon="5.90293">
        <ele>230.1</ele>
        <time>2026-08-22T14:55:36Z</time>
      </trkpt>
      <trkpt lat="47.16551" lon="5.90287">
        <ele>230.5</ele>
        <time>2026-08-22T14:55:42Z</time>
      </trkpt>
      <trkpt lat="47.16547" lon="5.90286">
        <ele>230.8</ele>
        <time>2026-08-22T14:55:45Z</time>
      </trkpt>
      <trkpt lat="47.16543" lon="5.9028">
        <ele>231.2</ele>
        <time>2026-08-22T14:55:49Z</time>
      </trkpt>
      <trkpt lat="47.16539" lon="5.90276">
        <ele>231.4</ele>
        <time>2026-08-22T14:55:53Z</time>
      </trkpt>
      <trkpt lat="47.16534" lon="5.90274">
        <ele>231.7</ele>
        <time>2026-08-22T14:55:57Z</time>
      </trkpt>
      <trkpt lat="47.16528" lon="5.90273">
        <ele>231.8</ele>
        <time>2026-08-22T14:56:01Z</time>
      </trkpt>
      <trkpt lat="47.16524" lon="5.90268">
        <ele>231.8</ele>
        <time>2026-08-22T14:56:05Z</time>
      </trkpt>
      <trkpt lat="47.16518" lon="5.90264">
        <ele>231.8</ele>
        <time>2026-08-22T14:56:09Z</time>
      </trkpt>
      <trkpt lat="47.16515" lon="5.90257">
        <ele>231.8</ele>
        <time>2026-08-22T14:56:13Z</time>
      </trkpt>
      <trkpt lat="47.16511" lon="5.90251">
        <ele>231.8</ele>
        <time>2026-08-22T14:56:17Z</time>
      </trkpt>
      <trkpt lat="47.16507" lon="5.90245">
        <ele>231.9</ele>
        <time>2026-08-22T14:56:21Z</time>
      </trkpt>
      <trkpt lat="47.16503" lon="5.9024">
        <ele>231.9</ele>
        <time>2026-08-22T14:56:25Z</time>
      </trkpt>
      <trkpt lat="47.16493" lon="5.90231">
        <ele>232.1</ele>
        <time>2026-08-22T14:56:33Z</time>
      </trkpt>
      <trkpt lat="47.16489" lon="5.90227">
        <ele>232.2</ele>
        <time>2026-08-22T14:56:37Z</time>
      </trkpt>
      <trkpt lat="47.16486" lon="5.90219">
        <ele>232.2</ele>
        <time>2026-08-22T14:56:41Z</time>
      </trkpt>
      <trkpt lat="47.16481" lon="5.90216">
        <ele>232.3</ele>
        <time>2026-08-22T14:56:45Z</time>
      </trkpt>
      <trkpt lat="47.16473" lon="5.90205">
        <ele>232.4</ele>
        <time>2026-08-22T14:56:53Z</time>
      </trkpt>
      <trkpt lat="47.16469" lon="5.902">
        <ele>232.5</ele>
        <time>2026-08-22T14:56:57Z</time>
      </trkpt>
      <trkpt lat="47.16468" lon="5.90193">
        <ele>232.5</ele>
        <time>2026-08-22T14:57:00Z</time>
      </trkpt>
      <trkpt lat="47.16466" lon="5.90187">
        <ele>232.6</ele>
        <time>2026-08-22T14:57:04Z</time>
      </trkpt>
      <trkpt lat="47.16456" lon="5.90168">
        <ele>232.6</ele>
        <time>2026-08-22T14:57:16Z</time>
      </trkpt>
      <trkpt lat="47.16452" lon="5.90163">
        <ele>232.6</ele>
        <time>2026-08-22T14:57:20Z</time>
      </trkpt>
      <trkpt lat="47.16449" lon="5.90156">
        <ele>232.6</ele>
        <time>2026-08-22T14:57:24Z</time>
      </trkpt>
      <trkpt lat="47.16436" lon="5.90133">
        <ele>232.5</ele>
        <time>2026-08-22T14:57:39Z</time>
      </trkpt>
      <trkpt lat="47.16431" lon="5.90128">
        <ele>232.4</ele>
        <time>2026-08-22T14:57:43Z</time>
      </trkpt>
      <trkpt lat="47.1643" lon="5.9012">
        <ele>232.4</ele>
        <time>2026-08-22T14:57:47Z</time>
      </trkpt>
      <trkpt lat="47.16429" lon="5.90112">
        <ele>232.4</ele>
        <time>2026-08-22T14:57:51Z</time>
      </trkpt>
      <trkpt lat="47.16427" lon="5.90104">
        <ele>232.3</ele>
        <time>2026-08-22T14:57:55Z</time>
      </trkpt>
      <trkpt lat="47.16423" lon="5.90098">
        <ele>232.3</ele>
        <time>2026-08-22T14:57:59Z</time>
      </trkpt>
      <trkpt lat="47.16418" lon="5.90094">
        <ele>232.3</ele>
        <time>2026-08-22T14:58:03Z</time>
      </trkpt>
      <trkpt lat="47.16413" lon="5.90091">
        <ele>232.3</ele>
        <time>2026-08-22T14:58:07Z</time>
      </trkpt>
      <trkpt lat="47.16409" lon="5.90085">
        <ele>232.3</ele>
        <time>2026-08-22T14:58:11Z</time>
      </trkpt>
      <trkpt lat="47.16412" lon="5.90078">
        <ele>232.2</ele>
        <time>2026-08-22T14:58:16Z</time>
      </trkpt>
      <trkpt lat="47.16416" lon="5.90072">
        <ele>232.2</ele>
        <time>2026-08-22T14:58:20Z</time>
      </trkpt>
      <trkpt lat="47.16402" lon="5.90039">
        <ele>232.2</ele>
        <time>2026-08-22T14:58:40Z</time>
      </trkpt>
      <trkpt lat="47.16399" lon="5.90034">
        <ele>232.2</ele>
        <time>2026-08-22T14:58:44Z</time>
      </trkpt>
      <trkpt lat="47.1639" lon="5.90028">
        <ele>232.2</ele>
        <time>2026-08-22T14:58:53Z</time>
      </trkpt>
      <trkpt lat="47.1638" lon="5.90003">
        <ele>232.1</ele>
        <time>2026-08-22T14:59:07Z</time>
      </trkpt>
      <trkpt lat="47.16377" lon="5.89999">
        <ele>232.1</ele>
        <time>2026-08-22T14:59:11Z</time>
      </trkpt>
      <trkpt lat="47.16371" lon="5.89985">
        <ele>232</ele>
        <time>2026-08-22T14:59:19Z</time>
      </trkpt>
      <trkpt lat="47.16371" lon="5.89977">
        <ele>230.5</ele>
        <time>2026-08-22T14:59:23Z</time>
      </trkpt>
      <trkpt lat="47.16371" lon="5.89969">
        <ele>229.1</ele>
        <time>2026-08-22T14:59:27Z</time>
      </trkpt>
      <trkpt lat="47.16372" lon="5.89961">
        <ele>226.5</ele>
        <time>2026-08-22T14:59:31Z</time>
      </trkpt>
      <trkpt lat="47.1637" lon="5.89953">
        <ele>228.2</ele>
        <time>2026-08-22T14:59:35Z</time>
      </trkpt>
      <trkpt lat="47.16368" lon="5.89948">
        <ele>229.6</ele>
        <time>2026-08-22T14:59:38Z</time>
      </trkpt>
      <trkpt lat="47.16367" lon="5.89939">
        <ele>228.8</ele>
        <time>2026-08-22T14:59:42Z</time>
      </trkpt>
      <trkpt lat="47.16364" lon="5.89932">
        <ele>228.9</ele>
        <time>2026-08-22T14:59:46Z</time>
      </trkpt>
      <trkpt lat="47.16362" lon="5.89926">
        <ele>227.1</ele>
        <time>2026-08-22T14:59:49Z</time>
      </trkpt>
      <trkpt lat="47.16358" lon="5.89922">
        <ele>227</ele>
        <time>2026-08-22T14:59:52Z</time>
      </trkpt>
      <trkpt lat="47.16349" lon="5.89911">
        <ele>230.6</ele>
        <time>2026-08-22T15:00:00Z</time>
      </trkpt>
      <trkpt lat="47.16348" lon="5.89903">
        <ele>231.8</ele>
        <time>2026-08-22T15:00:04Z</time>
      </trkpt>
      <trkpt lat="47.1635" lon="5.89896">
        <ele>228.8</ele>
        <time>2026-08-22T15:00:08Z</time>
      </trkpt>
      <trkpt lat="47.16351" lon="5.89888">
        <ele>228.4</ele>
        <time>2026-08-22T15:00:12Z</time>
      </trkpt>
      <trkpt lat="47.16351" lon="5.8988">
        <ele>228.3</ele>
        <time>2026-08-22T15:00:16Z</time>
      </trkpt>
      <trkpt lat="47.16348" lon="5.89872">
        <ele>230</ele>
        <time>2026-08-22T15:00:20Z</time>
      </trkpt>
      <trkpt lat="47.16343" lon="5.89861">
        <ele>230.3</ele>
        <time>2026-08-22T15:00:26Z</time>
      </trkpt>
      <trkpt lat="47.16341" lon="5.89855">
        <ele>231.6</ele>
        <time>2026-08-22T15:00:29Z</time>
      </trkpt>
      <trkpt lat="47.16335" lon="5.89832">
        <ele>233.2</ele>
        <time>2026-08-22T15:00:41Z</time>
      </trkpt>
      <trkpt lat="47.16331" lon="5.89827">
        <ele>234.1</ele>
        <time>2026-08-22T15:00:45Z</time>
      </trkpt>
      <trkpt lat="47.16327" lon="5.8982">
        <ele>234.2</ele>
        <time>2026-08-22T15:00:49Z</time>
      </trkpt>
      <trkpt lat="47.16324" lon="5.89807">
        <ele>231.6</ele>
        <time>2026-08-22T15:00:56Z</time>
      </trkpt>
      <trkpt lat="47.16321" lon="5.89802">
        <ele>232.8</ele>
        <time>2026-08-22T15:00:59Z</time>
      </trkpt>
      <trkpt lat="47.16314" lon="5.89782">
        <ele>234.6</ele>
        <time>2026-08-22T15:01:11Z</time>
      </trkpt>
      <trkpt lat="47.16318" lon="5.89784">
        <ele>232.9</ele>
        <time>2026-08-22T15:01:27Z</time>
      </trkpt>
      <trkpt lat="47.16317" lon="5.89781">
        <ele>233.1</ele>
        <time>2026-08-22T15:01:42Z</time>
      </trkpt>
      <trkpt lat="47.16326" lon="5.89774">
        <ele>225.3</ele>
        <time>2026-08-22T15:02:18Z</time>
      </trkpt>
      <trkpt lat="47.16325" lon="5.89767">
        <ele>227.1</ele>
        <time>2026-08-22T15:02:23Z</time>
      </trkpt>
      <trkpt lat="47.1632" lon="5.89753">
        <ele>227.7</ele>
        <time>2026-08-22T15:02:31Z</time>
      </trkpt>
      <trkpt lat="47.16319" lon="5.89745">
        <ele>228.5</ele>
        <time>2026-08-22T15:02:35Z</time>
      </trkpt>
      <trkpt lat="47.16316" lon="5.89738">
        <ele>229.3</ele>
        <time>2026-08-22T15:02:39Z</time>
      </trkpt>
      <trkpt lat="47.16309" lon="5.89727">
        <ele>230.8</ele>
        <time>2026-08-22T15:02:45Z</time>
      </trkpt>
      <trkpt lat="47.16308" lon="5.89721">
        <ele>230.1</ele>
        <time>2026-08-22T15:02:48Z</time>
      </trkpt>
      <trkpt lat="47.16307" lon="5.89713">
        <ele>230</ele>
        <time>2026-08-22T15:02:51Z</time>
      </trkpt>
      <trkpt lat="47.16306" lon="5.89705">
        <ele>227.8</ele>
        <time>2026-08-22T15:02:55Z</time>
      </trkpt>
      <trkpt lat="47.16305" lon="5.89698">
        <ele>225.7</ele>
        <time>2026-08-22T15:02:58Z</time>
      </trkpt>
      <trkpt lat="47.16301" lon="5.89695">
        <ele>225.4</ele>
        <time>2026-08-22T15:03:02Z</time>
      </trkpt>
      <trkpt lat="47.16305" lon="5.89691">
        <ele>222.7</ele>
        <time>2026-08-22T15:03:08Z</time>
      </trkpt>
      <trkpt lat="47.16303" lon="5.89685">
        <ele>221.5</ele>
        <time>2026-08-22T15:03:11Z</time>
      </trkpt>
      <trkpt lat="47.16302" lon="5.89678">
        <ele>221.7</ele>
        <time>2026-08-22T15:03:14Z</time>
      </trkpt>
      <trkpt lat="47.163" lon="5.89671">
        <ele>221.3</ele>
        <time>2026-08-22T15:03:17Z</time>
      </trkpt>
      <trkpt lat="47.16298" lon="5.89663">
        <ele>222.7</ele>
        <time>2026-08-22T15:03:21Z</time>
      </trkpt>
      <trkpt lat="47.16293" lon="5.89649">
        <ele>223.3</ele>
        <time>2026-08-22T15:03:28Z</time>
      </trkpt>
      <trkpt lat="47.16291" lon="5.89643">
        <ele>223.5</ele>
        <time>2026-08-22T15:03:31Z</time>
      </trkpt>
      <trkpt lat="47.16286" lon="5.89632">
        <ele>224.2</ele>
        <time>2026-08-22T15:03:37Z</time>
      </trkpt>
      <trkpt lat="47.16281" lon="5.8962">
        <ele>224.9</ele>
        <time>2026-08-22T15:03:43Z</time>
      </trkpt>
      <trkpt lat="47.1628" lon="5.89614">
        <ele>224.8</ele>
        <time>2026-08-22T15:03:46Z</time>
      </trkpt>
      <trkpt lat="47.16276" lon="5.89606">
        <ele>225.3</ele>
        <time>2026-08-22T15:03:50Z</time>
      </trkpt>
      <trkpt lat="47.16274" lon="5.896">
        <ele>225.3</ele>
        <time>2026-08-22T15:03:53Z</time>
      </trkpt>
      <trkpt lat="47.16274" lon="5.89592">
        <ele>224.3</ele>
        <time>2026-08-22T15:03:57Z</time>
      </trkpt>
      <trkpt lat="47.16274" lon="5.89585">
        <ele>223.8</ele>
        <time>2026-08-22T15:04:01Z</time>
      </trkpt>
      <trkpt lat="47.16276" lon="5.89577">
        <ele>221.4</ele>
        <time>2026-08-22T15:04:05Z</time>
      </trkpt>
      <trkpt lat="47.16281" lon="5.89563">
        <ele>218.6</ele>
        <time>2026-08-22T15:04:13Z</time>
      </trkpt>
      <trkpt lat="47.16276" lon="5.89557">
        <ele>219.7</ele>
        <time>2026-08-22T15:04:27Z</time>
      </trkpt>
      <trkpt lat="47.16272" lon="5.89561">
        <ele>223</ele>
        <time>2026-08-22T15:04:32Z</time>
      </trkpt>
      <trkpt lat="47.16268" lon="5.89556">
        <ele>224.3</ele>
        <time>2026-08-22T15:04:35Z</time>
      </trkpt>
      <trkpt lat="47.16267" lon="5.89549">
        <ele>225.3</ele>
        <time>2026-08-22T15:04:38Z</time>
      </trkpt>
      <trkpt lat="47.16261" lon="5.89544">
        <ele>227.6</ele>
        <time>2026-08-22T15:05:21Z</time>
      </trkpt>
      <trkpt lat="47.16255" lon="5.89539">
        <ele>229.8</ele>
        <time>2026-08-22T15:05:27Z</time>
      </trkpt>
      <trkpt lat="47.16252" lon="5.89532">
        <ele>231.3</ele>
        <time>2026-08-22T15:05:31Z</time>
      </trkpt>
      <trkpt lat="47.16251" lon="5.89525">
        <ele>231.6</ele>
        <time>2026-08-22T15:05:35Z</time>
      </trkpt>
      <trkpt lat="47.16255" lon="5.89514">
        <ele>229.8</ele>
        <time>2026-08-22T15:06:02Z</time>
      </trkpt>
      <trkpt lat="47.16258" lon="5.89509">
        <ele>227.8</ele>
        <time>2026-08-22T15:06:05Z</time>
      </trkpt>
      <trkpt lat="47.16257" lon="5.89494">
        <ele>223.2</ele>
        <time>2026-08-22T15:06:13Z</time>
      </trkpt>
      <trkpt lat="47.16255" lon="5.89487">
        <ele>222.7</ele>
        <time>2026-08-22T15:06:17Z</time>
      </trkpt>
      <trkpt lat="47.16251" lon="5.89482">
        <ele>224.3</ele>
        <time>2026-08-22T15:06:21Z</time>
      </trkpt>
      <trkpt lat="47.16252" lon="5.8946">
        <ele>224.7</ele>
        <time>2026-08-22T15:06:32Z</time>
      </trkpt>
      <trkpt lat="47.16246" lon="5.89448">
        <ele>229.2</ele>
        <time>2026-08-22T15:06:40Z</time>
      </trkpt>
      <trkpt lat="47.16237" lon="5.89422">
        <ele>236.2</ele>
        <time>2026-08-22T15:06:59Z</time>
      </trkpt>
      <trkpt lat="47.16238" lon="5.89399">
        <ele>231.7</ele>
        <time>2026-08-22T15:07:11Z</time>
      </trkpt>
      <trkpt lat="47.16235" lon="5.89391">
        <ele>230.8</ele>
        <time>2026-08-22T15:07:15Z</time>
      </trkpt>
      <trkpt lat="47.16232" lon="5.89384">
        <ele>227.2</ele>
        <time>2026-08-22T15:07:19Z</time>
      </trkpt>
      <trkpt lat="47.16233" lon="5.89377">
        <ele>220.7</ele>
        <time>2026-08-22T15:07:23Z</time>
      </trkpt>
      <trkpt lat="47.16231" lon="5.89369">
        <ele>220.9</ele>
        <time>2026-08-22T15:07:27Z</time>
      </trkpt>
      <trkpt lat="47.16232" lon="5.89362">
        <ele>220.9</ele>
        <time>2026-08-22T15:07:31Z</time>
      </trkpt>
      <trkpt lat="47.16234" lon="5.89355">
        <ele>219.7</ele>
        <time>2026-08-22T15:07:36Z</time>
      </trkpt>
      <trkpt lat="47.16231" lon="5.89341">
        <ele>223.1</ele>
        <time>2026-08-22T15:07:43Z</time>
      </trkpt>
      <trkpt lat="47.16222" lon="5.89325">
        <ele>229.4</ele>
        <time>2026-08-22T15:07:52Z</time>
      </trkpt>
      <trkpt lat="47.16216" lon="5.89312">
        <ele>235</ele>
        <time>2026-08-22T15:08:00Z</time>
      </trkpt>
      <trkpt lat="47.16216" lon="5.89304">
        <ele>235.2</ele>
        <time>2026-08-22T15:08:04Z</time>
      </trkpt>
      <trkpt lat="47.16217" lon="5.89296">
        <ele>233.9</ele>
        <time>2026-08-22T15:08:08Z</time>
      </trkpt>
      <trkpt lat="47.16211" lon="5.89283">
        <ele>231.1</ele>
        <time>2026-08-22T15:08:15Z</time>
      </trkpt>
      <trkpt lat="47.16211" lon="5.89276">
        <ele>228</ele>
        <time>2026-08-22T15:08:18Z</time>
      </trkpt>
      <trkpt lat="47.16209" lon="5.8924">
        <ele>220</ele>
        <time>2026-08-22T15:08:36Z</time>
      </trkpt>
      <trkpt lat="47.16207" lon="5.89234">
        <ele>221.6</ele>
        <time>2026-08-22T15:08:39Z</time>
      </trkpt>
      <trkpt lat="47.16202" lon="5.89219">
        <ele>224.1</ele>
        <time>2026-08-22T15:08:47Z</time>
      </trkpt>
      <trkpt lat="47.16195" lon="5.892">
        <ele>226.4</ele>
        <time>2026-08-22T15:08:57Z</time>
      </trkpt>
      <trkpt lat="47.16193" lon="5.89193">
        <ele>227.6</ele>
        <time>2026-08-22T15:09:01Z</time>
      </trkpt>
      <trkpt lat="47.16185" lon="5.89185">
        <ele>231.5</ele>
        <time>2026-08-22T15:09:08Z</time>
      </trkpt>
      <trkpt lat="47.1618" lon="5.89183">
        <ele>232.5</ele>
        <time>2026-08-22T15:09:11Z</time>
      </trkpt>
      <trkpt lat="47.16178" lon="5.89177">
        <ele>233.4</ele>
        <time>2026-08-22T15:09:14Z</time>
      </trkpt>
      <trkpt lat="47.16176" lon="5.89171">
        <ele>233.9</ele>
        <time>2026-08-22T15:09:17Z</time>
      </trkpt>
      <trkpt lat="47.16174" lon="5.89163">
        <ele>233.4</ele>
        <time>2026-08-22T15:09:21Z</time>
      </trkpt>
      <trkpt lat="47.16168" lon="5.89141">
        <ele>229.6</ele>
        <time>2026-08-22T15:09:32Z</time>
      </trkpt>
      <trkpt lat="47.16168" lon="5.89133">
        <ele>228.5</ele>
        <time>2026-08-22T15:09:36Z</time>
      </trkpt>
      <trkpt lat="47.16166" lon="5.89125">
        <ele>227.8</ele>
        <time>2026-08-22T15:09:40Z</time>
      </trkpt>
      <trkpt lat="47.16165" lon="5.89105">
        <ele>226.6</ele>
        <time>2026-08-22T15:09:49Z</time>
      </trkpt>
      <trkpt lat="47.16161" lon="5.8909">
        <ele>228.4</ele>
        <time>2026-08-22T15:09:56Z</time>
      </trkpt>
      <trkpt lat="47.16159" lon="5.89075">
        <ele>228.8</ele>
        <time>2026-08-22T15:10:03Z</time>
      </trkpt>
      <trkpt lat="47.16157" lon="5.89067">
        <ele>228.7</ele>
        <time>2026-08-22T15:10:07Z</time>
      </trkpt>
      <trkpt lat="47.16156" lon="5.8906">
        <ele>229.3</ele>
        <time>2026-08-22T15:10:10Z</time>
      </trkpt>
      <trkpt lat="47.16153" lon="5.89046">
        <ele>228.6</ele>
        <time>2026-08-22T15:10:17Z</time>
      </trkpt>
      <trkpt lat="47.16151" lon="5.89038">
        <ele>228.1</ele>
        <time>2026-08-22T15:10:21Z</time>
      </trkpt>
      <trkpt lat="47.16149" lon="5.89031">
        <ele>228.1</ele>
        <time>2026-08-22T15:10:25Z</time>
      </trkpt>
      <trkpt lat="47.16144" lon="5.89025">
        <ele>228</ele>
        <time>2026-08-22T15:10:29Z</time>
      </trkpt>
      <trkpt lat="47.16141" lon="5.8902">
        <ele>228</ele>
        <time>2026-08-22T15:10:33Z</time>
      </trkpt>
      <trkpt lat="47.16145" lon="5.89026">
        <ele>227.9</ele>
        <time>2026-08-22T15:11:31Z</time>
      </trkpt>
      <trkpt lat="47.16138" lon="5.89015">
        <ele>227.8</ele>
        <time>2026-08-22T15:12:32Z</time>
      </trkpt>
      <trkpt lat="47.16132" lon="5.89004">
        <ele>227.8</ele>
        <time>2026-08-22T15:12:40Z</time>
      </trkpt>
      <trkpt lat="47.16127" lon="5.88992">
        <ele>227.7</ele>
        <time>2026-08-22T15:12:48Z</time>
      </trkpt>
      <trkpt lat="47.16121" lon="5.88979">
        <ele>227.7</ele>
        <time>2026-08-22T15:12:55Z</time>
      </trkpt>
      <trkpt lat="47.16111" lon="5.88963">
        <ele>227.7</ele>
        <time>2026-08-22T15:13:04Z</time>
      </trkpt>
      <trkpt lat="47.16104" lon="5.88953">
        <ele>227.7</ele>
        <time>2026-08-22T15:13:10Z</time>
      </trkpt>
      <trkpt lat="47.161" lon="5.88948">
        <ele>227.7</ele>
        <time>2026-08-22T15:13:13Z</time>
      </trkpt>
      <trkpt lat="47.16094" lon="5.88936">
        <ele>227.7</ele>
        <time>2026-08-22T15:13:20Z</time>
      </trkpt>
      <trkpt lat="47.16091" lon="5.88929">
        <ele>227.7</ele>
        <time>2026-08-22T15:13:24Z</time>
      </trkpt>
      <trkpt lat="47.16087" lon="5.88922">
        <ele>227.7</ele>
        <time>2026-08-22T15:13:28Z</time>
      </trkpt>
      <trkpt lat="47.1608" lon="5.88911">
        <ele>227.7</ele>
        <time>2026-08-22T15:13:35Z</time>
      </trkpt>
      <trkpt lat="47.16076" lon="5.88906">
        <ele>227.8</ele>
        <time>2026-08-22T15:13:39Z</time>
      </trkpt>
      <trkpt lat="47.16071" lon="5.889">
        <ele>227.8</ele>
        <time>2026-08-22T15:13:43Z</time>
      </trkpt>
      <trkpt lat="47.16067" lon="5.88894">
        <ele>227.8</ele>
        <time>2026-08-22T15:13:47Z</time>
      </trkpt>
      <trkpt lat="47.16063" lon="5.8889">
        <ele>227.8</ele>
        <time>2026-08-22T15:13:50Z</time>
      </trkpt>
      <trkpt lat="47.16059" lon="5.88886">
        <ele>227.8</ele>
        <time>2026-08-22T15:13:53Z</time>
      </trkpt>
      <trkpt lat="47.16055" lon="5.88882">
        <ele>227.8</ele>
        <time>2026-08-22T15:13:56Z</time>
      </trkpt>
      <trkpt lat="47.1603" lon="5.88852">
        <ele>227.9</ele>
        <time>2026-08-22T15:14:18Z</time>
      </trkpt>
      <trkpt lat="47.16026" lon="5.88849">
        <ele>227.9</ele>
        <time>2026-08-22T15:14:21Z</time>
      </trkpt>
      <trkpt lat="47.1601" lon="5.88832">
        <ele>228</ele>
        <time>2026-08-22T15:14:34Z</time>
      </trkpt>
      <trkpt lat="47.16006" lon="5.88827">
        <ele>228</ele>
        <time>2026-08-22T15:14:37Z</time>
      </trkpt>
      <trkpt lat="47.16002" lon="5.88821">
        <ele>228.1</ele>
        <time>2026-08-22T15:14:41Z</time>
      </trkpt>
      <trkpt lat="47.15998" lon="5.88816">
        <ele>228.1</ele>
        <time>2026-08-22T15:14:44Z</time>
      </trkpt>
      <trkpt lat="47.15985" lon="5.88802">
        <ele>228.1</ele>
        <time>2026-08-22T15:14:55Z</time>
      </trkpt>
      <trkpt lat="47.1598" lon="5.88798">
        <ele>228.2</ele>
        <time>2026-08-22T15:14:59Z</time>
      </trkpt>
      <trkpt lat="47.15973" lon="5.88787">
        <ele>228.3</ele>
        <time>2026-08-22T15:15:06Z</time>
      </trkpt>
      <trkpt lat="47.1597" lon="5.88781">
        <ele>228.4</ele>
        <time>2026-08-22T15:15:10Z</time>
      </trkpt>
      <trkpt lat="47.15972" lon="5.88761">
        <ele>228.6</ele>
        <time>2026-08-22T15:15:20Z</time>
      </trkpt>
      <trkpt lat="47.1599" lon="5.88743">
        <ele>228.7</ele>
        <time>2026-08-22T15:15:35Z</time>
      </trkpt>
      <trkpt lat="47.15993" lon="5.88736">
        <ele>228.9</ele>
        <time>2026-08-22T15:15:39Z</time>
      </trkpt>
      <trkpt lat="47.15997" lon="5.8873">
        <ele>229</ele>
        <time>2026-08-22T15:15:43Z</time>
      </trkpt>
      <trkpt lat="47.16004" lon="5.8872">
        <ele>229.3</ele>
        <time>2026-08-22T15:15:51Z</time>
      </trkpt>
      <trkpt lat="47.16009" lon="5.88717">
        <ele>229.5</ele>
        <time>2026-08-22T15:15:55Z</time>
      </trkpt>
      <trkpt lat="47.16015" lon="5.88715">
        <ele>229.7</ele>
        <time>2026-08-22T15:15:59Z</time>
      </trkpt>
      <trkpt lat="47.16024" lon="5.8871">
        <ele>230.1</ele>
        <time>2026-08-22T15:16:06Z</time>
      </trkpt>
      <trkpt lat="47.16035" lon="5.88704">
        <ele>230.7</ele>
        <time>2026-08-22T15:16:14Z</time>
      </trkpt>
      <trkpt lat="47.16045" lon="5.88699">
        <ele>231.2</ele>
        <time>2026-08-22T15:16:22Z</time>
      </trkpt>
      <trkpt lat="47.16057" lon="5.88696">
        <ele>231.6</ele>
        <time>2026-08-22T15:16:30Z</time>
      </trkpt>
      <trkpt lat="47.16066" lon="5.88691">
        <ele>232</ele>
        <time>2026-08-22T15:16:37Z</time>
      </trkpt>
      <trkpt lat="47.16076" lon="5.88689">
        <ele>232.1</ele>
        <time>2026-08-22T15:16:45Z</time>
      </trkpt>
      <trkpt lat="47.16081" lon="5.88689">
        <ele>232.2</ele>
        <time>2026-08-22T15:16:49Z</time>
      </trkpt>
      <trkpt lat="47.16086" lon="5.88686">
        <ele>232.2</ele>
        <time>2026-08-22T15:16:59Z</time>
      </trkpt>
      <trkpt lat="47.161" lon="5.88668">
        <ele>232.3</ele>
        <time>2026-08-22T15:17:10Z</time>
      </trkpt>
      <trkpt lat="47.1611" lon="5.88659">
        <ele>232.3</ele>
        <time>2026-08-22T15:17:56Z</time>
      </trkpt>
      <trkpt lat="47.16113" lon="5.88654">
        <ele>232.3</ele>
        <time>2026-08-22T15:18:00Z</time>
      </trkpt>
      <trkpt lat="47.16118" lon="5.88656">
        <ele>232.3</ele>
        <time>2026-08-22T15:18:14Z</time>
      </trkpt>
      <trkpt lat="47.1613" lon="5.88652">
        <ele>232.2</ele>
        <time>2026-08-22T15:18:22Z</time>
      </trkpt>
      <trkpt lat="47.16136" lon="5.88649">
        <ele>232.1</ele>
        <time>2026-08-22T15:18:26Z</time>
      </trkpt>
      <trkpt lat="47.16155" lon="5.88642">
        <ele>231.8</ele>
        <time>2026-08-22T15:18:39Z</time>
      </trkpt>
      <trkpt lat="47.1616" lon="5.88639">
        <ele>231.6</ele>
        <time>2026-08-22T15:18:43Z</time>
      </trkpt>
      <trkpt lat="47.1617" lon="5.88637">
        <ele>231.2</ele>
        <time>2026-08-22T15:18:50Z</time>
      </trkpt>
      <trkpt lat="47.16175" lon="5.88635">
        <ele>231</ele>
        <time>2026-08-22T15:18:53Z</time>
      </trkpt>
      <trkpt lat="47.1618" lon="5.88631">
        <ele>230.8</ele>
        <time>2026-08-22T15:18:57Z</time>
      </trkpt>
      <trkpt lat="47.16194" lon="5.88621">
        <ele>230.1</ele>
        <time>2026-08-22T15:19:07Z</time>
      </trkpt>
      <trkpt lat="47.16204" lon="5.88614">
        <ele>229.7</ele>
        <time>2026-08-22T15:19:14Z</time>
      </trkpt>
      <trkpt lat="47.16213" lon="5.88611">
        <ele>229.4</ele>
        <time>2026-08-22T15:19:20Z</time>
      </trkpt>
      <trkpt lat="47.16217" lon="5.88608">
        <ele>229.2</ele>
        <time>2026-08-22T15:19:23Z</time>
      </trkpt>
      <trkpt lat="47.16223" lon="5.88606">
        <ele>229.1</ele>
        <time>2026-08-22T15:19:27Z</time>
      </trkpt>
      <trkpt lat="47.16227" lon="5.88603">
        <ele>228.9</ele>
        <time>2026-08-22T15:19:30Z</time>
      </trkpt>
      <trkpt lat="47.16253" lon="5.88594">
        <ele>228.4</ele>
        <time>2026-08-22T15:19:48Z</time>
      </trkpt>
      <trkpt lat="47.16257" lon="5.88593">
        <ele>228.3</ele>
        <time>2026-08-22T15:19:51Z</time>
      </trkpt>
      <trkpt lat="47.16262" lon="5.88592">
        <ele>228.2</ele>
        <time>2026-08-22T15:19:54Z</time>
      </trkpt>
      <trkpt lat="47.16268" lon="5.88589">
        <ele>228.1</ele>
        <time>2026-08-22T15:19:58Z</time>
      </trkpt>
      <trkpt lat="47.16273" lon="5.88587">
        <ele>228.1</ele>
        <time>2026-08-22T15:20:01Z</time>
      </trkpt>
      <trkpt lat="47.16283" lon="5.8858">
        <ele>228</ele>
        <time>2026-08-22T15:20:08Z</time>
      </trkpt>
      <trkpt lat="47.16293" lon="5.88576">
        <ele>228.1</ele>
        <time>2026-08-22T15:20:15Z</time>
      </trkpt>
      <trkpt lat="47.16299" lon="5.88576">
        <ele>228.1</ele>
        <time>2026-08-22T15:20:19Z</time>
      </trkpt>
      <trkpt lat="47.16303" lon="5.88574">
        <ele>228.2</ele>
        <time>2026-08-22T15:20:22Z</time>
      </trkpt>
      <trkpt lat="47.1632" lon="5.88584">
        <ele>228.4</ele>
        <time>2026-08-22T15:20:36Z</time>
      </trkpt>
      <trkpt lat="47.16322" lon="5.88592">
        <ele>228.5</ele>
        <time>2026-08-22T15:20:40Z</time>
      </trkpt>
      <trkpt lat="47.16325" lon="5.88597">
        <ele>228.5</ele>
        <time>2026-08-22T15:20:43Z</time>
      </trkpt>
      <trkpt lat="47.16328" lon="5.88604">
        <ele>228.6</ele>
        <time>2026-08-22T15:20:47Z</time>
      </trkpt>
      <trkpt lat="47.1633" lon="5.88611">
        <ele>228.7</ele>
        <time>2026-08-22T15:20:50Z</time>
      </trkpt>
      <trkpt lat="47.16335" lon="5.88626">
        <ele>228.8</ele>
        <time>2026-08-22T15:20:58Z</time>
      </trkpt>
      <trkpt lat="47.1634" lon="5.88642">
        <ele>228.9</ele>
        <time>2026-08-22T15:21:06Z</time>
      </trkpt>
      <trkpt lat="47.16344" lon="5.88656">
        <ele>229</ele>
        <time>2026-08-22T15:21:13Z</time>
      </trkpt>
      <trkpt lat="47.16346" lon="5.88663">
        <ele>229.1</ele>
        <time>2026-08-22T15:21:17Z</time>
      </trkpt>
      <trkpt lat="47.16347" lon="5.8867">
        <ele>229.1</ele>
        <time>2026-08-22T15:21:20Z</time>
      </trkpt>
      <trkpt lat="47.16346" lon="5.88679">
        <ele>229.1</ele>
        <time>2026-08-22T15:21:24Z</time>
      </trkpt>
      <trkpt lat="47.16347" lon="5.88687">
        <ele>229.2</ele>
        <time>2026-08-22T15:21:28Z</time>
      </trkpt>
      <trkpt lat="47.16348" lon="5.88696">
        <ele>229.3</ele>
        <time>2026-08-22T15:21:32Z</time>
      </trkpt>
      <trkpt lat="47.16348" lon="5.88702">
        <ele>229.3</ele>
        <time>2026-08-22T15:21:35Z</time>
      </trkpt>
      <trkpt lat="47.16348" lon="5.88709">
        <ele>229.4</ele>
        <time>2026-08-22T15:21:38Z</time>
      </trkpt>
      <trkpt lat="47.1635" lon="5.88718">
        <ele>229.6</ele>
        <time>2026-08-22T15:21:42Z</time>
      </trkpt>
      <trkpt lat="47.16352" lon="5.88725">
        <ele>229.7</ele>
        <time>2026-08-22T15:21:45Z</time>
      </trkpt>
      <trkpt lat="47.16355" lon="5.88732">
        <ele>229.8</ele>
        <time>2026-08-22T15:21:49Z</time>
      </trkpt>
      <trkpt lat="47.16358" lon="5.88737">
        <ele>229.8</ele>
        <time>2026-08-22T15:21:52Z</time>
      </trkpt>
      <trkpt lat="47.16362" lon="5.8874">
        <ele>229.9</ele>
        <time>2026-08-22T15:21:55Z</time>
      </trkpt>
      <trkpt lat="47.16367" lon="5.88743">
        <ele>230</ele>
        <time>2026-08-22T15:21:58Z</time>
      </trkpt>
      <trkpt lat="47.16377" lon="5.8875">
        <ele>230</ele>
        <time>2026-08-22T15:22:06Z</time>
      </trkpt>
      <trkpt lat="47.16382" lon="5.88753">
        <ele>230</ele>
        <time>2026-08-22T15:22:10Z</time>
      </trkpt>
      <trkpt lat="47.16381" lon="5.88738">
        <ele>232.5</ele>
        <time>2026-08-22T15:22:16Z</time>
      </trkpt>
      <trkpt lat="47.1638" lon="5.88732">
        <ele>233.4</ele>
        <time>2026-08-22T15:22:19Z</time>
      </trkpt>
      <trkpt lat="47.16379" lon="5.88723">
        <ele>234.7</ele>
        <time>2026-08-22T15:22:23Z</time>
      </trkpt>
      <trkpt lat="47.16378" lon="5.88715">
        <ele>236</ele>
        <time>2026-08-22T15:22:27Z</time>
      </trkpt>
      <trkpt lat="47.16376" lon="5.88707">
        <ele>237.5</ele>
        <time>2026-08-22T15:22:31Z</time>
      </trkpt>
      <trkpt lat="47.16375" lon="5.88698">
        <ele>239.1</ele>
        <time>2026-08-22T15:22:35Z</time>
      </trkpt>
      <trkpt lat="47.16375" lon="5.88682">
        <ele>242.3</ele>
        <time>2026-08-22T15:22:43Z</time>
      </trkpt>
      <trkpt lat="47.16375" lon="5.88675">
        <ele>243.6</ele>
        <time>2026-08-22T15:22:47Z</time>
      </trkpt>
      <trkpt lat="47.16374" lon="5.88667">
        <ele>245.1</ele>
        <time>2026-08-22T15:22:51Z</time>
      </trkpt>
      <trkpt lat="47.16372" lon="5.88659">
        <ele>246.3</ele>
        <time>2026-08-22T15:22:55Z</time>
      </trkpt>
      <trkpt lat="47.16371" lon="5.88652">
        <ele>246.5</ele>
        <time>2026-08-22T15:22:59Z</time>
      </trkpt>
      <trkpt lat="47.16369" lon="5.88645">
        <ele>245.9</ele>
        <time>2026-08-22T15:23:03Z</time>
      </trkpt>
      <trkpt lat="47.16368" lon="5.88637">
        <ele>247.4</ele>
        <time>2026-08-22T15:23:07Z</time>
      </trkpt>
      <trkpt lat="47.16367" lon="5.88628">
        <ele>248.8</ele>
        <time>2026-08-22T15:23:11Z</time>
      </trkpt>
      <trkpt lat="47.16364" lon="5.88614">
        <ele>249.7</ele>
        <time>2026-08-22T15:23:17Z</time>
      </trkpt>
      <trkpt lat="47.16362" lon="5.88607">
        <ele>250</ele>
        <time>2026-08-22T15:23:21Z</time>
      </trkpt>
      <trkpt lat="47.1636" lon="5.88599">
        <ele>250.2</ele>
        <time>2026-08-22T15:23:25Z</time>
      </trkpt>
      <trkpt lat="47.16355" lon="5.88585">
        <ele>250.8</ele>
        <time>2026-08-22T15:23:33Z</time>
      </trkpt>
      <trkpt lat="47.16356" lon="5.88575">
        <ele>252.7</ele>
        <time>2026-08-22T15:23:55Z</time>
      </trkpt>
      <trkpt lat="47.16374" lon="5.88595">
        <ele>257.6</ele>
        <time>2026-08-22T15:24:38Z</time>
      </trkpt>
      <trkpt lat="47.16385" lon="5.88605">
        <ele>261.4</ele>
        <time>2026-08-22T15:26:57Z</time>
      </trkpt>
      <trkpt lat="47.16385" lon="5.88612">
        <ele>260</ele>
        <time>2026-08-22T15:27:02Z</time>
      </trkpt>
      <trkpt lat="47.16393" lon="5.8863">
        <ele>261.7</ele>
        <time>2026-08-22T15:27:18Z</time>
      </trkpt>
      <trkpt lat="47.16392" lon="5.88638">
        <ele>258.6</ele>
        <time>2026-08-22T15:27:23Z</time>
      </trkpt>
      <trkpt lat="47.16395" lon="5.88643">
        <ele>259.3</ele>
        <time>2026-08-22T15:27:29Z</time>
      </trkpt>
      <trkpt lat="47.16397" lon="5.8865">
        <ele>259</ele>
        <time>2026-08-22T15:27:33Z</time>
      </trkpt>
      <trkpt lat="47.16403" lon="5.88661">
        <ele>260</ele>
        <time>2026-08-22T15:27:43Z</time>
      </trkpt>
      <trkpt lat="47.16408" lon="5.88664">
        <ele>261.8</ele>
        <time>2026-08-22T15:27:48Z</time>
      </trkpt>
      <trkpt lat="47.16415" lon="5.88674">
        <ele>263.3</ele>
        <time>2026-08-22T15:28:01Z</time>
      </trkpt>
      <trkpt lat="47.16418" lon="5.8868">
        <ele>263.5</ele>
        <time>2026-08-22T15:28:06Z</time>
      </trkpt>
      <trkpt lat="47.16424" lon="5.88692">
        <ele>264.5</ele>
        <time>2026-08-22T15:28:15Z</time>
      </trkpt>
      <trkpt lat="47.16427" lon="5.88699">
        <ele>265.1</ele>
        <time>2026-08-22T15:28:20Z</time>
      </trkpt>
      <trkpt lat="47.16441" lon="5.88717">
        <ele>268.8</ele>
        <time>2026-08-22T15:28:37Z</time>
      </trkpt>
      <trkpt lat="47.16455" lon="5.88738">
        <ele>272.2</ele>
        <time>2026-08-22T15:28:56Z</time>
      </trkpt>
      <trkpt lat="47.1646" lon="5.88742">
        <ele>272.7</ele>
        <time>2026-08-22T15:29:00Z</time>
      </trkpt>
      <trkpt lat="47.1647" lon="5.88755">
        <ele>274.7</ele>
        <time>2026-08-22T15:29:14Z</time>
      </trkpt>
      <trkpt lat="47.16486" lon="5.88774">
        <ele>277.3</ele>
        <time>2026-08-22T15:29:34Z</time>
      </trkpt>
      <trkpt lat="47.16491" lon="5.88779">
        <ele>277.4</ele>
        <time>2026-08-22T15:29:39Z</time>
      </trkpt>
      <trkpt lat="47.16505" lon="5.88784">
        <ele>280.7</ele>
        <time>2026-08-22T15:29:55Z</time>
      </trkpt>
      <trkpt lat="47.1651" lon="5.88786">
        <ele>281.8</ele>
        <time>2026-08-22T15:30:00Z</time>
      </trkpt>
      <trkpt lat="47.16514" lon="5.88782">
        <ele>282.2</ele>
        <time>2026-08-22T15:30:06Z</time>
      </trkpt>
      <trkpt lat="47.16518" lon="5.88779">
        <ele>283.6</ele>
        <time>2026-08-22T15:30:11Z</time>
      </trkpt>
      <trkpt lat="47.1652" lon="5.88772">
        <ele>284.8</ele>
        <time>2026-08-22T15:30:19Z</time>
      </trkpt>
      <trkpt lat="47.16523" lon="5.88759">
        <ele>286.1</ele>
        <time>2026-08-22T15:30:45Z</time>
      </trkpt>
      <trkpt lat="47.16513" lon="5.88745">
        <ele>287.7</ele>
        <time>2026-08-22T15:31:03Z</time>
      </trkpt>
      <trkpt lat="47.16508" lon="5.8874">
        <ele>287.9</ele>
        <time>2026-08-22T15:31:08Z</time>
      </trkpt>
      <trkpt lat="47.16504" lon="5.88735">
        <ele>287.8</ele>
        <time>2026-08-22T15:31:12Z</time>
      </trkpt>
      <trkpt lat="47.16508" lon="5.88741">
        <ele>287.9</ele>
        <time>2026-08-22T15:32:56Z</time>
      </trkpt>
      <trkpt lat="47.16518" lon="5.88739">
        <ele>287.7</ele>
        <time>2026-08-22T15:33:03Z</time>
      </trkpt>
      <trkpt lat="47.16521" lon="5.88734">
        <ele>286.6</ele>
        <time>2026-08-22T15:33:08Z</time>
      </trkpt>
      <trkpt lat="47.16498" lon="5.88713">
        <ele>288.3</ele>
        <time>2026-08-22T15:33:17Z</time>
      </trkpt>
      <trkpt lat="47.16494" lon="5.88711">
        <ele>288.5</ele>
        <time>2026-08-22T15:33:19Z</time>
      </trkpt>
      <trkpt lat="47.16484" lon="5.88706">
        <ele>288.8</ele>
        <time>2026-08-22T15:33:50Z</time>
      </trkpt>
      <trkpt lat="47.16481" lon="5.88699">
        <ele>289</ele>
        <time>2026-08-22T15:33:54Z</time>
      </trkpt>
      <trkpt lat="47.16477" lon="5.88697">
        <ele>289.1</ele>
        <time>2026-08-22T15:34:02Z</time>
      </trkpt>
      <trkpt lat="47.1647" lon="5.88688">
        <ele>289.4</ele>
        <time>2026-08-22T15:34:43Z</time>
      </trkpt>
      <trkpt lat="47.16481" lon="5.88693">
        <ele>289.1</ele>
        <time>2026-08-22T15:35:01Z</time>
      </trkpt>
      <trkpt lat="47.16484" lon="5.88687">
        <ele>289</ele>
        <time>2026-08-22T15:35:24Z</time>
      </trkpt>
      <trkpt lat="47.16486" lon="5.8868">
        <ele>288.8</ele>
        <time>2026-08-22T15:38:42Z</time>
      </trkpt>
      <trkpt lat="47.16501" lon="5.88688">
        <ele>288.4</ele>
        <time>2026-08-22T15:38:55Z</time>
      </trkpt>
      <trkpt lat="47.16504" lon="5.88693">
        <ele>288.2</ele>
        <time>2026-08-22T15:38:59Z</time>
      </trkpt>
      <trkpt lat="47.16509" lon="5.88696">
        <ele>288</ele>
        <time>2026-08-22T15:39:03Z</time>
      </trkpt>
      <trkpt lat="47.16513" lon="5.88701">
        <ele>287.7</ele>
        <time>2026-08-22T15:39:07Z</time>
      </trkpt>
      <trkpt lat="47.16517" lon="5.88705">
        <ele>287.5</ele>
        <time>2026-08-22T15:39:11Z</time>
      </trkpt>
      <trkpt lat="47.16524" lon="5.88716">
        <ele>286.9</ele>
        <time>2026-08-22T15:39:19Z</time>
      </trkpt>
      <trkpt lat="47.16527" lon="5.88721">
        <ele>286.6</ele>
        <time>2026-08-22T15:39:23Z</time>
      </trkpt>
      <trkpt lat="47.16537" lon="5.88739">
        <ele>285.6</ele>
        <time>2026-08-22T15:39:35Z</time>
      </trkpt>
      <trkpt lat="47.16555" lon="5.88766">
        <ele>283.9</ele>
        <time>2026-08-22T15:39:56Z</time>
      </trkpt>
      <trkpt lat="47.16564" lon="5.88781">
        <ele>283.1</ele>
        <time>2026-08-22T15:40:06Z</time>
      </trkpt>
      <trkpt lat="47.16568" lon="5.88787">
        <ele>282.8</ele>
        <time>2026-08-22T15:40:10Z</time>
      </trkpt>
      <trkpt lat="47.16573" lon="5.88792">
        <ele>282.4</ele>
        <time>2026-08-22T15:40:14Z</time>
      </trkpt>
      <trkpt lat="47.16579" lon="5.88804">
        <ele>281.8</ele>
        <time>2026-08-22T15:40:22Z</time>
      </trkpt>
      <trkpt lat="47.16582" lon="5.8881">
        <ele>281.5</ele>
        <time>2026-08-22T15:40:26Z</time>
      </trkpt>
      <trkpt lat="47.16594" lon="5.88829">
        <ele>280.4</ele>
        <time>2026-08-22T15:40:38Z</time>
      </trkpt>
      <trkpt lat="47.16601" lon="5.88839">
        <ele>279.8</ele>
        <time>2026-08-22T15:40:45Z</time>
      </trkpt>
      <trkpt lat="47.16604" lon="5.88844">
        <ele>279.6</ele>
        <time>2026-08-22T15:40:48Z</time>
      </trkpt>
      <trkpt lat="47.16607" lon="5.8885">
        <ele>279.4</ele>
        <time>2026-08-22T15:40:51Z</time>
      </trkpt>
      <trkpt lat="47.16612" lon="5.88855">
        <ele>279.1</ele>
        <time>2026-08-22T15:40:55Z</time>
      </trkpt>
      <trkpt lat="47.16619" lon="5.88865">
        <ele>278.6</ele>
        <time>2026-08-22T15:41:02Z</time>
      </trkpt>
      <trkpt lat="47.16631" lon="5.88882">
        <ele>277.5</ele>
        <time>2026-08-22T15:41:13Z</time>
      </trkpt>
      <trkpt lat="47.16634" lon="5.88888">
        <ele>277.1</ele>
        <time>2026-08-22T15:41:17Z</time>
      </trkpt>
      <trkpt lat="47.16637" lon="5.88895">
        <ele>276.7</ele>
        <time>2026-08-22T15:41:21Z</time>
      </trkpt>
      <trkpt lat="47.16645" lon="5.88905">
        <ele>276</ele>
        <time>2026-08-22T15:41:28Z</time>
      </trkpt>
      <trkpt lat="47.16648" lon="5.8891">
        <ele>275.6</ele>
        <time>2026-08-22T15:41:31Z</time>
      </trkpt>
      <trkpt lat="47.16652" lon="5.88916">
        <ele>275.3</ele>
        <time>2026-08-22T15:41:35Z</time>
      </trkpt>
      <trkpt lat="47.16667" lon="5.88937">
        <ele>273.8</ele>
        <time>2026-08-22T15:41:50Z</time>
      </trkpt>
      <trkpt lat="47.16675" lon="5.88947">
        <ele>272.9</ele>
        <time>2026-08-22T15:41:57Z</time>
      </trkpt>
      <trkpt lat="47.16679" lon="5.88951">
        <ele>272.4</ele>
        <time>2026-08-22T15:42:00Z</time>
      </trkpt>
      <trkpt lat="47.16682" lon="5.88958">
        <ele>271.8</ele>
        <time>2026-08-22T15:42:04Z</time>
      </trkpt>
      <trkpt lat="47.16688" lon="5.88973">
        <ele>270.6</ele>
        <time>2026-08-22T15:42:12Z</time>
      </trkpt>
      <trkpt lat="47.16691" lon="5.88979">
        <ele>270</ele>
        <time>2026-08-22T15:42:16Z</time>
      </trkpt>
      <trkpt lat="47.16698" lon="5.88991">
        <ele>269.1</ele>
        <time>2026-08-22T15:42:23Z</time>
      </trkpt>
      <trkpt lat="47.16702" lon="5.88997">
        <ele>268.6</ele>
        <time>2026-08-22T15:42:27Z</time>
      </trkpt>
      <trkpt lat="47.16705" lon="5.89002">
        <ele>268.3</ele>
        <time>2026-08-22T15:42:30Z</time>
      </trkpt>
      <trkpt lat="47.16708" lon="5.89008">
        <ele>268</ele>
        <time>2026-08-22T15:42:34Z</time>
      </trkpt>
      <trkpt lat="47.16713" lon="5.89013">
        <ele>267.7</ele>
        <time>2026-08-22T15:42:38Z</time>
      </trkpt>
      <trkpt lat="47.16717" lon="5.89018">
        <ele>267.4</ele>
        <time>2026-08-22T15:42:42Z</time>
      </trkpt>
      <trkpt lat="47.16725" lon="5.89031">
        <ele>267.1</ele>
        <time>2026-08-22T15:42:51Z</time>
      </trkpt>
      <trkpt lat="47.16728" lon="5.89038">
        <ele>267</ele>
        <time>2026-08-22T15:42:55Z</time>
      </trkpt>
      <trkpt lat="47.16731" lon="5.89043">
        <ele>266.9</ele>
        <time>2026-08-22T15:42:58Z</time>
      </trkpt>
      <trkpt lat="47.16749" lon="5.89062">
        <ele>265.5</ele>
        <time>2026-08-22T15:43:13Z</time>
      </trkpt>
      <trkpt lat="47.16754" lon="5.89066">
        <ele>265.1</ele>
        <time>2026-08-22T15:43:17Z</time>
      </trkpt>
      <trkpt lat="47.16759" lon="5.89069">
        <ele>264.7</ele>
        <time>2026-08-22T15:43:21Z</time>
      </trkpt>
      <trkpt lat="47.16768" lon="5.89074">
        <ele>264</ele>
        <time>2026-08-22T15:43:28Z</time>
      </trkpt>
      <trkpt lat="47.16773" lon="5.89076">
        <ele>263.6</ele>
        <time>2026-08-22T15:43:31Z</time>
      </trkpt>
      <trkpt lat="47.16778" lon="5.89079">
        <ele>263.2</ele>
        <time>2026-08-22T15:43:35Z</time>
      </trkpt>
      <trkpt lat="47.16792" lon="5.89088">
        <ele>262.2</ele>
        <time>2026-08-22T15:43:46Z</time>
      </trkpt>
      <trkpt lat="47.16802" lon="5.89095">
        <ele>261.6</ele>
        <time>2026-08-22T15:43:54Z</time>
      </trkpt>
      <trkpt lat="47.16812" lon="5.89102">
        <ele>261.3</ele>
        <time>2026-08-22T15:44:02Z</time>
      </trkpt>
      <trkpt lat="47.16826" lon="5.89113">
        <ele>260.8</ele>
        <time>2026-08-22T15:44:13Z</time>
      </trkpt>
      <trkpt lat="47.1683" lon="5.89117">
        <ele>260.6</ele>
        <time>2026-08-22T15:44:17Z</time>
      </trkpt>
      <trkpt lat="47.16835" lon="5.89122">
        <ele>260.6</ele>
        <time>2026-08-22T15:44:21Z</time>
      </trkpt>
      <trkpt lat="47.1684" lon="5.89126">
        <ele>260.6</ele>
        <time>2026-08-22T15:44:25Z</time>
      </trkpt>
      <trkpt lat="47.16844" lon="5.89129">
        <ele>260.5</ele>
        <time>2026-08-22T15:44:28Z</time>
      </trkpt>
      <trkpt lat="47.16848" lon="5.89136">
        <ele>260.5</ele>
        <time>2026-08-22T15:44:32Z</time>
      </trkpt>
      <trkpt lat="47.16856" lon="5.89147">
        <ele>260.3</ele>
        <time>2026-08-22T15:44:40Z</time>
      </trkpt>
      <trkpt lat="47.16859" lon="5.89154">
        <ele>260.2</ele>
        <time>2026-08-22T15:44:44Z</time>
      </trkpt>
      <trkpt lat="47.16864" lon="5.8916">
        <ele>260</ele>
        <time>2026-08-22T15:44:48Z</time>
      </trkpt>
      <trkpt lat="47.16867" lon="5.89164">
        <ele>259.8</ele>
        <time>2026-08-22T15:44:51Z</time>
      </trkpt>
      <trkpt lat="47.16871" lon="5.8917">
        <ele>259.7</ele>
        <time>2026-08-22T15:44:55Z</time>
      </trkpt>
      <trkpt lat="47.16881" lon="5.89176">
        <ele>259.6</ele>
        <time>2026-08-22T15:45:03Z</time>
      </trkpt>
      <trkpt lat="47.16887" lon="5.89174">
        <ele>259.8</ele>
        <time>2026-08-22T15:45:07Z</time>
      </trkpt>
      <trkpt lat="47.16893" lon="5.89175">
        <ele>260.1</ele>
        <time>2026-08-22T15:45:11Z</time>
      </trkpt>
      <trkpt lat="47.16902" lon="5.8918">
        <ele>260.4</ele>
        <time>2026-08-22T15:45:18Z</time>
      </trkpt>
      <trkpt lat="47.16907" lon="5.89182">
        <ele>260.5</ele>
        <time>2026-08-22T15:45:22Z</time>
      </trkpt>
      <trkpt lat="47.16925" lon="5.89186">
        <ele>260.7</ele>
        <time>2026-08-22T15:45:34Z</time>
      </trkpt>
      <trkpt lat="47.1693" lon="5.89187">
        <ele>260.8</ele>
        <time>2026-08-22T15:45:38Z</time>
      </trkpt>
      <trkpt lat="47.16935" lon="5.89187">
        <ele>260.9</ele>
        <time>2026-08-22T15:45:41Z</time>
      </trkpt>
      <trkpt lat="47.1694" lon="5.89183">
        <ele>261</ele>
        <time>2026-08-22T15:45:45Z</time>
      </trkpt>
      <trkpt lat="47.16944" lon="5.8918">
        <ele>261.1</ele>
        <time>2026-08-22T15:45:48Z</time>
      </trkpt>
      <trkpt lat="47.16957" lon="5.89173">
        <ele>261.3</ele>
        <time>2026-08-22T15:45:59Z</time>
      </trkpt>
      <trkpt lat="47.16963" lon="5.89175">
        <ele>261.3</ele>
        <time>2026-08-22T15:47:21Z</time>
      </trkpt>
      <trkpt lat="47.16963" lon="5.89168">
        <ele>261.3</ele>
        <time>2026-08-22T15:47:24Z</time>
      </trkpt>
      <trkpt lat="47.16962" lon="5.89161">
        <ele>261.3</ele>
        <time>2026-08-22T15:47:29Z</time>
      </trkpt>
      <trkpt lat="47.16963" lon="5.89153">
        <ele>261.3</ele>
        <time>2026-08-22T15:47:36Z</time>
      </trkpt>
      <trkpt lat="47.16963" lon="5.89139">
        <ele>261.3</ele>
        <time>2026-08-22T15:47:43Z</time>
      </trkpt>
      <trkpt lat="47.16965" lon="5.89117">
        <ele>261.2</ele>
        <time>2026-08-22T15:47:55Z</time>
      </trkpt>
      <trkpt lat="47.16966" lon="5.89108">
        <ele>261.2</ele>
        <time>2026-08-22T15:47:59Z</time>
      </trkpt>
      <trkpt lat="47.16968" lon="5.89092">
        <ele>261.1</ele>
        <time>2026-08-22T15:48:07Z</time>
      </trkpt>
      <trkpt lat="47.16969" lon="5.89084">
        <ele>261.1</ele>
        <time>2026-08-22T15:48:11Z</time>
      </trkpt>
      <trkpt lat="47.1697" lon="5.89071">
        <ele>261.1</ele>
        <time>2026-08-22T15:48:18Z</time>
      </trkpt>
    </trkseg>
  </trk>
</gpx>